<?xml version="1.0" encoding="UTF-8" standalone="no" ?>
<gpx xmlns="http://www.topografix.com/GPX/1/1" xmlns:xsi="http://www.w3.org/2001/XMLSchema-instance" xsi:schemaLocation="http://www.topografix.com/GPX/1/1 http://www.topografix.com/GPX/1/1/gpx.xsd" version="1.1" creator="VisuGPX - https://www.visugpx.com">
  <metadata>
    <name>La Chapelle Montjavoult et retour</name>
    <desc><![CDATA[La Chapelle Montjavoult et retour]]></desc>
  </metadata>
  <trk>
    <name><![CDATA[14 déc. 2016]]></name>
    <cmt><![CDATA[09:00:46]]></cmt>
    <desc><![CDATA[comment ...]]></desc>
    <trkseg>
      <trkpt lat="49.18546" lon="1.73354">
        <ele>140</ele>
        <time>2016-12-14T08:00:45Z</time>
      </trkpt>
      <trkpt lat="49.18546" lon="1.73354">
        <ele>136</ele>
        <time>2016-12-14T08:00:46Z</time>
      </trkpt>
      <trkpt lat="49.18572" lon="1.73378">
        <ele>135</ele>
        <time>2016-12-14T08:01:16Z</time>
      </trkpt>
      <trkpt lat="49.18574" lon="1.73382">
        <ele>135</ele>
        <time>2016-12-14T08:01:18Z</time>
      </trkpt>
      <trkpt lat="49.18584" lon="1.73393">
        <ele>135</ele>
        <time>2016-12-14T08:01:28Z</time>
      </trkpt>
      <trkpt lat="49.18602" lon="1.73413">
        <ele>139</ele>
        <time>2016-12-14T08:01:47Z</time>
      </trkpt>
      <trkpt lat="49.18612" lon="1.73428">
        <ele>140</ele>
        <time>2016-12-14T08:02:00Z</time>
      </trkpt>
      <trkpt lat="49.18623" lon="1.73446">
        <ele>140</ele>
        <time>2016-12-14T08:02:14Z</time>
      </trkpt>
      <trkpt lat="49.18643" lon="1.7349">
        <ele>141</ele>
        <time>2016-12-14T08:02:43Z</time>
      </trkpt>
      <trkpt lat="49.18649" lon="1.73506">
        <ele>140</ele>
        <time>2016-12-14T08:02:54Z</time>
      </trkpt>
      <trkpt lat="49.18652" lon="1.73508">
        <ele>141</ele>
        <time>2016-12-14T08:02:58Z</time>
      </trkpt>
      <trkpt lat="49.18656" lon="1.73529">
        <ele>142</ele>
        <time>2016-12-14T08:03:11Z</time>
      </trkpt>
      <trkpt lat="49.18659" lon="1.73532">
        <ele>141</ele>
        <time>2016-12-14T08:03:14Z</time>
      </trkpt>
      <trkpt lat="49.18659" lon="1.73537">
        <ele>141</ele>
        <time>2016-12-14T08:03:16Z</time>
      </trkpt>
      <trkpt lat="49.18662" lon="1.73537">
        <ele>140</ele>
        <time>2016-12-14T08:03:20Z</time>
      </trkpt>
      <trkpt lat="49.18663" lon="1.73549">
        <ele>141</ele>
        <time>2016-12-14T08:03:25Z</time>
      </trkpt>
      <trkpt lat="49.18666" lon="1.73572">
        <ele>143</ele>
        <time>2016-12-14T08:03:38Z</time>
      </trkpt>
      <trkpt lat="49.18679" lon="1.73617">
        <ele>142</ele>
        <time>2016-12-14T08:04:09Z</time>
      </trkpt>
      <trkpt lat="49.18681" lon="1.7362">
        <ele>143</ele>
        <time>2016-12-14T08:04:15Z</time>
      </trkpt>
      <trkpt lat="49.18683" lon="1.73631">
        <ele>142</ele>
        <time>2016-12-14T08:04:21Z</time>
      </trkpt>
      <trkpt lat="49.18686" lon="1.73666">
        <ele>143</ele>
        <time>2016-12-14T08:04:37Z</time>
      </trkpt>
      <trkpt lat="49.18689" lon="1.73686">
        <ele>143</ele>
        <time>2016-12-14T08:04:46Z</time>
      </trkpt>
      <trkpt lat="49.18694" lon="1.73694">
        <ele>144</ele>
        <time>2016-12-14T08:04:54Z</time>
      </trkpt>
      <trkpt lat="49.18701" lon="1.73719">
        <ele>142</ele>
        <time>2016-12-14T08:05:10Z</time>
      </trkpt>
      <trkpt lat="49.1871" lon="1.73762">
        <ele>144</ele>
        <time>2016-12-14T08:05:34Z</time>
      </trkpt>
      <trkpt lat="49.18715" lon="1.73781">
        <ele>144</ele>
        <time>2016-12-14T08:05:43Z</time>
      </trkpt>
      <trkpt lat="49.18718" lon="1.73782">
        <ele>143</ele>
        <time>2016-12-14T08:05:46Z</time>
      </trkpt>
      <trkpt lat="49.18717" lon="1.73788">
        <ele>144</ele>
        <time>2016-12-14T08:05:48Z</time>
      </trkpt>
      <trkpt lat="49.18723" lon="1.73807">
        <ele>145</ele>
        <time>2016-12-14T08:06:00Z</time>
      </trkpt>
      <trkpt lat="49.18725" lon="1.73814">
        <ele>145</ele>
        <time>2016-12-14T08:06:04Z</time>
      </trkpt>
      <trkpt lat="49.18731" lon="1.73819">
        <ele>147</ele>
        <time>2016-12-14T08:06:10Z</time>
      </trkpt>
      <trkpt lat="49.18737" lon="1.73831">
        <ele>150</ele>
        <time>2016-12-14T08:06:20Z</time>
      </trkpt>
      <trkpt lat="49.18743" lon="1.73834">
        <ele>150</ele>
        <time>2016-12-14T08:06:26Z</time>
      </trkpt>
      <trkpt lat="49.18749" lon="1.73846">
        <ele>148</ele>
        <time>2016-12-14T08:06:34Z</time>
      </trkpt>
      <trkpt lat="49.18754" lon="1.73856">
        <ele>149</ele>
        <time>2016-12-14T08:06:41Z</time>
      </trkpt>
      <trkpt lat="49.18759" lon="1.73851">
        <ele>150</ele>
        <time>2016-12-14T08:06:43Z</time>
      </trkpt>
      <trkpt lat="49.18766" lon="1.73864">
        <ele>149</ele>
        <time>2016-12-14T08:06:50Z</time>
      </trkpt>
      <trkpt lat="49.18773" lon="1.73889">
        <ele>147</ele>
        <time>2016-12-14T08:07:03Z</time>
      </trkpt>
      <trkpt lat="49.18774" lon="1.73895">
        <ele>146</ele>
        <time>2016-12-14T08:07:05Z</time>
      </trkpt>
      <trkpt lat="49.18777" lon="1.73899">
        <ele>147</ele>
        <time>2016-12-14T08:07:08Z</time>
      </trkpt>
      <trkpt lat="49.1878" lon="1.73895">
        <ele>146</ele>
        <time>2016-12-14T08:07:11Z</time>
      </trkpt>
      <trkpt lat="49.18783" lon="1.73894">
        <ele>145</ele>
        <time>2016-12-14T08:07:13Z</time>
      </trkpt>
      <trkpt lat="49.18787" lon="1.73897">
        <ele>144</ele>
        <time>2016-12-14T08:07:17Z</time>
      </trkpt>
      <trkpt lat="49.1879" lon="1.73902">
        <ele>143</ele>
        <time>2016-12-14T08:07:21Z</time>
      </trkpt>
      <trkpt lat="49.18791" lon="1.73915">
        <ele>145</ele>
        <time>2016-12-14T08:07:27Z</time>
      </trkpt>
      <trkpt lat="49.18796" lon="1.73914">
        <ele>145</ele>
        <time>2016-12-14T08:07:30Z</time>
      </trkpt>
      <trkpt lat="49.18798" lon="1.7392">
        <ele>144</ele>
        <time>2016-12-14T08:07:32Z</time>
      </trkpt>
      <trkpt lat="49.18801" lon="1.73924">
        <ele>144</ele>
        <time>2016-12-14T08:07:35Z</time>
      </trkpt>
      <trkpt lat="49.18804" lon="1.73934">
        <ele>145</ele>
        <time>2016-12-14T08:07:40Z</time>
      </trkpt>
      <trkpt lat="49.18811" lon="1.73938">
        <ele>146</ele>
        <time>2016-12-14T08:07:46Z</time>
      </trkpt>
      <trkpt lat="49.18811" lon="1.73943">
        <ele>146</ele>
        <time>2016-12-14T08:07:49Z</time>
      </trkpt>
      <trkpt lat="49.18817" lon="1.73952">
        <ele>146</ele>
        <time>2016-12-14T08:07:57Z</time>
      </trkpt>
      <trkpt lat="49.1882" lon="1.73965">
        <ele>146</ele>
        <time>2016-12-14T08:08:03Z</time>
      </trkpt>
      <trkpt lat="49.18824" lon="1.73966">
        <ele>146</ele>
        <time>2016-12-14T08:08:07Z</time>
      </trkpt>
      <trkpt lat="49.18826" lon="1.73972">
        <ele>146</ele>
        <time>2016-12-14T08:08:10Z</time>
      </trkpt>
      <trkpt lat="49.1883" lon="1.73969">
        <ele>146</ele>
        <time>2016-12-14T08:08:12Z</time>
      </trkpt>
      <trkpt lat="49.18834" lon="1.73969">
        <ele>143</ele>
        <time>2016-12-14T08:08:15Z</time>
      </trkpt>
      <trkpt lat="49.1884" lon="1.73987">
        <ele>143</ele>
        <time>2016-12-14T08:08:24Z</time>
      </trkpt>
      <trkpt lat="49.18842" lon="1.73992">
        <ele>143</ele>
        <time>2016-12-14T08:08:27Z</time>
      </trkpt>
      <trkpt lat="49.18856" lon="1.74003">
        <ele>144</ele>
        <time>2016-12-14T08:08:41Z</time>
      </trkpt>
      <trkpt lat="49.18857" lon="1.7401">
        <ele>143</ele>
        <time>2016-12-14T08:08:43Z</time>
      </trkpt>
      <trkpt lat="49.18865" lon="1.74025">
        <ele>143</ele>
        <time>2016-12-14T08:08:51Z</time>
      </trkpt>
      <trkpt lat="49.18867" lon="1.7402">
        <ele>143</ele>
        <time>2016-12-14T08:08:54Z</time>
      </trkpt>
      <trkpt lat="49.1887" lon="1.74025">
        <ele>143</ele>
        <time>2016-12-14T08:08:58Z</time>
      </trkpt>
      <trkpt lat="49.18874" lon="1.74036">
        <ele>143</ele>
        <time>2016-12-14T08:09:03Z</time>
      </trkpt>
      <trkpt lat="49.18878" lon="1.74044">
        <ele>141</ele>
        <time>2016-12-14T08:09:08Z</time>
      </trkpt>
      <trkpt lat="49.1888" lon="1.74046">
        <ele>139</ele>
        <time>2016-12-14T08:09:12Z</time>
      </trkpt>
      <trkpt lat="49.18885" lon="1.7406">
        <ele>141</ele>
        <time>2016-12-14T08:09:19Z</time>
      </trkpt>
      <trkpt lat="49.18911" lon="1.74108">
        <ele>144</ele>
        <time>2016-12-14T08:09:51Z</time>
      </trkpt>
      <trkpt lat="49.18915" lon="1.7411">
        <ele>144</ele>
        <time>2016-12-14T08:09:55Z</time>
      </trkpt>
      <trkpt lat="49.18917" lon="1.74116">
        <ele>144</ele>
        <time>2016-12-14T08:09:58Z</time>
      </trkpt>
      <trkpt lat="49.18922" lon="1.74113">
        <ele>142</ele>
        <time>2016-12-14T08:10:01Z</time>
      </trkpt>
      <trkpt lat="49.18934" lon="1.74131">
        <ele>143</ele>
        <time>2016-12-14T08:10:15Z</time>
      </trkpt>
      <trkpt lat="49.18938" lon="1.74134">
        <ele>143</ele>
        <time>2016-12-14T08:10:19Z</time>
      </trkpt>
      <trkpt lat="49.1894" lon="1.74141">
        <ele>142</ele>
        <time>2016-12-14T08:10:22Z</time>
      </trkpt>
      <trkpt lat="49.18942" lon="1.74157">
        <ele>140</ele>
        <time>2016-12-14T08:10:27Z</time>
      </trkpt>
      <trkpt lat="49.18945" lon="1.7416">
        <ele>136</ele>
        <time>2016-12-14T08:10:29Z</time>
      </trkpt>
      <trkpt lat="49.18948" lon="1.74157">
        <ele>135</ele>
        <time>2016-12-14T08:10:31Z</time>
      </trkpt>
      <trkpt lat="49.18949" lon="1.74161">
        <ele>137</ele>
        <time>2016-12-14T08:10:33Z</time>
      </trkpt>
      <trkpt lat="49.18952" lon="1.74163">
        <ele>138</ele>
        <time>2016-12-14T08:10:37Z</time>
      </trkpt>
      <trkpt lat="49.18954" lon="1.7417">
        <ele>140</ele>
        <time>2016-12-14T08:10:41Z</time>
      </trkpt>
      <trkpt lat="49.18962" lon="1.74164">
        <ele>141</ele>
        <time>2016-12-14T08:10:47Z</time>
      </trkpt>
      <trkpt lat="49.18965" lon="1.74171">
        <ele>142</ele>
        <time>2016-12-14T08:10:52Z</time>
      </trkpt>
      <trkpt lat="49.18966" lon="1.74187">
        <ele>143</ele>
        <time>2016-12-14T08:10:55Z</time>
      </trkpt>
      <trkpt lat="49.1897" lon="1.74193">
        <ele>145</ele>
        <time>2016-12-14T08:11:00Z</time>
      </trkpt>
      <trkpt lat="49.18975" lon="1.74193">
        <ele>147</ele>
        <time>2016-12-14T08:11:04Z</time>
      </trkpt>
      <trkpt lat="49.18978" lon="1.74202">
        <ele>147</ele>
        <time>2016-12-14T08:11:08Z</time>
      </trkpt>
      <trkpt lat="49.18979" lon="1.7421">
        <ele>148</ele>
        <time>2016-12-14T08:11:10Z</time>
      </trkpt>
      <trkpt lat="49.18983" lon="1.7421">
        <ele>148</ele>
        <time>2016-12-14T08:11:14Z</time>
      </trkpt>
      <trkpt lat="49.18991" lon="1.74224">
        <ele>147</ele>
        <time>2016-12-14T08:11:24Z</time>
      </trkpt>
      <trkpt lat="49.18996" lon="1.74227">
        <ele>146</ele>
        <time>2016-12-14T08:11:28Z</time>
      </trkpt>
      <trkpt lat="49.19001" lon="1.74249">
        <ele>145</ele>
        <time>2016-12-14T08:11:38Z</time>
      </trkpt>
      <trkpt lat="49.1901" lon="1.74251">
        <ele>144</ele>
        <time>2016-12-14T08:11:48Z</time>
      </trkpt>
      <trkpt lat="49.19015" lon="1.74261">
        <ele>144</ele>
        <time>2016-12-14T08:11:54Z</time>
      </trkpt>
      <trkpt lat="49.19019" lon="1.74259">
        <ele>144</ele>
        <time>2016-12-14T08:11:58Z</time>
      </trkpt>
      <trkpt lat="49.19029" lon="1.74272">
        <ele>144</ele>
        <time>2016-12-14T08:12:09Z</time>
      </trkpt>
      <trkpt lat="49.19034" lon="1.74284">
        <ele>144</ele>
        <time>2016-12-14T08:12:17Z</time>
      </trkpt>
      <trkpt lat="49.19045" lon="1.74295">
        <ele>142</ele>
        <time>2016-12-14T08:12:32Z</time>
      </trkpt>
      <trkpt lat="49.19049" lon="1.74305">
        <ele>143</ele>
        <time>2016-12-14T08:12:37Z</time>
      </trkpt>
      <trkpt lat="49.19052" lon="1.74306">
        <ele>143</ele>
        <time>2016-12-14T08:12:40Z</time>
      </trkpt>
      <trkpt lat="49.19058" lon="1.7431">
        <ele>142</ele>
        <time>2016-12-14T08:12:47Z</time>
      </trkpt>
      <trkpt lat="49.19065" lon="1.74315">
        <ele>143</ele>
        <time>2016-12-14T08:12:52Z</time>
      </trkpt>
      <trkpt lat="49.19066" lon="1.74326">
        <ele>141</ele>
        <time>2016-12-14T08:12:58Z</time>
      </trkpt>
      <trkpt lat="49.1907" lon="1.74327">
        <ele>140</ele>
        <time>2016-12-14T08:13:02Z</time>
      </trkpt>
      <trkpt lat="49.19091" lon="1.7437">
        <ele>138</ele>
        <time>2016-12-14T08:13:33Z</time>
      </trkpt>
      <trkpt lat="49.19104" lon="1.74401">
        <ele>140</ele>
        <time>2016-12-14T08:13:55Z</time>
      </trkpt>
      <trkpt lat="49.19117" lon="1.74425">
        <ele>136</ele>
        <time>2016-12-14T08:14:10Z</time>
      </trkpt>
      <trkpt lat="49.19123" lon="1.7443">
        <ele>137</ele>
        <time>2016-12-14T08:14:16Z</time>
      </trkpt>
      <trkpt lat="49.19125" lon="1.74435">
        <ele>138</ele>
        <time>2016-12-14T08:14:19Z</time>
      </trkpt>
      <trkpt lat="49.19132" lon="1.74438">
        <ele>140</ele>
        <time>2016-12-14T08:14:26Z</time>
      </trkpt>
      <trkpt lat="49.19136" lon="1.74448">
        <ele>139</ele>
        <time>2016-12-14T08:14:34Z</time>
      </trkpt>
      <trkpt lat="49.19137" lon="1.74456">
        <ele>139</ele>
        <time>2016-12-14T08:14:37Z</time>
      </trkpt>
      <trkpt lat="49.19141" lon="1.74452">
        <ele>139</ele>
        <time>2016-12-14T08:14:41Z</time>
      </trkpt>
      <trkpt lat="49.19143" lon="1.7446">
        <ele>138</ele>
        <time>2016-12-14T08:14:44Z</time>
      </trkpt>
      <trkpt lat="49.19146" lon="1.74465">
        <ele>139</ele>
        <time>2016-12-14T08:14:48Z</time>
      </trkpt>
      <trkpt lat="49.19153" lon="1.74474">
        <ele>138</ele>
        <time>2016-12-14T08:14:57Z</time>
      </trkpt>
      <trkpt lat="49.19154" lon="1.7448">
        <ele>139</ele>
        <time>2016-12-14T08:14:58Z</time>
      </trkpt>
      <trkpt lat="49.19161" lon="1.74492">
        <ele>139</ele>
        <time>2016-12-14T08:15:08Z</time>
      </trkpt>
      <trkpt lat="49.19163" lon="1.74495">
        <ele>139</ele>
        <time>2016-12-14T08:15:10Z</time>
      </trkpt>
      <trkpt lat="49.19184" lon="1.74513">
        <ele>136</ele>
        <time>2016-12-14T08:15:30Z</time>
      </trkpt>
      <trkpt lat="49.1919" lon="1.74532">
        <ele>140</ele>
        <time>2016-12-14T08:15:39Z</time>
      </trkpt>
      <trkpt lat="49.19194" lon="1.74531">
        <ele>139</ele>
        <time>2016-12-14T08:15:43Z</time>
      </trkpt>
      <trkpt lat="49.19198" lon="1.74537">
        <ele>138</ele>
        <time>2016-12-14T08:15:48Z</time>
      </trkpt>
      <trkpt lat="49.19199" lon="1.7455">
        <ele>138</ele>
        <time>2016-12-14T08:15:52Z</time>
      </trkpt>
      <trkpt lat="49.19205" lon="1.74553">
        <ele>138</ele>
        <time>2016-12-14T08:15:58Z</time>
      </trkpt>
      <trkpt lat="49.19214" lon="1.74564">
        <ele>137</ele>
        <time>2016-12-14T08:16:07Z</time>
      </trkpt>
      <trkpt lat="49.19214" lon="1.74572">
        <ele>138</ele>
        <time>2016-12-14T08:16:11Z</time>
      </trkpt>
      <trkpt lat="49.19217" lon="1.74575">
        <ele>140</ele>
        <time>2016-12-14T08:16:15Z</time>
      </trkpt>
      <trkpt lat="49.19222" lon="1.74572">
        <ele>140</ele>
        <time>2016-12-14T08:16:18Z</time>
      </trkpt>
      <trkpt lat="49.1923" lon="1.74585">
        <ele>139</ele>
        <time>2016-12-14T08:16:28Z</time>
      </trkpt>
      <trkpt lat="49.19233" lon="1.74587">
        <ele>140</ele>
        <time>2016-12-14T08:16:31Z</time>
      </trkpt>
      <trkpt lat="49.19247" lon="1.74604">
        <ele>141</ele>
        <time>2016-12-14T08:16:48Z</time>
      </trkpt>
      <trkpt lat="49.19248" lon="1.74612">
        <ele>140</ele>
        <time>2016-12-14T08:16:51Z</time>
      </trkpt>
      <trkpt lat="49.19259" lon="1.74629">
        <ele>134</ele>
        <time>2016-12-14T08:17:05Z</time>
      </trkpt>
      <trkpt lat="49.19262" lon="1.74631">
        <ele>133</ele>
        <time>2016-12-14T08:17:08Z</time>
      </trkpt>
      <trkpt lat="49.19264" lon="1.74636">
        <ele>135</ele>
        <time>2016-12-14T08:17:11Z</time>
      </trkpt>
      <trkpt lat="49.19271" lon="1.74637">
        <ele>135</ele>
        <time>2016-12-14T08:17:17Z</time>
      </trkpt>
      <trkpt lat="49.19272" lon="1.74641">
        <ele>135</ele>
        <time>2016-12-14T08:17:21Z</time>
      </trkpt>
      <trkpt lat="49.19276" lon="1.74644">
        <ele>138</ele>
        <time>2016-12-14T08:17:25Z</time>
      </trkpt>
      <trkpt lat="49.19279" lon="1.74639">
        <ele>138</ele>
        <time>2016-12-14T08:17:27Z</time>
      </trkpt>
      <trkpt lat="49.19285" lon="1.74646">
        <ele>138</ele>
        <time>2016-12-14T08:17:32Z</time>
      </trkpt>
      <trkpt lat="49.19288" lon="1.74644">
        <ele>138</ele>
        <time>2016-12-14T08:17:35Z</time>
      </trkpt>
      <trkpt lat="49.1929" lon="1.74661">
        <ele>137</ele>
        <time>2016-12-14T08:17:39Z</time>
      </trkpt>
      <trkpt lat="49.19295" lon="1.74664">
        <ele>136</ele>
        <time>2016-12-14T08:17:43Z</time>
      </trkpt>
      <trkpt lat="49.19299" lon="1.74674">
        <ele>137</ele>
        <time>2016-12-14T08:17:49Z</time>
      </trkpt>
      <trkpt lat="49.19305" lon="1.74679">
        <ele>139</ele>
        <time>2016-12-14T08:17:54Z</time>
      </trkpt>
      <trkpt lat="49.19312" lon="1.74684">
        <ele>138</ele>
        <time>2016-12-14T08:18:02Z</time>
      </trkpt>
      <trkpt lat="49.19314" lon="1.74691">
        <ele>137</ele>
        <time>2016-12-14T08:18:05Z</time>
      </trkpt>
      <trkpt lat="49.19319" lon="1.74691">
        <ele>138</ele>
        <time>2016-12-14T08:18:09Z</time>
      </trkpt>
      <trkpt lat="49.19327" lon="1.74712">
        <ele>137</ele>
        <time>2016-12-14T08:18:20Z</time>
      </trkpt>
      <trkpt lat="49.19331" lon="1.74713">
        <ele>137</ele>
        <time>2016-12-14T08:18:22Z</time>
      </trkpt>
      <trkpt lat="49.19332" lon="1.74719">
        <ele>136</ele>
        <time>2016-12-14T08:18:24Z</time>
      </trkpt>
      <trkpt lat="49.19355" lon="1.74749">
        <ele>127</ele>
        <time>2016-12-14T08:18:52Z</time>
      </trkpt>
      <trkpt lat="49.19359" lon="1.74751">
        <ele>130</ele>
        <time>2016-12-14T08:18:55Z</time>
      </trkpt>
      <trkpt lat="49.19358" lon="1.74757">
        <ele>131</ele>
        <time>2016-12-14T08:18:59Z</time>
      </trkpt>
      <trkpt lat="49.19362" lon="1.74761">
        <ele>131</ele>
        <time>2016-12-14T08:19:04Z</time>
      </trkpt>
      <trkpt lat="49.19367" lon="1.7477">
        <ele>134</ele>
        <time>2016-12-14T08:19:10Z</time>
      </trkpt>
      <trkpt lat="49.19371" lon="1.74773">
        <ele>133</ele>
        <time>2016-12-14T08:19:13Z</time>
      </trkpt>
      <trkpt lat="49.19374" lon="1.74772">
        <ele>133</ele>
        <time>2016-12-14T08:19:15Z</time>
      </trkpt>
      <trkpt lat="49.19376" lon="1.74778">
        <ele>132</ele>
        <time>2016-12-14T08:19:18Z</time>
      </trkpt>
      <trkpt lat="49.19377" lon="1.74784">
        <ele>133</ele>
        <time>2016-12-14T08:19:21Z</time>
      </trkpt>
      <trkpt lat="49.19384" lon="1.74787">
        <ele>133</ele>
        <time>2016-12-14T08:19:27Z</time>
      </trkpt>
      <trkpt lat="49.19389" lon="1.74788">
        <ele>132</ele>
        <time>2016-12-14T08:19:32Z</time>
      </trkpt>
      <trkpt lat="49.19394" lon="1.74795">
        <ele>131</ele>
        <time>2016-12-14T08:19:37Z</time>
      </trkpt>
      <trkpt lat="49.19395" lon="1.748">
        <ele>131</ele>
        <time>2016-12-14T08:19:39Z</time>
      </trkpt>
      <trkpt lat="49.19406" lon="1.74815">
        <ele>130</ele>
        <time>2016-12-14T08:19:53Z</time>
      </trkpt>
      <trkpt lat="49.1941" lon="1.74816">
        <ele>130</ele>
        <time>2016-12-14T08:19:56Z</time>
      </trkpt>
      <trkpt lat="49.19415" lon="1.74823">
        <ele>128</ele>
        <time>2016-12-14T08:20:01Z</time>
      </trkpt>
      <trkpt lat="49.19416" lon="1.74836">
        <ele>128</ele>
        <time>2016-12-14T08:20:07Z</time>
      </trkpt>
      <trkpt lat="49.19432" lon="1.74851">
        <ele>133</ele>
        <time>2016-12-14T08:20:25Z</time>
      </trkpt>
      <trkpt lat="49.19439" lon="1.74861">
        <ele>130</ele>
        <time>2016-12-14T08:20:32Z</time>
      </trkpt>
      <trkpt lat="49.19443" lon="1.74857">
        <ele>130</ele>
        <time>2016-12-14T08:20:34Z</time>
      </trkpt>
      <trkpt lat="49.19474" lon="1.7489">
        <ele>132</ele>
        <time>2016-12-14T08:21:06Z</time>
      </trkpt>
      <trkpt lat="49.19489" lon="1.74907">
        <ele>128</ele>
        <time>2016-12-14T08:21:24Z</time>
      </trkpt>
      <trkpt lat="49.19492" lon="1.74909">
        <ele>128</ele>
        <time>2016-12-14T08:21:26Z</time>
      </trkpt>
      <trkpt lat="49.19499" lon="1.74919">
        <ele>126</ele>
        <time>2016-12-14T08:21:35Z</time>
      </trkpt>
      <trkpt lat="49.19502" lon="1.7492">
        <ele>125</ele>
        <time>2016-12-14T08:21:38Z</time>
      </trkpt>
      <trkpt lat="49.19503" lon="1.7492">
        <ele>122</ele>
        <time>2016-12-14T08:21:54Z</time>
      </trkpt>
      <trkpt lat="49.19506" lon="1.74921">
        <ele>123</ele>
        <time>2016-12-14T08:22:15Z</time>
      </trkpt>
      <trkpt lat="49.19506" lon="1.74926">
        <ele>123</ele>
        <time>2016-12-14T08:22:26Z</time>
      </trkpt>
      <trkpt lat="49.1951" lon="1.74926">
        <ele>123</ele>
        <time>2016-12-14T08:22:30Z</time>
      </trkpt>
      <trkpt lat="49.19517" lon="1.74942">
        <ele>125</ele>
        <time>2016-12-14T08:22:42Z</time>
      </trkpt>
      <trkpt lat="49.1952" lon="1.74943">
        <ele>124</ele>
        <time>2016-12-14T08:22:47Z</time>
      </trkpt>
      <trkpt lat="49.19523" lon="1.74946">
        <ele>124</ele>
        <time>2016-12-14T08:22:49Z</time>
      </trkpt>
      <trkpt lat="49.19527" lon="1.74944">
        <ele>124</ele>
        <time>2016-12-14T08:22:56Z</time>
      </trkpt>
      <trkpt lat="49.19529" lon="1.74949">
        <ele>122</ele>
        <time>2016-12-14T08:22:59Z</time>
      </trkpt>
      <trkpt lat="49.19533" lon="1.74949">
        <ele>121</ele>
        <time>2016-12-14T08:23:02Z</time>
      </trkpt>
      <trkpt lat="49.19536" lon="1.74954">
        <ele>121</ele>
        <time>2016-12-14T08:23:05Z</time>
      </trkpt>
      <trkpt lat="49.19547" lon="1.74959">
        <ele>121</ele>
        <time>2016-12-14T08:23:16Z</time>
      </trkpt>
      <trkpt lat="49.19553" lon="1.74967">
        <ele>120</ele>
        <time>2016-12-14T08:23:23Z</time>
      </trkpt>
      <trkpt lat="49.19555" lon="1.74973">
        <ele>121</ele>
        <time>2016-12-14T08:23:25Z</time>
      </trkpt>
      <trkpt lat="49.19558" lon="1.74968">
        <ele>119</ele>
        <time>2016-12-14T08:23:29Z</time>
      </trkpt>
      <trkpt lat="49.19563" lon="1.74966">
        <ele>117</ele>
        <time>2016-12-14T08:23:32Z</time>
      </trkpt>
      <trkpt lat="49.19567" lon="1.7497">
        <ele>117</ele>
        <time>2016-12-14T08:23:35Z</time>
      </trkpt>
      <trkpt lat="49.1957" lon="1.7498">
        <ele>118</ele>
        <time>2016-12-14T08:23:39Z</time>
      </trkpt>
      <trkpt lat="49.19583" lon="1.75001">
        <ele>119</ele>
        <time>2016-12-14T08:23:54Z</time>
      </trkpt>
      <trkpt lat="49.19597" lon="1.75019">
        <ele>120</ele>
        <time>2016-12-14T08:24:08Z</time>
      </trkpt>
      <trkpt lat="49.196" lon="1.75016">
        <ele>119</ele>
        <time>2016-12-14T08:24:09Z</time>
      </trkpt>
      <trkpt lat="49.19602" lon="1.75018">
        <ele>119</ele>
        <time>2016-12-14T08:24:11Z</time>
      </trkpt>
      <trkpt lat="49.19606" lon="1.75017">
        <ele>118</ele>
        <time>2016-12-14T08:24:13Z</time>
      </trkpt>
      <trkpt lat="49.1961" lon="1.75019">
        <ele>118</ele>
        <time>2016-12-14T08:24:15Z</time>
      </trkpt>
      <trkpt lat="49.19624" lon="1.7504">
        <ele>120</ele>
        <time>2016-12-14T08:24:30Z</time>
      </trkpt>
      <trkpt lat="49.19627" lon="1.75037">
        <ele>117</ele>
        <time>2016-12-14T08:24:32Z</time>
      </trkpt>
      <trkpt lat="49.19628" lon="1.75043">
        <ele>117</ele>
        <time>2016-12-14T08:24:35Z</time>
      </trkpt>
      <trkpt lat="49.19631" lon="1.75046">
        <ele>116</ele>
        <time>2016-12-14T08:24:38Z</time>
      </trkpt>
      <trkpt lat="49.19634" lon="1.75049">
        <ele>115</ele>
        <time>2016-12-14T08:24:40Z</time>
      </trkpt>
      <trkpt lat="49.19646" lon="1.75067">
        <ele>113</ele>
        <time>2016-12-14T08:24:56Z</time>
      </trkpt>
      <trkpt lat="49.19671" lon="1.75086">
        <ele>111</ele>
        <time>2016-12-14T08:25:21Z</time>
      </trkpt>
      <trkpt lat="49.19684" lon="1.75101">
        <ele>111</ele>
        <time>2016-12-14T08:25:36Z</time>
      </trkpt>
      <trkpt lat="49.197" lon="1.75104">
        <ele>106</ele>
        <time>2016-12-14T08:25:58Z</time>
      </trkpt>
      <trkpt lat="49.19733" lon="1.75105">
        <ele>109</ele>
        <time>2016-12-14T08:26:28Z</time>
      </trkpt>
      <trkpt lat="49.19745" lon="1.75102">
        <ele>111</ele>
        <time>2016-12-14T08:26:38Z</time>
      </trkpt>
      <trkpt lat="49.19749" lon="1.75096">
        <ele>109</ele>
        <time>2016-12-14T08:26:43Z</time>
      </trkpt>
      <trkpt lat="49.19752" lon="1.75098">
        <ele>107</ele>
        <time>2016-12-14T08:26:48Z</time>
      </trkpt>
      <trkpt lat="49.19754" lon="1.75098">
        <ele>106</ele>
        <time>2016-12-14T08:26:50Z</time>
      </trkpt>
      <trkpt lat="49.19766" lon="1.75105">
        <ele>107</ele>
        <time>2016-12-14T08:26:58Z</time>
      </trkpt>
      <trkpt lat="49.19772" lon="1.75099">
        <ele>107</ele>
        <time>2016-12-14T08:27:03Z</time>
      </trkpt>
      <trkpt lat="49.19774" lon="1.751">
        <ele>106</ele>
        <time>2016-12-14T08:27:06Z</time>
      </trkpt>
      <trkpt lat="49.19775" lon="1.75104">
        <ele>106</ele>
        <time>2016-12-14T08:27:07Z</time>
      </trkpt>
      <trkpt lat="49.19779" lon="1.75103">
        <ele>105</ele>
        <time>2016-12-14T08:27:10Z</time>
      </trkpt>
      <trkpt lat="49.19781" lon="1.75102">
        <ele>105</ele>
        <time>2016-12-14T08:27:12Z</time>
      </trkpt>
      <trkpt lat="49.19784" lon="1.75104">
        <ele>105</ele>
        <time>2016-12-14T08:27:16Z</time>
      </trkpt>
      <trkpt lat="49.19787" lon="1.75102">
        <ele>104</ele>
        <time>2016-12-14T08:27:18Z</time>
      </trkpt>
      <trkpt lat="49.19794" lon="1.75103">
        <ele>103</ele>
        <time>2016-12-14T08:27:23Z</time>
      </trkpt>
      <trkpt lat="49.19799" lon="1.75098">
        <ele>104</ele>
        <time>2016-12-14T08:27:27Z</time>
      </trkpt>
      <trkpt lat="49.19832" lon="1.75107">
        <ele>105</ele>
        <time>2016-12-14T08:27:58Z</time>
      </trkpt>
      <trkpt lat="49.19846" lon="1.75112">
        <ele>105</ele>
        <time>2016-12-14T08:28:10Z</time>
      </trkpt>
      <trkpt lat="49.19854" lon="1.75118">
        <ele>106</ele>
        <time>2016-12-14T08:28:16Z</time>
      </trkpt>
      <trkpt lat="49.19856" lon="1.7512">
        <ele>107</ele>
        <time>2016-12-14T08:28:18Z</time>
      </trkpt>
      <trkpt lat="49.19859" lon="1.75121">
        <ele>106</ele>
        <time>2016-12-14T08:28:22Z</time>
      </trkpt>
      <trkpt lat="49.19861" lon="1.75125">
        <ele>105</ele>
        <time>2016-12-14T08:28:26Z</time>
      </trkpt>
      <trkpt lat="49.19865" lon="1.75126">
        <ele>105</ele>
        <time>2016-12-14T08:28:29Z</time>
      </trkpt>
      <trkpt lat="49.19867" lon="1.75129">
        <ele>105</ele>
        <time>2016-12-14T08:28:31Z</time>
      </trkpt>
      <trkpt lat="49.19872" lon="1.75128">
        <ele>104</ele>
        <time>2016-12-14T08:28:34Z</time>
      </trkpt>
      <trkpt lat="49.19875" lon="1.7513">
        <ele>105</ele>
        <time>2016-12-14T08:28:38Z</time>
      </trkpt>
      <trkpt lat="49.19877" lon="1.75135">
        <ele>105</ele>
        <time>2016-12-14T08:28:41Z</time>
      </trkpt>
      <trkpt lat="49.19885" lon="1.75141">
        <ele>105</ele>
        <time>2016-12-14T08:28:50Z</time>
      </trkpt>
      <trkpt lat="49.19891" lon="1.75164">
        <ele>106</ele>
        <time>2016-12-14T08:29:00Z</time>
      </trkpt>
      <trkpt lat="49.19896" lon="1.75165">
        <ele>105</ele>
        <time>2016-12-14T08:29:04Z</time>
      </trkpt>
      <trkpt lat="49.19898" lon="1.75179">
        <ele>104</ele>
        <time>2016-12-14T08:29:08Z</time>
      </trkpt>
      <trkpt lat="49.19901" lon="1.75188">
        <ele>104</ele>
        <time>2016-12-14T08:29:13Z</time>
      </trkpt>
      <trkpt lat="49.19905" lon="1.75189">
        <ele>104</ele>
        <time>2016-12-14T08:29:16Z</time>
      </trkpt>
      <trkpt lat="49.19908" lon="1.7519">
        <ele>104</ele>
        <time>2016-12-14T08:29:20Z</time>
      </trkpt>
      <trkpt lat="49.19911" lon="1.75194">
        <ele>105</ele>
        <time>2016-12-14T08:29:23Z</time>
      </trkpt>
      <trkpt lat="49.19911" lon="1.75202">
        <ele>107</ele>
        <time>2016-12-14T08:29:25Z</time>
      </trkpt>
      <trkpt lat="49.19913" lon="1.75207">
        <ele>108</ele>
        <time>2016-12-14T08:29:28Z</time>
      </trkpt>
      <trkpt lat="49.19921" lon="1.75211">
        <ele>108</ele>
        <time>2016-12-14T08:29:35Z</time>
      </trkpt>
      <trkpt lat="49.19927" lon="1.75219">
        <ele>105</ele>
        <time>2016-12-14T08:29:42Z</time>
      </trkpt>
      <trkpt lat="49.19933" lon="1.7524">
        <ele>103</ele>
        <time>2016-12-14T08:29:51Z</time>
      </trkpt>
      <trkpt lat="49.19941" lon="1.75257">
        <ele>102</ele>
        <time>2016-12-14T08:30:05Z</time>
      </trkpt>
      <trkpt lat="49.19952" lon="1.75262">
        <ele>102</ele>
        <time>2016-12-14T08:30:14Z</time>
      </trkpt>
      <trkpt lat="49.19953" lon="1.75267">
        <ele>102</ele>
        <time>2016-12-14T08:30:16Z</time>
      </trkpt>
      <trkpt lat="49.19956" lon="1.75266">
        <ele>102</ele>
        <time>2016-12-14T08:30:18Z</time>
      </trkpt>
      <trkpt lat="49.19959" lon="1.75269">
        <ele>100</ele>
        <time>2016-12-14T08:30:23Z</time>
      </trkpt>
      <trkpt lat="49.19961" lon="1.75275">
        <ele>100</ele>
        <time>2016-12-14T08:30:26Z</time>
      </trkpt>
      <trkpt lat="49.19965" lon="1.75274">
        <ele>100</ele>
        <time>2016-12-14T08:30:29Z</time>
      </trkpt>
      <trkpt lat="49.19967" lon="1.75281">
        <ele>100</ele>
        <time>2016-12-14T08:30:36Z</time>
      </trkpt>
      <trkpt lat="49.19971" lon="1.75283">
        <ele>99</ele>
        <time>2016-12-14T08:30:40Z</time>
      </trkpt>
      <trkpt lat="49.19978" lon="1.7529">
        <ele>99</ele>
        <time>2016-12-14T08:30:48Z</time>
      </trkpt>
      <trkpt lat="49.19987" lon="1.75305">
        <ele>98</ele>
        <time>2016-12-14T08:30:58Z</time>
      </trkpt>
      <trkpt lat="49.19988" lon="1.75317">
        <ele>100</ele>
        <time>2016-12-14T08:31:02Z</time>
      </trkpt>
      <trkpt lat="49.20003" lon="1.75333">
        <ele>98</ele>
        <time>2016-12-14T08:31:17Z</time>
      </trkpt>
      <trkpt lat="49.20005" lon="1.75338">
        <ele>96</ele>
        <time>2016-12-14T08:31:21Z</time>
      </trkpt>
      <trkpt lat="49.20009" lon="1.75334">
        <ele>96</ele>
        <time>2016-12-14T08:31:24Z</time>
      </trkpt>
      <trkpt lat="49.20015" lon="1.75335">
        <ele>99</ele>
        <time>2016-12-14T08:31:28Z</time>
      </trkpt>
      <trkpt lat="49.20035" lon="1.75375">
        <ele>97</ele>
        <time>2016-12-14T08:31:57Z</time>
      </trkpt>
      <trkpt lat="49.20042" lon="1.75378">
        <ele>96</ele>
        <time>2016-12-14T08:32:02Z</time>
      </trkpt>
      <trkpt lat="49.2005" lon="1.75395">
        <ele>95</ele>
        <time>2016-12-14T08:32:11Z</time>
      </trkpt>
      <trkpt lat="49.20057" lon="1.75402">
        <ele>91</ele>
        <time>2016-12-14T08:32:20Z</time>
      </trkpt>
      <trkpt lat="49.20056" lon="1.75409">
        <ele>91</ele>
        <time>2016-12-14T08:32:24Z</time>
      </trkpt>
      <trkpt lat="49.2006" lon="1.75413">
        <ele>92</ele>
        <time>2016-12-14T08:32:27Z</time>
      </trkpt>
      <trkpt lat="49.20064" lon="1.75427">
        <ele>90</ele>
        <time>2016-12-14T08:32:34Z</time>
      </trkpt>
      <trkpt lat="49.20067" lon="1.75428">
        <ele>89</ele>
        <time>2016-12-14T08:32:37Z</time>
      </trkpt>
      <trkpt lat="49.20071" lon="1.75428">
        <ele>89</ele>
        <time>2016-12-14T08:32:41Z</time>
      </trkpt>
      <trkpt lat="49.20076" lon="1.75429">
        <ele>88</ele>
        <time>2016-12-14T08:32:45Z</time>
      </trkpt>
      <trkpt lat="49.20079" lon="1.7544">
        <ele>85</ele>
        <time>2016-12-14T08:32:50Z</time>
      </trkpt>
      <trkpt lat="49.20089" lon="1.75451">
        <ele>78</ele>
        <time>2016-12-14T08:33:05Z</time>
      </trkpt>
      <trkpt lat="49.20093" lon="1.7547">
        <ele>76</ele>
        <time>2016-12-14T08:33:13Z</time>
      </trkpt>
      <trkpt lat="49.20099" lon="1.7546">
        <ele>76</ele>
        <time>2016-12-14T08:33:16Z</time>
      </trkpt>
      <trkpt lat="49.20102" lon="1.75467">
        <ele>73</ele>
        <time>2016-12-14T08:33:21Z</time>
      </trkpt>
      <trkpt lat="49.20103" lon="1.75482">
        <ele>73</ele>
        <time>2016-12-14T08:33:27Z</time>
      </trkpt>
      <trkpt lat="49.20107" lon="1.75494">
        <ele>73</ele>
        <time>2016-12-14T08:33:45Z</time>
      </trkpt>
      <trkpt lat="49.20115" lon="1.75503">
        <ele>73</ele>
        <time>2016-12-14T08:33:54Z</time>
      </trkpt>
      <trkpt lat="49.20122" lon="1.75513">
        <ele>75</ele>
        <time>2016-12-14T08:34:06Z</time>
      </trkpt>
      <trkpt lat="49.20125" lon="1.75515">
        <ele>75</ele>
        <time>2016-12-14T08:34:10Z</time>
      </trkpt>
      <trkpt lat="49.20132" lon="1.75513">
        <ele>75</ele>
        <time>2016-12-14T08:34:16Z</time>
      </trkpt>
      <trkpt lat="49.20137" lon="1.75513">
        <ele>75</ele>
        <time>2016-12-14T08:34:19Z</time>
      </trkpt>
      <trkpt lat="49.20142" lon="1.75521">
        <ele>78</ele>
        <time>2016-12-14T08:34:26Z</time>
      </trkpt>
      <trkpt lat="49.20155" lon="1.7553">
        <ele>78</ele>
        <time>2016-12-14T08:34:35Z</time>
      </trkpt>
      <trkpt lat="49.20166" lon="1.75536">
        <ele>79</ele>
        <time>2016-12-14T08:34:45Z</time>
      </trkpt>
      <trkpt lat="49.20187" lon="1.75545">
        <ele>82</ele>
        <time>2016-12-14T08:35:02Z</time>
      </trkpt>
      <trkpt lat="49.20193" lon="1.7556">
        <ele>82</ele>
        <time>2016-12-14T08:35:04Z</time>
      </trkpt>
      <trkpt lat="49.20199" lon="1.75554">
        <ele>80</ele>
        <time>2016-12-14T08:35:15Z</time>
      </trkpt>
      <trkpt lat="49.20202" lon="1.75555">
        <ele>80</ele>
        <time>2016-12-14T08:35:26Z</time>
      </trkpt>
      <trkpt lat="49.20202" lon="1.75559">
        <ele>80</ele>
        <time>2016-12-14T08:35:28Z</time>
      </trkpt>
      <trkpt lat="49.20207" lon="1.75559">
        <ele>79</ele>
        <time>2016-12-14T08:35:33Z</time>
      </trkpt>
      <trkpt lat="49.20211" lon="1.7556">
        <ele>79</ele>
        <time>2016-12-14T08:35:37Z</time>
      </trkpt>
      <trkpt lat="49.20211" lon="1.75565">
        <ele>82</ele>
        <time>2016-12-14T08:35:39Z</time>
      </trkpt>
      <trkpt lat="49.20216" lon="1.75559">
        <ele>85</ele>
        <time>2016-12-14T08:35:45Z</time>
      </trkpt>
      <trkpt lat="49.2022" lon="1.7556">
        <ele>86</ele>
        <time>2016-12-14T08:35:50Z</time>
      </trkpt>
      <trkpt lat="49.20219" lon="1.75568">
        <ele>84</ele>
        <time>2016-12-14T08:36:07Z</time>
      </trkpt>
      <trkpt lat="49.20219" lon="1.75572">
        <ele>80</ele>
        <time>2016-12-14T08:36:14Z</time>
      </trkpt>
      <trkpt lat="49.2022" lon="1.75586">
        <ele>79</ele>
        <time>2016-12-14T08:36:22Z</time>
      </trkpt>
      <trkpt lat="49.2022" lon="1.75595">
        <ele>81</ele>
        <time>2016-12-14T08:36:29Z</time>
      </trkpt>
      <trkpt lat="49.20223" lon="1.75618">
        <ele>84</ele>
        <time>2016-12-14T08:36:50Z</time>
      </trkpt>
      <trkpt lat="49.20218" lon="1.75628">
        <ele>85</ele>
        <time>2016-12-14T08:36:54Z</time>
      </trkpt>
      <trkpt lat="49.2022" lon="1.75636">
        <ele>84</ele>
        <time>2016-12-14T08:37:01Z</time>
      </trkpt>
      <trkpt lat="49.20221" lon="1.75642">
        <ele>83</ele>
        <time>2016-12-14T08:37:04Z</time>
      </trkpt>
      <trkpt lat="49.20219" lon="1.75653">
        <ele>80</ele>
        <time>2016-12-14T08:37:13Z</time>
      </trkpt>
      <trkpt lat="49.20219" lon="1.75657">
        <ele>80</ele>
        <time>2016-12-14T08:37:15Z</time>
      </trkpt>
      <trkpt lat="49.20219" lon="1.75667">
        <ele>80</ele>
        <time>2016-12-14T08:37:21Z</time>
      </trkpt>
      <trkpt lat="49.20216" lon="1.7567">
        <ele>79</ele>
        <time>2016-12-14T08:37:23Z</time>
      </trkpt>
      <trkpt lat="49.20215" lon="1.75675">
        <ele>79</ele>
        <time>2016-12-14T08:37:28Z</time>
      </trkpt>
      <trkpt lat="49.20217" lon="1.7568">
        <ele>79</ele>
        <time>2016-12-14T08:37:30Z</time>
      </trkpt>
      <trkpt lat="49.20216" lon="1.75685">
        <ele>79</ele>
        <time>2016-12-14T08:37:32Z</time>
      </trkpt>
      <trkpt lat="49.20215" lon="1.75705">
        <ele>78</ele>
        <time>2016-12-14T08:37:48Z</time>
      </trkpt>
      <trkpt lat="49.20219" lon="1.75715">
        <ele>78</ele>
        <time>2016-12-14T08:37:58Z</time>
      </trkpt>
      <trkpt lat="49.20216" lon="1.75728">
        <ele>78</ele>
        <time>2016-12-14T08:38:02Z</time>
      </trkpt>
      <trkpt lat="49.20214" lon="1.75748">
        <ele>78</ele>
        <time>2016-12-14T08:38:13Z</time>
      </trkpt>
      <trkpt lat="49.20218" lon="1.75754">
        <ele>78</ele>
        <time>2016-12-14T08:38:18Z</time>
      </trkpt>
      <trkpt lat="49.20217" lon="1.7577">
        <ele>78</ele>
        <time>2016-12-14T08:38:29Z</time>
      </trkpt>
      <trkpt lat="49.20216" lon="1.75777">
        <ele>79</ele>
        <time>2016-12-14T08:38:31Z</time>
      </trkpt>
      <trkpt lat="49.20212" lon="1.75797">
        <ele>77</ele>
        <time>2016-12-14T08:38:37Z</time>
      </trkpt>
      <trkpt lat="49.20209" lon="1.75805">
        <ele>76</ele>
        <time>2016-12-14T08:38:42Z</time>
      </trkpt>
      <trkpt lat="49.20211" lon="1.75823">
        <ele>79</ele>
        <time>2016-12-14T08:38:54Z</time>
      </trkpt>
      <trkpt lat="49.20209" lon="1.75828">
        <ele>79</ele>
        <time>2016-12-14T08:38:57Z</time>
      </trkpt>
      <trkpt lat="49.20212" lon="1.75833">
        <ele>80</ele>
        <time>2016-12-14T08:39:02Z</time>
      </trkpt>
      <trkpt lat="49.20208" lon="1.75849">
        <ele>81</ele>
        <time>2016-12-14T08:39:09Z</time>
      </trkpt>
      <trkpt lat="49.20207" lon="1.75857">
        <ele>82</ele>
        <time>2016-12-14T08:39:12Z</time>
      </trkpt>
      <trkpt lat="49.20209" lon="1.75862">
        <ele>81</ele>
        <time>2016-12-14T08:39:16Z</time>
      </trkpt>
      <trkpt lat="49.20207" lon="1.75867">
        <ele>81</ele>
        <time>2016-12-14T08:39:19Z</time>
      </trkpt>
      <trkpt lat="49.20209" lon="1.75904">
        <ele>75</ele>
        <time>2016-12-14T08:39:45Z</time>
      </trkpt>
      <trkpt lat="49.20213" lon="1.75904">
        <ele>75</ele>
        <time>2016-12-14T08:39:48Z</time>
      </trkpt>
      <trkpt lat="49.20213" lon="1.75911">
        <ele>74</ele>
        <time>2016-12-14T08:39:51Z</time>
      </trkpt>
      <trkpt lat="49.20209" lon="1.75916">
        <ele>74</ele>
        <time>2016-12-14T08:39:54Z</time>
      </trkpt>
      <trkpt lat="49.20209" lon="1.75927">
        <ele>77</ele>
        <time>2016-12-14T08:40:00Z</time>
      </trkpt>
      <trkpt lat="49.2021" lon="1.75933">
        <ele>80</ele>
        <time>2016-12-14T08:40:04Z</time>
      </trkpt>
      <trkpt lat="49.20221" lon="1.75961">
        <ele>82</ele>
        <time>2016-12-14T08:40:23Z</time>
      </trkpt>
      <trkpt lat="49.20223" lon="1.75967">
        <ele>86</ele>
        <time>2016-12-14T08:41:38Z</time>
      </trkpt>
      <trkpt lat="49.20226" lon="1.75984">
        <ele>85</ele>
        <time>2016-12-14T08:41:44Z</time>
      </trkpt>
      <trkpt lat="49.20228" lon="1.76003">
        <ele>80</ele>
        <time>2016-12-14T08:41:50Z</time>
      </trkpt>
      <trkpt lat="49.20235" lon="1.75998">
        <ele>80</ele>
        <time>2016-12-14T08:41:54Z</time>
      </trkpt>
      <trkpt lat="49.20243" lon="1.76002">
        <ele>80</ele>
        <time>2016-12-14T08:42:02Z</time>
      </trkpt>
      <trkpt lat="49.20247" lon="1.76009">
        <ele>79</ele>
        <time>2016-12-14T08:42:07Z</time>
      </trkpt>
      <trkpt lat="49.2025" lon="1.7601">
        <ele>79</ele>
        <time>2016-12-14T08:42:10Z</time>
      </trkpt>
      <trkpt lat="49.20252" lon="1.76015">
        <ele>81</ele>
        <time>2016-12-14T08:42:13Z</time>
      </trkpt>
      <trkpt lat="49.20264" lon="1.76021">
        <ele>80</ele>
        <time>2016-12-14T08:42:25Z</time>
      </trkpt>
      <trkpt lat="49.20281" lon="1.7606">
        <ele>82</ele>
        <time>2016-12-14T08:42:39Z</time>
      </trkpt>
      <trkpt lat="49.20287" lon="1.76066">
        <ele>82</ele>
        <time>2016-12-14T08:42:42Z</time>
      </trkpt>
      <trkpt lat="49.2029" lon="1.76076">
        <ele>81</ele>
        <time>2016-12-14T08:42:45Z</time>
      </trkpt>
      <trkpt lat="49.20307" lon="1.76118">
        <ele>76</ele>
        <time>2016-12-14T08:42:59Z</time>
      </trkpt>
      <trkpt lat="49.20309" lon="1.76126">
        <ele>77</ele>
        <time>2016-12-14T08:43:02Z</time>
      </trkpt>
      <trkpt lat="49.20316" lon="1.7613">
        <ele>76</ele>
        <time>2016-12-14T08:43:06Z</time>
      </trkpt>
      <trkpt lat="49.20329" lon="1.76149">
        <ele>79</ele>
        <time>2016-12-14T08:43:21Z</time>
      </trkpt>
      <trkpt lat="49.20341" lon="1.76177">
        <ele>83</ele>
        <time>2016-12-14T08:43:38Z</time>
      </trkpt>
      <trkpt lat="49.20347" lon="1.76179">
        <ele>79</ele>
        <time>2016-12-14T08:43:44Z</time>
      </trkpt>
      <trkpt lat="49.2036" lon="1.76206">
        <ele>78</ele>
        <time>2016-12-14T08:43:59Z</time>
      </trkpt>
      <trkpt lat="49.2038" lon="1.76218">
        <ele>79</ele>
        <time>2016-12-14T08:44:12Z</time>
      </trkpt>
      <trkpt lat="49.20378" lon="1.7623">
        <ele>79</ele>
        <time>2016-12-14T08:44:17Z</time>
      </trkpt>
      <trkpt lat="49.20393" lon="1.76243">
        <ele>79</ele>
        <time>2016-12-14T08:44:31Z</time>
      </trkpt>
      <trkpt lat="49.20396" lon="1.76256">
        <ele>79</ele>
        <time>2016-12-14T08:44:40Z</time>
      </trkpt>
      <trkpt lat="49.2039" lon="1.76266">
        <ele>78</ele>
        <time>2016-12-14T08:44:43Z</time>
      </trkpt>
      <trkpt lat="49.20397" lon="1.76271">
        <ele>79</ele>
        <time>2016-12-14T08:44:50Z</time>
      </trkpt>
      <trkpt lat="49.20398" lon="1.76281">
        <ele>85</ele>
        <time>2016-12-14T08:44:55Z</time>
      </trkpt>
      <trkpt lat="49.20411" lon="1.76297">
        <ele>87</ele>
        <time>2016-12-14T08:45:08Z</time>
      </trkpt>
      <trkpt lat="49.20425" lon="1.76311">
        <ele>88</ele>
        <time>2016-12-14T08:45:22Z</time>
      </trkpt>
      <trkpt lat="49.2043" lon="1.76322">
        <ele>91</ele>
        <time>2016-12-14T08:45:31Z</time>
      </trkpt>
      <trkpt lat="49.20439" lon="1.76325">
        <ele>91</ele>
        <time>2016-12-14T08:45:38Z</time>
      </trkpt>
      <trkpt lat="49.20447" lon="1.76326">
        <ele>92</ele>
        <time>2016-12-14T08:45:42Z</time>
      </trkpt>
      <trkpt lat="49.20477" lon="1.76336">
        <ele>96</ele>
        <time>2016-12-14T08:46:08Z</time>
      </trkpt>
      <trkpt lat="49.20491" lon="1.76345">
        <ele>96</ele>
        <time>2016-12-14T08:46:37Z</time>
      </trkpt>
      <trkpt lat="49.2053" lon="1.76358">
        <ele>91</ele>
        <time>2016-12-14T08:47:07Z</time>
      </trkpt>
      <trkpt lat="49.20545" lon="1.7636">
        <ele>92</ele>
        <time>2016-12-14T08:47:19Z</time>
      </trkpt>
      <trkpt lat="49.20553" lon="1.76355">
        <ele>88</ele>
        <time>2016-12-14T08:47:25Z</time>
      </trkpt>
      <trkpt lat="49.20558" lon="1.76355">
        <ele>87</ele>
        <time>2016-12-14T08:47:28Z</time>
      </trkpt>
      <trkpt lat="49.20577" lon="1.76361">
        <ele>82</ele>
        <time>2016-12-14T08:47:50Z</time>
      </trkpt>
      <trkpt lat="49.20582" lon="1.76369">
        <ele>88</ele>
        <time>2016-12-14T08:47:58Z</time>
      </trkpt>
      <trkpt lat="49.20581" lon="1.76374">
        <ele>88</ele>
        <time>2016-12-14T08:48:01Z</time>
      </trkpt>
      <trkpt lat="49.20583" lon="1.76389">
        <ele>89</ele>
        <time>2016-12-14T08:48:15Z</time>
      </trkpt>
      <trkpt lat="49.20583" lon="1.76397">
        <ele>87</ele>
        <time>2016-12-14T08:48:18Z</time>
      </trkpt>
      <trkpt lat="49.20587" lon="1.76406">
        <ele>88</ele>
        <time>2016-12-14T08:48:24Z</time>
      </trkpt>
      <trkpt lat="49.20595" lon="1.76418">
        <ele>91</ele>
        <time>2016-12-14T08:48:35Z</time>
      </trkpt>
      <trkpt lat="49.20604" lon="1.76428">
        <ele>88</ele>
        <time>2016-12-14T08:48:46Z</time>
      </trkpt>
      <trkpt lat="49.20606" lon="1.76438">
        <ele>86</ele>
        <time>2016-12-14T08:48:55Z</time>
      </trkpt>
      <trkpt lat="49.20609" lon="1.76441">
        <ele>88</ele>
        <time>2016-12-14T08:48:58Z</time>
      </trkpt>
      <trkpt lat="49.2061" lon="1.76449">
        <ele>90</ele>
        <time>2016-12-14T08:49:05Z</time>
      </trkpt>
      <trkpt lat="49.20615" lon="1.76454">
        <ele>91</ele>
        <time>2016-12-14T08:49:10Z</time>
      </trkpt>
      <trkpt lat="49.20615" lon="1.76462">
        <ele>94</ele>
        <time>2016-12-14T08:49:17Z</time>
      </trkpt>
      <trkpt lat="49.20622" lon="1.7647">
        <ele>97</ele>
        <time>2016-12-14T08:49:22Z</time>
      </trkpt>
      <trkpt lat="49.2063" lon="1.76485">
        <ele>95</ele>
        <time>2016-12-14T08:49:38Z</time>
      </trkpt>
      <trkpt lat="49.20636" lon="1.76499">
        <ele>100</ele>
        <time>2016-12-14T08:49:50Z</time>
      </trkpt>
      <trkpt lat="49.20641" lon="1.76505">
        <ele>102</ele>
        <time>2016-12-14T08:49:59Z</time>
      </trkpt>
      <trkpt lat="49.20643" lon="1.76514">
        <ele>104</ele>
        <time>2016-12-14T08:50:05Z</time>
      </trkpt>
      <trkpt lat="49.20649" lon="1.76524">
        <ele>108</ele>
        <time>2016-12-14T08:50:15Z</time>
      </trkpt>
      <trkpt lat="49.20652" lon="1.76528">
        <ele>110</ele>
        <time>2016-12-14T08:50:22Z</time>
      </trkpt>
      <trkpt lat="49.20657" lon="1.76532">
        <ele>111</ele>
        <time>2016-12-14T08:50:34Z</time>
      </trkpt>
      <trkpt lat="49.20658" lon="1.76543">
        <ele>110</ele>
        <time>2016-12-14T08:50:47Z</time>
      </trkpt>
      <trkpt lat="49.20663" lon="1.76559">
        <ele>110</ele>
        <time>2016-12-14T08:50:52Z</time>
      </trkpt>
      <trkpt lat="49.20665" lon="1.76571">
        <ele>108</ele>
        <time>2016-12-14T08:50:58Z</time>
      </trkpt>
      <trkpt lat="49.20663" lon="1.7658">
        <ele>107</ele>
        <time>2016-12-14T08:51:01Z</time>
      </trkpt>
      <trkpt lat="49.20663" lon="1.76589">
        <ele>110</ele>
        <time>2016-12-14T08:51:05Z</time>
      </trkpt>
      <trkpt lat="49.20683" lon="1.76641">
        <ele>119</ele>
        <time>2016-12-14T08:51:40Z</time>
      </trkpt>
      <trkpt lat="49.20685" lon="1.76654">
        <ele>118</ele>
        <time>2016-12-14T08:51:50Z</time>
      </trkpt>
      <trkpt lat="49.20699" lon="1.76683">
        <ele>112</ele>
        <time>2016-12-14T08:52:18Z</time>
      </trkpt>
      <trkpt lat="49.20703" lon="1.76694">
        <ele>113</ele>
        <time>2016-12-14T08:52:27Z</time>
      </trkpt>
      <trkpt lat="49.20706" lon="1.76704">
        <ele>118</ele>
        <time>2016-12-14T08:52:34Z</time>
      </trkpt>
      <trkpt lat="49.20709" lon="1.76704">
        <ele>118</ele>
        <time>2016-12-14T08:52:48Z</time>
      </trkpt>
      <trkpt lat="49.2071" lon="1.76705">
        <ele>119</ele>
        <time>2016-12-14T08:52:55Z</time>
      </trkpt>
      <trkpt lat="49.20712" lon="1.76712">
        <ele>120</ele>
        <time>2016-12-14T08:52:57Z</time>
      </trkpt>
      <trkpt lat="49.20714" lon="1.76715">
        <ele>120</ele>
        <time>2016-12-14T08:53:00Z</time>
      </trkpt>
      <trkpt lat="49.20716" lon="1.76725">
        <ele>121</ele>
        <time>2016-12-14T08:53:06Z</time>
      </trkpt>
      <trkpt lat="49.20716" lon="1.76729">
        <ele>120</ele>
        <time>2016-12-14T08:53:10Z</time>
      </trkpt>
      <trkpt lat="49.20721" lon="1.76736">
        <ele>119</ele>
        <time>2016-12-14T08:53:15Z</time>
      </trkpt>
      <trkpt lat="49.20719" lon="1.76752">
        <ele>121</ele>
        <time>2016-12-14T08:53:23Z</time>
      </trkpt>
      <trkpt lat="49.2072" lon="1.76759">
        <ele>122</ele>
        <time>2016-12-14T08:53:30Z</time>
      </trkpt>
      <trkpt lat="49.20725" lon="1.76762">
        <ele>123</ele>
        <time>2016-12-14T08:53:34Z</time>
      </trkpt>
      <trkpt lat="49.20726" lon="1.76768">
        <ele>122</ele>
        <time>2016-12-14T08:53:36Z</time>
      </trkpt>
      <trkpt lat="49.20731" lon="1.76793">
        <ele>124</ele>
        <time>2016-12-14T08:53:51Z</time>
      </trkpt>
      <trkpt lat="49.20744" lon="1.76839">
        <ele>123</ele>
        <time>2016-12-14T08:54:19Z</time>
      </trkpt>
      <trkpt lat="49.20744" lon="1.76845">
        <ele>122</ele>
        <time>2016-12-14T08:54:21Z</time>
      </trkpt>
      <trkpt lat="49.20753" lon="1.76866">
        <ele>122</ele>
        <time>2016-12-14T08:54:39Z</time>
      </trkpt>
      <trkpt lat="49.20753" lon="1.76878">
        <ele>123</ele>
        <time>2016-12-14T08:54:43Z</time>
      </trkpt>
      <trkpt lat="49.20757" lon="1.76883">
        <ele>125</ele>
        <time>2016-12-14T08:54:49Z</time>
      </trkpt>
      <trkpt lat="49.2076" lon="1.76889">
        <ele>125</ele>
        <time>2016-12-14T08:54:53Z</time>
      </trkpt>
      <trkpt lat="49.20772" lon="1.76936">
        <ele>130</ele>
        <time>2016-12-14T08:55:22Z</time>
      </trkpt>
      <trkpt lat="49.20771" lon="1.76962">
        <ele>129</ele>
        <time>2016-12-14T08:55:35Z</time>
      </trkpt>
      <trkpt lat="49.20771" lon="1.76971">
        <ele>130</ele>
        <time>2016-12-14T08:55:39Z</time>
      </trkpt>
      <trkpt lat="49.20777" lon="1.76975">
        <ele>130</ele>
        <time>2016-12-14T08:55:44Z</time>
      </trkpt>
      <trkpt lat="49.20777" lon="1.76985">
        <ele>130</ele>
        <time>2016-12-14T08:55:48Z</time>
      </trkpt>
      <trkpt lat="49.20781" lon="1.76979">
        <ele>129</ele>
        <time>2016-12-14T08:55:51Z</time>
      </trkpt>
      <trkpt lat="49.20786" lon="1.76976">
        <ele>130</ele>
        <time>2016-12-14T08:55:54Z</time>
      </trkpt>
      <trkpt lat="49.20789" lon="1.76984">
        <ele>130</ele>
        <time>2016-12-14T08:55:57Z</time>
      </trkpt>
      <trkpt lat="49.20788" lon="1.76993">
        <ele>131</ele>
        <time>2016-12-14T08:55:59Z</time>
      </trkpt>
      <trkpt lat="49.20793" lon="1.77002">
        <ele>130</ele>
        <time>2016-12-14T08:56:07Z</time>
      </trkpt>
      <trkpt lat="49.20796" lon="1.77018">
        <ele>130</ele>
        <time>2016-12-14T08:56:14Z</time>
      </trkpt>
      <trkpt lat="49.208" lon="1.77024">
        <ele>130</ele>
        <time>2016-12-14T08:56:19Z</time>
      </trkpt>
      <trkpt lat="49.20804" lon="1.77033">
        <ele>133</ele>
        <time>2016-12-14T08:56:25Z</time>
      </trkpt>
      <trkpt lat="49.20803" lon="1.77046">
        <ele>133</ele>
        <time>2016-12-14T08:56:28Z</time>
      </trkpt>
      <trkpt lat="49.20809" lon="1.7705">
        <ele>132</ele>
        <time>2016-12-14T08:56:33Z</time>
      </trkpt>
      <trkpt lat="49.20815" lon="1.77045">
        <ele>129</ele>
        <time>2016-12-14T08:56:39Z</time>
      </trkpt>
      <trkpt lat="49.20835" lon="1.77075">
        <ele>127</ele>
        <time>2016-12-14T08:57:03Z</time>
      </trkpt>
      <trkpt lat="49.20836" lon="1.77088">
        <ele>127</ele>
        <time>2016-12-14T08:57:09Z</time>
      </trkpt>
      <trkpt lat="49.20842" lon="1.77086">
        <ele>127</ele>
        <time>2016-12-14T08:57:13Z</time>
      </trkpt>
      <trkpt lat="49.2084" lon="1.77095">
        <ele>128</ele>
        <time>2016-12-14T08:57:15Z</time>
      </trkpt>
      <trkpt lat="49.20847" lon="1.77097">
        <ele>127</ele>
        <time>2016-12-14T08:57:21Z</time>
      </trkpt>
      <trkpt lat="49.20851" lon="1.77093">
        <ele>127</ele>
        <time>2016-12-14T08:57:24Z</time>
      </trkpt>
      <trkpt lat="49.20856" lon="1.77089">
        <ele>127</ele>
        <time>2016-12-14T08:57:27Z</time>
      </trkpt>
      <trkpt lat="49.20857" lon="1.77098">
        <ele>128</ele>
        <time>2016-12-14T08:57:30Z</time>
      </trkpt>
      <trkpt lat="49.20864" lon="1.77117">
        <ele>129</ele>
        <time>2016-12-14T08:57:42Z</time>
      </trkpt>
      <trkpt lat="49.20864" lon="1.77126">
        <ele>130</ele>
        <time>2016-12-14T08:57:44Z</time>
      </trkpt>
      <trkpt lat="49.20869" lon="1.77119">
        <ele>131</ele>
        <time>2016-12-14T08:57:47Z</time>
      </trkpt>
      <trkpt lat="49.20876" lon="1.77126">
        <ele>131</ele>
        <time>2016-12-14T08:57:58Z</time>
      </trkpt>
      <trkpt lat="49.20879" lon="1.77127">
        <ele>130</ele>
        <time>2016-12-14T08:58:03Z</time>
      </trkpt>
      <trkpt lat="49.20878" lon="1.77131">
        <ele>130</ele>
        <time>2016-12-14T08:58:09Z</time>
      </trkpt>
      <trkpt lat="49.20875" lon="1.77132">
        <ele>130</ele>
        <time>2016-12-14T08:58:31Z</time>
      </trkpt>
      <trkpt lat="49.20872" lon="1.77136">
        <ele>131</ele>
        <time>2016-12-14T08:58:33Z</time>
      </trkpt>
      <trkpt lat="49.20869" lon="1.77135">
        <ele>130</ele>
        <time>2016-12-14T08:58:35Z</time>
      </trkpt>
      <trkpt lat="49.20855" lon="1.77146">
        <ele>132</ele>
        <time>2016-12-14T08:58:50Z</time>
      </trkpt>
      <trkpt lat="49.20853" lon="1.77161">
        <ele>133</ele>
        <time>2016-12-14T08:58:55Z</time>
      </trkpt>
      <trkpt lat="49.20853" lon="1.77175">
        <ele>133</ele>
        <time>2016-12-14T08:58:59Z</time>
      </trkpt>
      <trkpt lat="49.20856" lon="1.77172">
        <ele>134</ele>
        <time>2016-12-14T08:59:03Z</time>
      </trkpt>
      <trkpt lat="49.20858" lon="1.77166">
        <ele>134</ele>
        <time>2016-12-14T08:59:04Z</time>
      </trkpt>
      <trkpt lat="49.2086" lon="1.77173">
        <ele>134</ele>
        <time>2016-12-14T08:59:08Z</time>
      </trkpt>
      <trkpt lat="49.20861" lon="1.77182">
        <ele>135</ele>
        <time>2016-12-14T08:59:11Z</time>
      </trkpt>
      <trkpt lat="49.20864" lon="1.77188">
        <ele>137</ele>
        <time>2016-12-14T08:59:15Z</time>
      </trkpt>
      <trkpt lat="49.20866" lon="1.77202">
        <ele>138</ele>
        <time>2016-12-14T08:59:21Z</time>
      </trkpt>
      <trkpt lat="49.20869" lon="1.77203">
        <ele>137</ele>
        <time>2016-12-14T08:59:24Z</time>
      </trkpt>
      <trkpt lat="49.20874" lon="1.77199">
        <ele>138</ele>
        <time>2016-12-14T08:59:28Z</time>
      </trkpt>
      <trkpt lat="49.20877" lon="1.77203">
        <ele>138</ele>
        <time>2016-12-14T08:59:31Z</time>
      </trkpt>
      <trkpt lat="49.20878" lon="1.77207">
        <ele>137</ele>
        <time>2016-12-14T08:59:33Z</time>
      </trkpt>
      <trkpt lat="49.20884" lon="1.77222">
        <ele>135</ele>
        <time>2016-12-14T08:59:41Z</time>
      </trkpt>
      <trkpt lat="49.20884" lon="1.77229">
        <ele>135</ele>
        <time>2016-12-14T08:59:44Z</time>
      </trkpt>
      <trkpt lat="49.20888" lon="1.77236">
        <ele>136</ele>
        <time>2016-12-14T08:59:50Z</time>
      </trkpt>
      <trkpt lat="49.20889" lon="1.77243">
        <ele>136</ele>
        <time>2016-12-14T08:59:53Z</time>
      </trkpt>
      <trkpt lat="49.20892" lon="1.77247">
        <ele>136</ele>
        <time>2016-12-14T08:59:57Z</time>
      </trkpt>
      <trkpt lat="49.20896" lon="1.7727">
        <ele>138</ele>
        <time>2016-12-14T09:00:06Z</time>
      </trkpt>
      <trkpt lat="49.20899" lon="1.77276">
        <ele>138</ele>
        <time>2016-12-14T09:00:10Z</time>
      </trkpt>
      <trkpt lat="49.20903" lon="1.77275">
        <ele>138</ele>
        <time>2016-12-14T09:00:14Z</time>
      </trkpt>
      <trkpt lat="49.20904" lon="1.77284">
        <ele>139</ele>
        <time>2016-12-14T09:00:18Z</time>
      </trkpt>
      <trkpt lat="49.20906" lon="1.77292">
        <ele>138</ele>
        <time>2016-12-14T09:00:23Z</time>
      </trkpt>
      <trkpt lat="49.20905" lon="1.77299">
        <ele>138</ele>
        <time>2016-12-14T09:00:24Z</time>
      </trkpt>
      <trkpt lat="49.20909" lon="1.77299">
        <ele>139</ele>
        <time>2016-12-14T09:00:27Z</time>
      </trkpt>
      <trkpt lat="49.20917" lon="1.77315">
        <ele>137</ele>
        <time>2016-12-14T09:00:38Z</time>
      </trkpt>
      <trkpt lat="49.20919" lon="1.77323">
        <ele>137</ele>
        <time>2016-12-14T09:00:42Z</time>
      </trkpt>
      <trkpt lat="49.20922" lon="1.77327">
        <ele>136</ele>
        <time>2016-12-14T09:00:48Z</time>
      </trkpt>
      <trkpt lat="49.20929" lon="1.77345">
        <ele>135</ele>
        <time>2016-12-14T09:00:59Z</time>
      </trkpt>
      <trkpt lat="49.20932" lon="1.77362">
        <ele>137</ele>
        <time>2016-12-14T09:01:10Z</time>
      </trkpt>
      <trkpt lat="49.20937" lon="1.77362">
        <ele>138</ele>
        <time>2016-12-14T09:01:17Z</time>
      </trkpt>
      <trkpt lat="49.20948" lon="1.77389">
        <ele>135</ele>
        <time>2016-12-14T09:01:33Z</time>
      </trkpt>
      <trkpt lat="49.20957" lon="1.77408">
        <ele>137</ele>
        <time>2016-12-14T09:01:50Z</time>
      </trkpt>
      <trkpt lat="49.20963" lon="1.77429">
        <ele>140</ele>
        <time>2016-12-14T09:02:02Z</time>
      </trkpt>
      <trkpt lat="49.20978" lon="1.77458">
        <ele>139</ele>
        <time>2016-12-14T09:02:24Z</time>
      </trkpt>
      <trkpt lat="49.20989" lon="1.77479">
        <ele>138</ele>
        <time>2016-12-14T09:02:41Z</time>
      </trkpt>
      <trkpt lat="49.20991" lon="1.77484">
        <ele>138</ele>
        <time>2016-12-14T09:02:44Z</time>
      </trkpt>
      <trkpt lat="49.20993" lon="1.77482">
        <ele>138</ele>
        <time>2016-12-14T09:02:45Z</time>
      </trkpt>
      <trkpt lat="49.20994" lon="1.77489">
        <ele>138</ele>
        <time>2016-12-14T09:02:48Z</time>
      </trkpt>
      <trkpt lat="49.20995" lon="1.77495">
        <ele>137</ele>
        <time>2016-12-14T09:02:51Z</time>
      </trkpt>
      <trkpt lat="49.20999" lon="1.77495">
        <ele>137</ele>
        <time>2016-12-14T09:02:55Z</time>
      </trkpt>
      <trkpt lat="49.21" lon="1.77503">
        <ele>138</ele>
        <time>2016-12-14T09:02:59Z</time>
      </trkpt>
      <trkpt lat="49.21" lon="1.77509">
        <ele>139</ele>
        <time>2016-12-14T09:03:01Z</time>
      </trkpt>
      <trkpt lat="49.21003" lon="1.77514">
        <ele>139</ele>
        <time>2016-12-14T09:03:04Z</time>
      </trkpt>
      <trkpt lat="49.21006" lon="1.77516">
        <ele>139</ele>
        <time>2016-12-14T09:03:06Z</time>
      </trkpt>
      <trkpt lat="49.21006" lon="1.77521">
        <ele>139</ele>
        <time>2016-12-14T09:03:09Z</time>
      </trkpt>
      <trkpt lat="49.21008" lon="1.77524">
        <ele>137</ele>
        <time>2016-12-14T09:03:13Z</time>
      </trkpt>
      <trkpt lat="49.21011" lon="1.77521">
        <ele>136</ele>
        <time>2016-12-14T09:03:16Z</time>
      </trkpt>
      <trkpt lat="49.21015" lon="1.77525">
        <ele>132</ele>
        <time>2016-12-14T09:03:22Z</time>
      </trkpt>
      <trkpt lat="49.21023" lon="1.77544">
        <ele>132</ele>
        <time>2016-12-14T09:03:35Z</time>
      </trkpt>
      <trkpt lat="49.21027" lon="1.77559">
        <ele>134</ele>
        <time>2016-12-14T09:03:43Z</time>
      </trkpt>
      <trkpt lat="49.2103" lon="1.77564">
        <ele>137</ele>
        <time>2016-12-14T09:03:51Z</time>
      </trkpt>
      <trkpt lat="49.21031" lon="1.77579">
        <ele>139</ele>
        <time>2016-12-14T09:03:57Z</time>
      </trkpt>
      <trkpt lat="49.21032" lon="1.77587">
        <ele>142</ele>
        <time>2016-12-14T09:04:01Z</time>
      </trkpt>
      <trkpt lat="49.21036" lon="1.77587">
        <ele>142</ele>
        <time>2016-12-14T09:04:05Z</time>
      </trkpt>
      <trkpt lat="49.2105" lon="1.77622">
        <ele>141</ele>
        <time>2016-12-14T09:04:31Z</time>
      </trkpt>
      <trkpt lat="49.21052" lon="1.77625">
        <ele>142</ele>
        <time>2016-12-14T09:04:35Z</time>
      </trkpt>
      <trkpt lat="49.21054" lon="1.7763">
        <ele>142</ele>
        <time>2016-12-14T09:04:38Z</time>
      </trkpt>
      <trkpt lat="49.21056" lon="1.77633">
        <ele>142</ele>
        <time>2016-12-14T09:04:41Z</time>
      </trkpt>
      <trkpt lat="49.21069" lon="1.77676">
        <ele>144</ele>
        <time>2016-12-14T09:05:08Z</time>
      </trkpt>
      <trkpt lat="49.21072" lon="1.77676">
        <ele>144</ele>
        <time>2016-12-14T09:05:11Z</time>
      </trkpt>
      <trkpt lat="49.21075" lon="1.77685">
        <ele>143</ele>
        <time>2016-12-14T09:05:16Z</time>
      </trkpt>
      <trkpt lat="49.21079" lon="1.77687">
        <ele>143</ele>
        <time>2016-12-14T09:05:20Z</time>
      </trkpt>
      <trkpt lat="49.21081" lon="1.7769">
        <ele>142</ele>
        <time>2016-12-14T09:05:23Z</time>
      </trkpt>
      <trkpt lat="49.21083" lon="1.77694">
        <ele>141</ele>
        <time>2016-12-14T09:05:27Z</time>
      </trkpt>
      <trkpt lat="49.21084" lon="1.777">
        <ele>140</ele>
        <time>2016-12-14T09:05:30Z</time>
      </trkpt>
      <trkpt lat="49.21085" lon="1.77711">
        <ele>140</ele>
        <time>2016-12-14T09:05:34Z</time>
      </trkpt>
      <trkpt lat="49.21088" lon="1.77714">
        <ele>140</ele>
        <time>2016-12-14T09:05:37Z</time>
      </trkpt>
      <trkpt lat="49.21094" lon="1.77736">
        <ele>141</ele>
        <time>2016-12-14T09:05:50Z</time>
      </trkpt>
      <trkpt lat="49.21099" lon="1.77748">
        <ele>140</ele>
        <time>2016-12-14T09:05:59Z</time>
      </trkpt>
      <trkpt lat="49.21102" lon="1.77748">
        <ele>140</ele>
        <time>2016-12-14T09:06:02Z</time>
      </trkpt>
      <trkpt lat="49.21104" lon="1.77755">
        <ele>140</ele>
        <time>2016-12-14T09:06:06Z</time>
      </trkpt>
      <trkpt lat="49.21108" lon="1.77773">
        <ele>145</ele>
        <time>2016-12-14T09:06:17Z</time>
      </trkpt>
      <trkpt lat="49.21112" lon="1.77788">
        <ele>146</ele>
        <time>2016-12-14T09:06:27Z</time>
      </trkpt>
      <trkpt lat="49.21112" lon="1.77794">
        <ele>146</ele>
        <time>2016-12-14T09:06:29Z</time>
      </trkpt>
      <trkpt lat="49.21122" lon="1.77834">
        <ele>148</ele>
        <time>2016-12-14T09:06:57Z</time>
      </trkpt>
      <trkpt lat="49.21127" lon="1.77856">
        <ele>147</ele>
        <time>2016-12-14T09:07:08Z</time>
      </trkpt>
      <trkpt lat="49.21129" lon="1.77852">
        <ele>146</ele>
        <time>2016-12-14T09:07:09Z</time>
      </trkpt>
      <trkpt lat="49.2114" lon="1.77893">
        <ele>146</ele>
        <time>2016-12-14T09:07:35Z</time>
      </trkpt>
      <trkpt lat="49.21151" lon="1.77949">
        <ele>151</ele>
        <time>2016-12-14T09:08:07Z</time>
      </trkpt>
      <trkpt lat="49.21152" lon="1.77963">
        <ele>153</ele>
        <time>2016-12-14T09:08:17Z</time>
      </trkpt>
      <trkpt lat="49.21156" lon="1.77987">
        <ele>149</ele>
        <time>2016-12-14T09:08:35Z</time>
      </trkpt>
      <trkpt lat="49.21159" lon="1.7799">
        <ele>149</ele>
        <time>2016-12-14T09:08:46Z</time>
      </trkpt>
      <trkpt lat="49.21159" lon="1.77986">
        <ele>150</ele>
        <time>2016-12-14T09:08:51Z</time>
      </trkpt>
      <trkpt lat="49.21158" lon="1.77982">
        <ele>149</ele>
        <time>2016-12-14T09:09:05Z</time>
      </trkpt>
      <trkpt lat="49.2116" lon="1.77985">
        <ele>149</ele>
        <time>2016-12-14T09:09:40Z</time>
      </trkpt>
      <trkpt lat="49.21158" lon="1.77984">
        <ele>153</ele>
        <time>2016-12-14T09:10:10Z</time>
      </trkpt>
      <trkpt lat="49.21156" lon="1.78003">
        <ele>155</ele>
        <time>2016-12-14T09:10:18Z</time>
      </trkpt>
      <trkpt lat="49.2116" lon="1.78022">
        <ele>154</ele>
        <time>2016-12-14T09:10:35Z</time>
      </trkpt>
      <trkpt lat="49.21158" lon="1.78045">
        <ele>152</ele>
        <time>2016-12-14T09:10:46Z</time>
      </trkpt>
      <trkpt lat="49.21153" lon="1.78055">
        <ele>153</ele>
        <time>2016-12-14T09:10:53Z</time>
      </trkpt>
      <trkpt lat="49.21151" lon="1.78067">
        <ele>157</ele>
        <time>2016-12-14T09:11:00Z</time>
      </trkpt>
      <trkpt lat="49.21146" lon="1.78073">
        <ele>159</ele>
        <time>2016-12-14T09:11:07Z</time>
      </trkpt>
      <trkpt lat="49.21131" lon="1.78132">
        <ele>160</ele>
        <time>2016-12-14T09:11:40Z</time>
      </trkpt>
      <trkpt lat="49.21131" lon="1.7814">
        <ele>161</ele>
        <time>2016-12-14T09:11:44Z</time>
      </trkpt>
      <trkpt lat="49.21128" lon="1.78148">
        <ele>161</ele>
        <time>2016-12-14T09:11:49Z</time>
      </trkpt>
      <trkpt lat="49.21129" lon="1.78152">
        <ele>162</ele>
        <time>2016-12-14T09:11:52Z</time>
      </trkpt>
      <trkpt lat="49.21126" lon="1.78155">
        <ele>161</ele>
        <time>2016-12-14T09:11:53Z</time>
      </trkpt>
      <trkpt lat="49.21127" lon="1.78159">
        <ele>162</ele>
        <time>2016-12-14T09:11:57Z</time>
      </trkpt>
      <trkpt lat="49.21131" lon="1.78161">
        <ele>161</ele>
        <time>2016-12-14T09:12:14Z</time>
      </trkpt>
      <trkpt lat="49.2113" lon="1.78166">
        <ele>164</ele>
        <time>2016-12-14T09:12:27Z</time>
      </trkpt>
      <trkpt lat="49.2113" lon="1.7817">
        <ele>162</ele>
        <time>2016-12-14T09:12:30Z</time>
      </trkpt>
      <trkpt lat="49.21133" lon="1.78179">
        <ele>161</ele>
        <time>2016-12-14T09:12:37Z</time>
      </trkpt>
      <trkpt lat="49.21135" lon="1.78182">
        <ele>162</ele>
        <time>2016-12-14T09:12:40Z</time>
      </trkpt>
      <trkpt lat="49.21138" lon="1.78183">
        <ele>164</ele>
        <time>2016-12-14T09:12:41Z</time>
      </trkpt>
      <trkpt lat="49.2114" lon="1.78188">
        <ele>165</ele>
        <time>2016-12-14T09:12:45Z</time>
      </trkpt>
      <trkpt lat="49.21145" lon="1.7819">
        <ele>167</ele>
        <time>2016-12-14T09:12:48Z</time>
      </trkpt>
      <trkpt lat="49.21148" lon="1.78196">
        <ele>168</ele>
        <time>2016-12-14T09:12:51Z</time>
      </trkpt>
      <trkpt lat="49.21151" lon="1.78197">
        <ele>168</ele>
        <time>2016-12-14T09:12:53Z</time>
      </trkpt>
      <trkpt lat="49.21153" lon="1.78201">
        <ele>168</ele>
        <time>2016-12-14T09:12:55Z</time>
      </trkpt>
      <trkpt lat="49.21165" lon="1.78202">
        <ele>164</ele>
        <time>2016-12-14T09:13:03Z</time>
      </trkpt>
      <trkpt lat="49.21168" lon="1.78197">
        <ele>163</ele>
        <time>2016-12-14T09:13:05Z</time>
      </trkpt>
      <trkpt lat="49.21189" lon="1.7819">
        <ele>164</ele>
        <time>2016-12-14T09:13:20Z</time>
      </trkpt>
      <trkpt lat="49.21218" lon="1.78187">
        <ele>167</ele>
        <time>2016-12-14T09:13:45Z</time>
      </trkpt>
      <trkpt lat="49.21224" lon="1.7818">
        <ele>169</ele>
        <time>2016-12-14T09:13:49Z</time>
      </trkpt>
      <trkpt lat="49.21228" lon="1.7818">
        <ele>169</ele>
        <time>2016-12-14T09:13:51Z</time>
      </trkpt>
      <trkpt lat="49.21244" lon="1.78159">
        <ele>166</ele>
        <time>2016-12-14T09:14:07Z</time>
      </trkpt>
      <trkpt lat="49.21249" lon="1.78156">
        <ele>166</ele>
        <time>2016-12-14T09:14:10Z</time>
      </trkpt>
      <trkpt lat="49.21253" lon="1.78158">
        <ele>169</ele>
        <time>2016-12-14T09:14:16Z</time>
      </trkpt>
      <trkpt lat="49.21259" lon="1.78156">
        <ele>171</ele>
        <time>2016-12-14T09:14:21Z</time>
      </trkpt>
      <trkpt lat="49.21263" lon="1.78151">
        <ele>173</ele>
        <time>2016-12-14T09:14:27Z</time>
      </trkpt>
      <trkpt lat="49.21273" lon="1.78146">
        <ele>172</ele>
        <time>2016-12-14T09:14:35Z</time>
      </trkpt>
      <trkpt lat="49.21278" lon="1.78141">
        <ele>171</ele>
        <time>2016-12-14T09:14:42Z</time>
      </trkpt>
      <trkpt lat="49.21281" lon="1.78145">
        <ele>172</ele>
        <time>2016-12-14T09:14:46Z</time>
      </trkpt>
      <trkpt lat="49.21285" lon="1.78141">
        <ele>173</ele>
        <time>2016-12-14T09:14:50Z</time>
      </trkpt>
      <trkpt lat="49.2129" lon="1.78145">
        <ele>173</ele>
        <time>2016-12-14T09:14:53Z</time>
      </trkpt>
      <trkpt lat="49.21295" lon="1.7815">
        <ele>173</ele>
        <time>2016-12-14T09:14:55Z</time>
      </trkpt>
      <trkpt lat="49.21303" lon="1.78146">
        <ele>172</ele>
        <time>2016-12-14T09:15:01Z</time>
      </trkpt>
      <trkpt lat="49.21307" lon="1.78138">
        <ele>175</ele>
        <time>2016-12-14T09:15:07Z</time>
      </trkpt>
      <trkpt lat="49.2131" lon="1.78137">
        <ele>175</ele>
        <time>2016-12-14T09:15:09Z</time>
      </trkpt>
      <trkpt lat="49.2132" lon="1.78131">
        <ele>177</ele>
        <time>2016-12-14T09:15:19Z</time>
      </trkpt>
      <trkpt lat="49.21329" lon="1.78124">
        <ele>176</ele>
        <time>2016-12-14T09:15:25Z</time>
      </trkpt>
      <trkpt lat="49.21333" lon="1.78129">
        <ele>176</ele>
        <time>2016-12-14T09:15:28Z</time>
      </trkpt>
      <trkpt lat="49.21336" lon="1.78124">
        <ele>177</ele>
        <time>2016-12-14T09:15:30Z</time>
      </trkpt>
      <trkpt lat="49.21341" lon="1.78128">
        <ele>176</ele>
        <time>2016-12-14T09:15:36Z</time>
      </trkpt>
      <trkpt lat="49.21346" lon="1.78127">
        <ele>175</ele>
        <time>2016-12-14T09:15:45Z</time>
      </trkpt>
      <trkpt lat="49.2135" lon="1.78135">
        <ele>174</ele>
        <time>2016-12-14T09:15:50Z</time>
      </trkpt>
      <trkpt lat="49.21359" lon="1.78152">
        <ele>169</ele>
        <time>2016-12-14T09:16:01Z</time>
      </trkpt>
      <trkpt lat="49.2136" lon="1.7816">
        <ele>170</ele>
        <time>2016-12-14T09:16:05Z</time>
      </trkpt>
      <trkpt lat="49.21366" lon="1.78161">
        <ele>172</ele>
        <time>2016-12-14T09:16:10Z</time>
      </trkpt>
      <trkpt lat="49.21374" lon="1.78173">
        <ele>179</ele>
        <time>2016-12-14T09:16:23Z</time>
      </trkpt>
      <trkpt lat="49.21375" lon="1.78183">
        <ele>182</ele>
        <time>2016-12-14T09:16:31Z</time>
      </trkpt>
      <trkpt lat="49.21369" lon="1.78189">
        <ele>181</ele>
        <time>2016-12-14T09:16:35Z</time>
      </trkpt>
      <trkpt lat="49.21354" lon="1.78234">
        <ele>181</ele>
        <time>2016-12-14T09:17:01Z</time>
      </trkpt>
      <trkpt lat="49.21353" lon="1.78243">
        <ele>182</ele>
        <time>2016-12-14T09:17:05Z</time>
      </trkpt>
      <trkpt lat="49.21353" lon="1.78249">
        <ele>182</ele>
        <time>2016-12-14T09:17:10Z</time>
      </trkpt>
      <trkpt lat="49.21357" lon="1.78248">
        <ele>182</ele>
        <time>2016-12-14T09:17:12Z</time>
      </trkpt>
      <trkpt lat="49.21356" lon="1.78255">
        <ele>180</ele>
        <time>2016-12-14T09:17:20Z</time>
      </trkpt>
      <trkpt lat="49.21354" lon="1.78265">
        <ele>181</ele>
        <time>2016-12-14T09:17:26Z</time>
      </trkpt>
      <trkpt lat="49.21351" lon="1.78275">
        <ele>183</ele>
        <time>2016-12-14T09:17:36Z</time>
      </trkpt>
      <trkpt lat="49.21348" lon="1.78291">
        <ele>185</ele>
        <time>2016-12-14T09:17:41Z</time>
      </trkpt>
      <trkpt lat="49.21349" lon="1.78298">
        <ele>185</ele>
        <time>2016-12-14T09:17:47Z</time>
      </trkpt>
      <trkpt lat="49.21352" lon="1.78306">
        <ele>184</ele>
        <time>2016-12-14T09:17:52Z</time>
      </trkpt>
      <trkpt lat="49.2135" lon="1.7832">
        <ele>163</ele>
        <time>2016-12-14T09:18:02Z</time>
      </trkpt>
      <trkpt lat="49.21358" lon="1.78336">
        <ele>174</ele>
        <time>2016-12-14T09:18:17Z</time>
      </trkpt>
      <trkpt lat="49.21359" lon="1.78342">
        <ele>185</ele>
        <time>2016-12-14T09:18:32Z</time>
      </trkpt>
      <trkpt lat="49.21362" lon="1.78355">
        <ele>184</ele>
        <time>2016-12-14T09:18:40Z</time>
      </trkpt>
      <trkpt lat="49.21359" lon="1.78367">
        <ele>180</ele>
        <time>2016-12-14T09:18:45Z</time>
      </trkpt>
      <trkpt lat="49.21362" lon="1.78377">
        <ele>179</ele>
        <time>2016-12-14T09:18:53Z</time>
      </trkpt>
      <trkpt lat="49.2137" lon="1.78385">
        <ele>181</ele>
        <time>2016-12-14T09:19:00Z</time>
      </trkpt>
      <trkpt lat="49.21376" lon="1.78388">
        <ele>184</ele>
        <time>2016-12-14T09:19:05Z</time>
      </trkpt>
      <trkpt lat="49.21378" lon="1.78392">
        <ele>186</ele>
        <time>2016-12-14T09:19:08Z</time>
      </trkpt>
      <trkpt lat="49.21381" lon="1.78392">
        <ele>187</ele>
        <time>2016-12-14T09:19:10Z</time>
      </trkpt>
      <trkpt lat="49.21384" lon="1.784">
        <ele>188</ele>
        <time>2016-12-14T09:19:17Z</time>
      </trkpt>
      <trkpt lat="49.21388" lon="1.78403">
        <ele>189</ele>
        <time>2016-12-14T09:19:20Z</time>
      </trkpt>
      <trkpt lat="49.21391" lon="1.78401">
        <ele>188</ele>
        <time>2016-12-14T09:19:26Z</time>
      </trkpt>
      <trkpt lat="49.21391" lon="1.78408">
        <ele>188</ele>
        <time>2016-12-14T09:19:28Z</time>
      </trkpt>
      <trkpt lat="49.21392" lon="1.78414">
        <ele>186</ele>
        <time>2016-12-14T09:19:34Z</time>
      </trkpt>
      <trkpt lat="49.21402" lon="1.78435">
        <ele>189</ele>
        <time>2016-12-14T09:19:47Z</time>
      </trkpt>
      <trkpt lat="49.21406" lon="1.78438">
        <ele>190</ele>
        <time>2016-12-14T09:19:51Z</time>
      </trkpt>
      <trkpt lat="49.21413" lon="1.78435">
        <ele>193</ele>
        <time>2016-12-14T09:19:56Z</time>
      </trkpt>
      <trkpt lat="49.2142" lon="1.7843">
        <ele>194</ele>
        <time>2016-12-14T09:20:02Z</time>
      </trkpt>
      <trkpt lat="49.21421" lon="1.78426">
        <ele>196</ele>
        <time>2016-12-14T09:20:05Z</time>
      </trkpt>
      <trkpt lat="49.21421" lon="1.7842">
        <ele>194</ele>
        <time>2016-12-14T09:20:48Z</time>
      </trkpt>
      <trkpt lat="49.21424" lon="1.78418">
        <ele>190</ele>
        <time>2016-12-14T09:21:38Z</time>
      </trkpt>
      <trkpt lat="49.21424" lon="1.78418">
        <ele>194</ele>
        <time>2016-12-14T09:22:33Z</time>
      </trkpt>
      <trkpt lat="49.21424" lon="1.78423">
        <ele>194</ele>
        <time>2016-12-14T09:22:42Z</time>
      </trkpt>
      <trkpt lat="49.21422" lon="1.78427">
        <ele>199</ele>
        <time>2016-12-14T09:22:50Z</time>
      </trkpt>
      <trkpt lat="49.21423" lon="1.78426">
        <ele>192</ele>
        <time>2016-12-14T09:23:28Z</time>
      </trkpt>
      <trkpt lat="49.21424" lon="1.78419">
        <ele>192</ele>
        <time>2016-12-14T09:23:34Z</time>
      </trkpt>
      <trkpt lat="49.21423" lon="1.78414">
        <ele>189</ele>
        <time>2016-12-14T09:23:42Z</time>
      </trkpt>
      <trkpt lat="49.21423" lon="1.78416">
        <ele>191</ele>
        <time>2016-12-14T09:24:02Z</time>
      </trkpt>
      <trkpt lat="49.21423" lon="1.78415">
        <ele>192</ele>
        <time>2016-12-14T09:25:02Z</time>
      </trkpt>
      <trkpt lat="49.21423" lon="1.7842">
        <ele>192</ele>
        <time>2016-12-14T09:25:10Z</time>
      </trkpt>
      <trkpt lat="49.2142" lon="1.7842">
        <ele>195</ele>
        <time>2016-12-14T09:25:22Z</time>
      </trkpt>
      <trkpt lat="49.21417" lon="1.78424">
        <ele>197</ele>
        <time>2016-12-14T09:25:30Z</time>
      </trkpt>
      <trkpt lat="49.21413" lon="1.78429">
        <ele>197</ele>
        <time>2016-12-14T09:25:35Z</time>
      </trkpt>
      <trkpt lat="49.21412" lon="1.78439">
        <ele>196</ele>
        <time>2016-12-14T09:25:38Z</time>
      </trkpt>
      <trkpt lat="49.21402" lon="1.78446">
        <ele>193</ele>
        <time>2016-12-14T09:25:51Z</time>
      </trkpt>
      <trkpt lat="49.21397" lon="1.78449">
        <ele>192</ele>
        <time>2016-12-14T09:26:04Z</time>
      </trkpt>
      <trkpt lat="49.21395" lon="1.7845">
        <ele>191</ele>
        <time>2016-12-14T09:26:06Z</time>
      </trkpt>
      <trkpt lat="49.21391" lon="1.78451">
        <ele>189</ele>
        <time>2016-12-14T09:26:10Z</time>
      </trkpt>
      <trkpt lat="49.21373" lon="1.78458">
        <ele>185</ele>
        <time>2016-12-14T09:26:34Z</time>
      </trkpt>
      <trkpt lat="49.2137" lon="1.78456">
        <ele>184</ele>
        <time>2016-12-14T09:26:37Z</time>
      </trkpt>
      <trkpt lat="49.21358" lon="1.78462">
        <ele>185</ele>
        <time>2016-12-14T09:26:50Z</time>
      </trkpt>
      <trkpt lat="49.21344" lon="1.78467">
        <ele>186</ele>
        <time>2016-12-14T09:27:00Z</time>
      </trkpt>
      <trkpt lat="49.21339" lon="1.78467">
        <ele>188</ele>
        <time>2016-12-14T09:27:03Z</time>
      </trkpt>
      <trkpt lat="49.21333" lon="1.78475">
        <ele>190</ele>
        <time>2016-12-14T09:27:11Z</time>
      </trkpt>
      <trkpt lat="49.21329" lon="1.78474">
        <ele>188</ele>
        <time>2016-12-14T09:27:17Z</time>
      </trkpt>
      <trkpt lat="49.21322" lon="1.78472">
        <ele>186</ele>
        <time>2016-12-14T09:27:23Z</time>
      </trkpt>
      <trkpt lat="49.2132" lon="1.78475">
        <ele>186</ele>
        <time>2016-12-14T09:27:28Z</time>
      </trkpt>
      <trkpt lat="49.21318" lon="1.78482">
        <ele>185</ele>
        <time>2016-12-14T09:27:32Z</time>
      </trkpt>
      <trkpt lat="49.21313" lon="1.7848">
        <ele>185</ele>
        <time>2016-12-14T09:27:37Z</time>
      </trkpt>
      <trkpt lat="49.21308" lon="1.78481">
        <ele>183</ele>
        <time>2016-12-14T09:27:42Z</time>
      </trkpt>
      <trkpt lat="49.21306" lon="1.78485">
        <ele>182</ele>
        <time>2016-12-14T09:27:46Z</time>
      </trkpt>
      <trkpt lat="49.21293" lon="1.78487">
        <ele>183</ele>
        <time>2016-12-14T09:27:54Z</time>
      </trkpt>
      <trkpt lat="49.21287" lon="1.78491">
        <ele>185</ele>
        <time>2016-12-14T09:27:59Z</time>
      </trkpt>
      <trkpt lat="49.21259" lon="1.78501">
        <ele>183</ele>
        <time>2016-12-14T09:28:25Z</time>
      </trkpt>
      <trkpt lat="49.21252" lon="1.78499">
        <ele>184</ele>
        <time>2016-12-14T09:28:30Z</time>
      </trkpt>
      <trkpt lat="49.21246" lon="1.78503">
        <ele>183</ele>
        <time>2016-12-14T09:28:37Z</time>
      </trkpt>
      <trkpt lat="49.21226" lon="1.78513">
        <ele>180</ele>
        <time>2016-12-14T09:28:51Z</time>
      </trkpt>
      <trkpt lat="49.21218" lon="1.78512">
        <ele>179</ele>
        <time>2016-12-14T09:28:57Z</time>
      </trkpt>
      <trkpt lat="49.21213" lon="1.7851">
        <ele>178</ele>
        <time>2016-12-14T09:29:01Z</time>
      </trkpt>
      <trkpt lat="49.21207" lon="1.78505">
        <ele>176</ele>
        <time>2016-12-14T09:29:05Z</time>
      </trkpt>
      <trkpt lat="49.21202" lon="1.78506">
        <ele>175</ele>
        <time>2016-12-14T09:29:09Z</time>
      </trkpt>
      <trkpt lat="49.21198" lon="1.78506">
        <ele>173</ele>
        <time>2016-12-14T09:29:14Z</time>
      </trkpt>
      <trkpt lat="49.21179" lon="1.78516">
        <ele>174</ele>
        <time>2016-12-14T09:29:27Z</time>
      </trkpt>
      <trkpt lat="49.21176" lon="1.78514">
        <ele>174</ele>
        <time>2016-12-14T09:29:29Z</time>
      </trkpt>
      <trkpt lat="49.21162" lon="1.78518">
        <ele>170</ele>
        <time>2016-12-14T09:29:41Z</time>
      </trkpt>
      <trkpt lat="49.2116" lon="1.78523">
        <ele>167</ele>
        <time>2016-12-14T09:29:45Z</time>
      </trkpt>
      <trkpt lat="49.21157" lon="1.78524">
        <ele>167</ele>
        <time>2016-12-14T09:29:47Z</time>
      </trkpt>
      <trkpt lat="49.21146" lon="1.78519">
        <ele>169</ele>
        <time>2016-12-14T09:29:54Z</time>
      </trkpt>
      <trkpt lat="49.21143" lon="1.7852">
        <ele>169</ele>
        <time>2016-12-14T09:29:58Z</time>
      </trkpt>
      <trkpt lat="49.21134" lon="1.7852">
        <ele>166</ele>
        <time>2016-12-14T09:30:07Z</time>
      </trkpt>
      <trkpt lat="49.21125" lon="1.78525">
        <ele>163</ele>
        <time>2016-12-14T09:30:14Z</time>
      </trkpt>
      <trkpt lat="49.21121" lon="1.78525">
        <ele>162</ele>
        <time>2016-12-14T09:30:17Z</time>
      </trkpt>
      <trkpt lat="49.21118" lon="1.78523">
        <ele>162</ele>
        <time>2016-12-14T09:30:19Z</time>
      </trkpt>
      <trkpt lat="49.21115" lon="1.78525">
        <ele>163</ele>
        <time>2016-12-14T09:30:23Z</time>
      </trkpt>
      <trkpt lat="49.21112" lon="1.78528">
        <ele>162</ele>
        <time>2016-12-14T09:30:27Z</time>
      </trkpt>
      <trkpt lat="49.21109" lon="1.78528">
        <ele>159</ele>
        <time>2016-12-14T09:30:33Z</time>
      </trkpt>
      <trkpt lat="49.21107" lon="1.78525">
        <ele>160</ele>
        <time>2016-12-14T09:30:39Z</time>
      </trkpt>
      <trkpt lat="49.21107" lon="1.7852">
        <ele>161</ele>
        <time>2016-12-14T09:30:49Z</time>
      </trkpt>
      <trkpt lat="49.21103" lon="1.78517">
        <ele>160</ele>
        <time>2016-12-14T09:30:56Z</time>
      </trkpt>
      <trkpt lat="49.21099" lon="1.78521">
        <ele>160</ele>
        <time>2016-12-14T09:31:02Z</time>
      </trkpt>
      <trkpt lat="49.21095" lon="1.78519">
        <ele>159</ele>
        <time>2016-12-14T09:31:05Z</time>
      </trkpt>
      <trkpt lat="49.21092" lon="1.78519">
        <ele>160</ele>
        <time>2016-12-14T09:31:08Z</time>
      </trkpt>
      <trkpt lat="49.21087" lon="1.78514">
        <ele>162</ele>
        <time>2016-12-14T09:31:11Z</time>
      </trkpt>
      <trkpt lat="49.21079" lon="1.78515">
        <ele>163</ele>
        <time>2016-12-14T09:31:17Z</time>
      </trkpt>
      <trkpt lat="49.21069" lon="1.78506">
        <ele>163</ele>
        <time>2016-12-14T09:31:27Z</time>
      </trkpt>
      <trkpt lat="49.21071" lon="1.7851">
        <ele>163</ele>
        <time>2016-12-14T09:31:37Z</time>
      </trkpt>
      <trkpt lat="49.21066" lon="1.78507">
        <ele>160</ele>
        <time>2016-12-14T09:31:40Z</time>
      </trkpt>
      <trkpt lat="49.21055" lon="1.78504">
        <ele>157</ele>
        <time>2016-12-14T09:31:48Z</time>
      </trkpt>
      <trkpt lat="49.21038" lon="1.78487">
        <ele>158</ele>
        <time>2016-12-14T09:31:59Z</time>
      </trkpt>
      <trkpt lat="49.21034" lon="1.78489">
        <ele>161</ele>
        <time>2016-12-14T09:32:02Z</time>
      </trkpt>
      <trkpt lat="49.21028" lon="1.78485">
        <ele>160</ele>
        <time>2016-12-14T09:32:05Z</time>
      </trkpt>
      <trkpt lat="49.2102" lon="1.78482">
        <ele>158</ele>
        <time>2016-12-14T09:32:20Z</time>
      </trkpt>
      <trkpt lat="49.21011" lon="1.7848">
        <ele>156</ele>
        <time>2016-12-14T09:32:26Z</time>
      </trkpt>
      <trkpt lat="49.20991" lon="1.78467">
        <ele>157</ele>
        <time>2016-12-14T09:32:37Z</time>
      </trkpt>
      <trkpt lat="49.20988" lon="1.78469">
        <ele>156</ele>
        <time>2016-12-14T09:32:40Z</time>
      </trkpt>
      <trkpt lat="49.20984" lon="1.78467">
        <ele>152</ele>
        <time>2016-12-14T09:32:42Z</time>
      </trkpt>
      <trkpt lat="49.20965" lon="1.78449">
        <ele>150</ele>
        <time>2016-12-14T09:33:03Z</time>
      </trkpt>
      <trkpt lat="49.20962" lon="1.78444">
        <ele>149</ele>
        <time>2016-12-14T09:33:05Z</time>
      </trkpt>
      <trkpt lat="49.20958" lon="1.78446">
        <ele>150</ele>
        <time>2016-12-14T09:33:09Z</time>
      </trkpt>
      <trkpt lat="49.20955" lon="1.78445">
        <ele>149</ele>
        <time>2016-12-14T09:33:13Z</time>
      </trkpt>
      <trkpt lat="49.20953" lon="1.78442">
        <ele>148</ele>
        <time>2016-12-14T09:33:20Z</time>
      </trkpt>
      <trkpt lat="49.20949" lon="1.78445">
        <ele>148</ele>
        <time>2016-12-14T09:33:28Z</time>
      </trkpt>
      <trkpt lat="49.20938" lon="1.7844">
        <ele>152</ele>
        <time>2016-12-14T09:33:39Z</time>
      </trkpt>
      <trkpt lat="49.20935" lon="1.78441">
        <ele>152</ele>
        <time>2016-12-14T09:33:41Z</time>
      </trkpt>
      <trkpt lat="49.20932" lon="1.78439">
        <ele>150</ele>
        <time>2016-12-14T09:33:50Z</time>
      </trkpt>
      <trkpt lat="49.20924" lon="1.78445">
        <ele>144</ele>
        <time>2016-12-14T09:33:59Z</time>
      </trkpt>
      <trkpt lat="49.2091" lon="1.78445">
        <ele>143</ele>
        <time>2016-12-14T09:34:07Z</time>
      </trkpt>
      <trkpt lat="49.20906" lon="1.78447">
        <ele>144</ele>
        <time>2016-12-14T09:34:09Z</time>
      </trkpt>
      <trkpt lat="49.20895" lon="1.78446">
        <ele>146</ele>
        <time>2016-12-14T09:34:13Z</time>
      </trkpt>
      <trkpt lat="49.2088" lon="1.7844">
        <ele>145</ele>
        <time>2016-12-14T09:34:20Z</time>
      </trkpt>
      <trkpt lat="49.20876" lon="1.78442">
        <ele>143</ele>
        <time>2016-12-14T09:34:23Z</time>
      </trkpt>
      <trkpt lat="49.20871" lon="1.78439">
        <ele>142</ele>
        <time>2016-12-14T09:34:29Z</time>
      </trkpt>
      <trkpt lat="49.20867" lon="1.78437">
        <ele>142</ele>
        <time>2016-12-14T09:34:34Z</time>
      </trkpt>
      <trkpt lat="49.20863" lon="1.78437">
        <ele>144</ele>
        <time>2016-12-14T09:34:39Z</time>
      </trkpt>
      <trkpt lat="49.2086" lon="1.78434">
        <ele>141</ele>
        <time>2016-12-14T09:34:46Z</time>
      </trkpt>
      <trkpt lat="49.20852" lon="1.78436">
        <ele>139</ele>
        <time>2016-12-14T09:34:52Z</time>
      </trkpt>
      <trkpt lat="49.20849" lon="1.78434">
        <ele>140</ele>
        <time>2016-12-14T09:34:58Z</time>
      </trkpt>
      <trkpt lat="49.20846" lon="1.78431">
        <ele>141</ele>
        <time>2016-12-14T09:35:01Z</time>
      </trkpt>
      <trkpt lat="49.20835" lon="1.78432">
        <ele>144</ele>
        <time>2016-12-14T09:35:15Z</time>
      </trkpt>
      <trkpt lat="49.20831" lon="1.78432">
        <ele>141</ele>
        <time>2016-12-14T09:35:17Z</time>
      </trkpt>
      <trkpt lat="49.20821" lon="1.78423">
        <ele>136</ele>
        <time>2016-12-14T09:35:25Z</time>
      </trkpt>
      <trkpt lat="49.20811" lon="1.78419">
        <ele>137</ele>
        <time>2016-12-14T09:35:31Z</time>
      </trkpt>
      <trkpt lat="49.20807" lon="1.78421">
        <ele>137</ele>
        <time>2016-12-14T09:35:34Z</time>
      </trkpt>
      <trkpt lat="49.20798" lon="1.78417">
        <ele>136</ele>
        <time>2016-12-14T09:35:38Z</time>
      </trkpt>
      <trkpt lat="49.2078" lon="1.78405">
        <ele>135</ele>
        <time>2016-12-14T09:36:08Z</time>
      </trkpt>
      <trkpt lat="49.20775" lon="1.78406">
        <ele>136</ele>
        <time>2016-12-14T09:36:11Z</time>
      </trkpt>
      <trkpt lat="49.20755" lon="1.78402">
        <ele>134</ele>
        <time>2016-12-14T09:36:20Z</time>
      </trkpt>
      <trkpt lat="49.20752" lon="1.78401">
        <ele>133</ele>
        <time>2016-12-14T09:36:24Z</time>
      </trkpt>
      <trkpt lat="49.2075" lon="1.78398">
        <ele>133</ele>
        <time>2016-12-14T09:36:26Z</time>
      </trkpt>
      <trkpt lat="49.20747" lon="1.78401">
        <ele>131</ele>
        <time>2016-12-14T09:36:39Z</time>
      </trkpt>
      <trkpt lat="49.20739" lon="1.78401">
        <ele>128</ele>
        <time>2016-12-14T09:36:44Z</time>
      </trkpt>
      <trkpt lat="49.20737" lon="1.78398">
        <ele>128</ele>
        <time>2016-12-14T09:36:45Z</time>
      </trkpt>
      <trkpt lat="49.20733" lon="1.78398">
        <ele>129</ele>
        <time>2016-12-14T09:36:47Z</time>
      </trkpt>
      <trkpt lat="49.20731" lon="1.78393">
        <ele>129</ele>
        <time>2016-12-14T09:36:51Z</time>
      </trkpt>
      <trkpt lat="49.20727" lon="1.78389">
        <ele>128</ele>
        <time>2016-12-14T09:37:02Z</time>
      </trkpt>
      <trkpt lat="49.20723" lon="1.78386">
        <ele>126</ele>
        <time>2016-12-14T09:37:04Z</time>
      </trkpt>
      <trkpt lat="49.20703" lon="1.7838">
        <ele>129</ele>
        <time>2016-12-14T09:37:13Z</time>
      </trkpt>
      <trkpt lat="49.20702" lon="1.78376">
        <ele>129</ele>
        <time>2016-12-14T09:37:25Z</time>
      </trkpt>
      <trkpt lat="49.20695" lon="1.78375">
        <ele>129</ele>
        <time>2016-12-14T09:37:32Z</time>
      </trkpt>
      <trkpt lat="49.2069" lon="1.78377">
        <ele>128</ele>
        <time>2016-12-14T09:37:35Z</time>
      </trkpt>
      <trkpt lat="49.20673" lon="1.78372">
        <ele>132</ele>
        <time>2016-12-14T09:37:44Z</time>
      </trkpt>
      <trkpt lat="49.20671" lon="1.78371">
        <ele>132</ele>
        <time>2016-12-14T09:37:47Z</time>
      </trkpt>
      <trkpt lat="49.2066" lon="1.7836">
        <ele>129</ele>
        <time>2016-12-14T09:37:58Z</time>
      </trkpt>
      <trkpt lat="49.20656" lon="1.78363">
        <ele>129</ele>
        <time>2016-12-14T09:38:02Z</time>
      </trkpt>
      <trkpt lat="49.20647" lon="1.78373">
        <ele>135</ele>
        <time>2016-12-14T09:38:12Z</time>
      </trkpt>
      <trkpt lat="49.2064" lon="1.78365">
        <ele>133</ele>
        <time>2016-12-14T09:38:21Z</time>
      </trkpt>
      <trkpt lat="49.20631" lon="1.78359">
        <ele>133</ele>
        <time>2016-12-14T09:38:31Z</time>
      </trkpt>
      <trkpt lat="49.2063" lon="1.78354">
        <ele>132</ele>
        <time>2016-12-14T09:38:33Z</time>
      </trkpt>
      <trkpt lat="49.20626" lon="1.78353">
        <ele>131</ele>
        <time>2016-12-14T09:38:37Z</time>
      </trkpt>
      <trkpt lat="49.20622" lon="1.7835">
        <ele>130</ele>
        <time>2016-12-14T09:38:42Z</time>
      </trkpt>
      <trkpt lat="49.20599" lon="1.78344">
        <ele>128</ele>
        <time>2016-12-14T09:39:03Z</time>
      </trkpt>
      <trkpt lat="49.20597" lon="1.7834">
        <ele>126</ele>
        <time>2016-12-14T09:39:07Z</time>
      </trkpt>
      <trkpt lat="49.20582" lon="1.78336">
        <ele>126</ele>
        <time>2016-12-14T09:39:22Z</time>
      </trkpt>
      <trkpt lat="49.2058" lon="1.78334">
        <ele>126</ele>
        <time>2016-12-14T09:39:24Z</time>
      </trkpt>
      <trkpt lat="49.20558" lon="1.7833">
        <ele>126</ele>
        <time>2016-12-14T09:39:40Z</time>
      </trkpt>
      <trkpt lat="49.20533" lon="1.78324">
        <ele>125</ele>
        <time>2016-12-14T09:40:01Z</time>
      </trkpt>
      <trkpt lat="49.20529" lon="1.78323">
        <ele>124</ele>
        <time>2016-12-14T09:40:04Z</time>
      </trkpt>
      <trkpt lat="49.20527" lon="1.78319">
        <ele>124</ele>
        <time>2016-12-14T09:40:06Z</time>
      </trkpt>
      <trkpt lat="49.20515" lon="1.78313">
        <ele>124</ele>
        <time>2016-12-14T09:40:17Z</time>
      </trkpt>
      <trkpt lat="49.20477" lon="1.78298">
        <ele>120</ele>
        <time>2016-12-14T09:40:49Z</time>
      </trkpt>
      <trkpt lat="49.20471" lon="1.78296">
        <ele>121</ele>
        <time>2016-12-14T09:40:54Z</time>
      </trkpt>
      <trkpt lat="49.20445" lon="1.78278">
        <ele>123</ele>
        <time>2016-12-14T09:41:16Z</time>
      </trkpt>
      <trkpt lat="49.20438" lon="1.78277">
        <ele>124</ele>
        <time>2016-12-14T09:41:23Z</time>
      </trkpt>
      <trkpt lat="49.20437" lon="1.7828">
        <ele>124</ele>
        <time>2016-12-14T09:41:25Z</time>
      </trkpt>
      <trkpt lat="49.20434" lon="1.78277">
        <ele>123</ele>
        <time>2016-12-14T09:41:27Z</time>
      </trkpt>
      <trkpt lat="49.20402" lon="1.78254">
        <ele>127</ele>
        <time>2016-12-14T09:41:53Z</time>
      </trkpt>
      <trkpt lat="49.20399" lon="1.78256">
        <ele>127</ele>
        <time>2016-12-14T09:41:56Z</time>
      </trkpt>
      <trkpt lat="49.20396" lon="1.78255">
        <ele>124</ele>
        <time>2016-12-14T09:41:59Z</time>
      </trkpt>
      <trkpt lat="49.20391" lon="1.78248">
        <ele>122</ele>
        <time>2016-12-14T09:42:03Z</time>
      </trkpt>
      <trkpt lat="49.20388" lon="1.78248">
        <ele>122</ele>
        <time>2016-12-14T09:42:06Z</time>
      </trkpt>
      <trkpt lat="49.20386" lon="1.78245">
        <ele>121</ele>
        <time>2016-12-14T09:42:09Z</time>
      </trkpt>
      <trkpt lat="49.20355" lon="1.78225">
        <ele>119</ele>
        <time>2016-12-14T09:42:39Z</time>
      </trkpt>
      <trkpt lat="49.20347" lon="1.78216">
        <ele>119</ele>
        <time>2016-12-14T09:42:46Z</time>
      </trkpt>
      <trkpt lat="49.20343" lon="1.78213">
        <ele>120</ele>
        <time>2016-12-14T09:42:49Z</time>
      </trkpt>
      <trkpt lat="49.20337" lon="1.78214">
        <ele>119</ele>
        <time>2016-12-14T09:42:55Z</time>
      </trkpt>
      <trkpt lat="49.20334" lon="1.7821">
        <ele>118</ele>
        <time>2016-12-14T09:42:57Z</time>
      </trkpt>
      <trkpt lat="49.20331" lon="1.7821">
        <ele>118</ele>
        <time>2016-12-14T09:43:01Z</time>
      </trkpt>
      <trkpt lat="49.20296" lon="1.78196">
        <ele>117</ele>
        <time>2016-12-14T09:43:32Z</time>
      </trkpt>
      <trkpt lat="49.20262" lon="1.78182">
        <ele>120</ele>
        <time>2016-12-14T09:43:58Z</time>
      </trkpt>
      <trkpt lat="49.2026" lon="1.78177">
        <ele>121</ele>
        <time>2016-12-14T09:44:00Z</time>
      </trkpt>
      <trkpt lat="49.20251" lon="1.78182">
        <ele>119</ele>
        <time>2016-12-14T09:44:07Z</time>
      </trkpt>
      <trkpt lat="49.20248" lon="1.78181">
        <ele>118</ele>
        <time>2016-12-14T09:44:11Z</time>
      </trkpt>
      <trkpt lat="49.20243" lon="1.78182">
        <ele>116</ele>
        <time>2016-12-14T09:44:15Z</time>
      </trkpt>
      <trkpt lat="49.2024" lon="1.7818">
        <ele>116</ele>
        <time>2016-12-14T09:44:17Z</time>
      </trkpt>
      <trkpt lat="49.20237" lon="1.78184">
        <ele>116</ele>
        <time>2016-12-14T09:44:21Z</time>
      </trkpt>
      <trkpt lat="49.20234" lon="1.7818">
        <ele>115</ele>
        <time>2016-12-14T09:44:23Z</time>
      </trkpt>
      <trkpt lat="49.20231" lon="1.78176">
        <ele>116</ele>
        <time>2016-12-14T09:44:25Z</time>
      </trkpt>
      <trkpt lat="49.20227" lon="1.78175">
        <ele>117</ele>
        <time>2016-12-14T09:44:28Z</time>
      </trkpt>
      <trkpt lat="49.20224" lon="1.78174">
        <ele>118</ele>
        <time>2016-12-14T09:44:31Z</time>
      </trkpt>
      <trkpt lat="49.20218" lon="1.78167">
        <ele>119</ele>
        <time>2016-12-14T09:44:34Z</time>
      </trkpt>
      <trkpt lat="49.20216" lon="1.78165">
        <ele>119</ele>
        <time>2016-12-14T09:44:36Z</time>
      </trkpt>
      <trkpt lat="49.20212" lon="1.78165">
        <ele>119</ele>
        <time>2016-12-14T09:44:39Z</time>
      </trkpt>
      <trkpt lat="49.20208" lon="1.78162">
        <ele>118</ele>
        <time>2016-12-14T09:44:41Z</time>
      </trkpt>
      <trkpt lat="49.20204" lon="1.78162">
        <ele>119</ele>
        <time>2016-12-14T09:44:45Z</time>
      </trkpt>
      <trkpt lat="49.20204" lon="1.78166">
        <ele>119</ele>
        <time>2016-12-14T09:44:49Z</time>
      </trkpt>
      <trkpt lat="49.202" lon="1.78166">
        <ele>118</ele>
        <time>2016-12-14T09:44:53Z</time>
      </trkpt>
      <trkpt lat="49.20195" lon="1.7816">
        <ele>120</ele>
        <time>2016-12-14T09:44:56Z</time>
      </trkpt>
      <trkpt lat="49.2019" lon="1.78159">
        <ele>117</ele>
        <time>2016-12-14T09:45:01Z</time>
      </trkpt>
      <trkpt lat="49.20187" lon="1.78162">
        <ele>114</ele>
        <time>2016-12-14T09:45:04Z</time>
      </trkpt>
      <trkpt lat="49.20184" lon="1.78162">
        <ele>113</ele>
        <time>2016-12-14T09:45:08Z</time>
      </trkpt>
      <trkpt lat="49.20182" lon="1.78158">
        <ele>114</ele>
        <time>2016-12-14T09:45:10Z</time>
      </trkpt>
      <trkpt lat="49.20179" lon="1.78153">
        <ele>113</ele>
        <time>2016-12-14T09:45:14Z</time>
      </trkpt>
      <trkpt lat="49.20175" lon="1.78156">
        <ele>112</ele>
        <time>2016-12-14T09:45:17Z</time>
      </trkpt>
      <trkpt lat="49.20173" lon="1.78161">
        <ele>111</ele>
        <time>2016-12-14T09:45:19Z</time>
      </trkpt>
      <trkpt lat="49.20169" lon="1.78165">
        <ele>112</ele>
        <time>2016-12-14T09:45:25Z</time>
      </trkpt>
      <trkpt lat="49.20166" lon="1.78166">
        <ele>108</ele>
        <time>2016-12-14T09:45:33Z</time>
      </trkpt>
      <trkpt lat="49.20166" lon="1.78169">
        <ele>106</ele>
        <time>2016-12-14T09:46:10Z</time>
      </trkpt>
      <trkpt lat="49.20169" lon="1.78167">
        <ele>107</ele>
        <time>2016-12-14T09:46:19Z</time>
      </trkpt>
      <trkpt lat="49.20168" lon="1.78167">
        <ele>117</ele>
        <time>2016-12-14T09:46:48Z</time>
      </trkpt>
      <trkpt lat="49.20172" lon="1.78162">
        <ele>118</ele>
        <time>2016-12-14T09:47:20Z</time>
      </trkpt>
      <trkpt lat="49.20174" lon="1.7816">
        <ele>119</ele>
        <time>2016-12-14T09:47:22Z</time>
      </trkpt>
      <trkpt lat="49.20173" lon="1.78152">
        <ele>117</ele>
        <time>2016-12-14T09:47:26Z</time>
      </trkpt>
      <trkpt lat="49.20171" lon="1.78147">
        <ele>117</ele>
        <time>2016-12-14T09:47:29Z</time>
      </trkpt>
      <trkpt lat="49.20164" lon="1.78143">
        <ele>117</ele>
        <time>2016-12-14T09:47:34Z</time>
      </trkpt>
      <trkpt lat="49.20149" lon="1.78138">
        <ele>114</ele>
        <time>2016-12-14T09:47:41Z</time>
      </trkpt>
      <trkpt lat="49.20145" lon="1.78138">
        <ele>113</ele>
        <time>2016-12-14T09:47:43Z</time>
      </trkpt>
      <trkpt lat="49.20131" lon="1.78127">
        <ele>110</ele>
        <time>2016-12-14T09:47:49Z</time>
      </trkpt>
      <trkpt lat="49.20093" lon="1.78102">
        <ele>106</ele>
        <time>2016-12-14T09:48:03Z</time>
      </trkpt>
      <trkpt lat="49.20087" lon="1.78099">
        <ele>104</ele>
        <time>2016-12-14T09:48:05Z</time>
      </trkpt>
      <trkpt lat="49.2008" lon="1.78099">
        <ele>103</ele>
        <time>2016-12-14T09:48:07Z</time>
      </trkpt>
      <trkpt lat="49.20076" lon="1.78093">
        <ele>103</ele>
        <time>2016-12-14T09:48:10Z</time>
      </trkpt>
      <trkpt lat="49.20069" lon="1.7809">
        <ele>101</ele>
        <time>2016-12-14T09:48:16Z</time>
      </trkpt>
      <trkpt lat="49.20066" lon="1.7809">
        <ele>99</ele>
        <time>2016-12-14T09:48:19Z</time>
      </trkpt>
      <trkpt lat="49.20063" lon="1.78085">
        <ele>98</ele>
        <time>2016-12-14T09:48:21Z</time>
      </trkpt>
      <trkpt lat="49.20043" lon="1.78067">
        <ele>96</ele>
        <time>2016-12-14T09:48:38Z</time>
      </trkpt>
      <trkpt lat="49.20027" lon="1.78057">
        <ele>96</ele>
        <time>2016-12-14T09:48:52Z</time>
      </trkpt>
      <trkpt lat="49.20009" lon="1.78042">
        <ele>94</ele>
        <time>2016-12-14T09:49:07Z</time>
      </trkpt>
      <trkpt lat="49.20007" lon="1.78036">
        <ele>94</ele>
        <time>2016-12-14T09:49:09Z</time>
      </trkpt>
      <trkpt lat="49.20004" lon="1.78035">
        <ele>94</ele>
        <time>2016-12-14T09:49:13Z</time>
      </trkpt>
      <trkpt lat="49.19998" lon="1.78038">
        <ele>93</ele>
        <time>2016-12-14T09:49:18Z</time>
      </trkpt>
      <trkpt lat="49.19991" lon="1.78032">
        <ele>92</ele>
        <time>2016-12-14T09:49:26Z</time>
      </trkpt>
      <trkpt lat="49.19984" lon="1.78009">
        <ele>88</ele>
        <time>2016-12-14T09:49:31Z</time>
      </trkpt>
      <trkpt lat="49.19984" lon="1.78017">
        <ele>86</ele>
        <time>2016-12-14T09:49:36Z</time>
      </trkpt>
      <trkpt lat="49.1998" lon="1.78024">
        <ele>86</ele>
        <time>2016-12-14T09:49:41Z</time>
      </trkpt>
      <trkpt lat="49.19975" lon="1.78019">
        <ele>86</ele>
        <time>2016-12-14T09:49:44Z</time>
      </trkpt>
      <trkpt lat="49.19972" lon="1.78008">
        <ele>88</ele>
        <time>2016-12-14T09:49:51Z</time>
      </trkpt>
      <trkpt lat="49.19966" lon="1.78003">
        <ele>89</ele>
        <time>2016-12-14T09:49:58Z</time>
      </trkpt>
      <trkpt lat="49.19962" lon="1.77996">
        <ele>89</ele>
        <time>2016-12-14T09:50:02Z</time>
      </trkpt>
      <trkpt lat="49.19939" lon="1.7796">
        <ele>92</ele>
        <time>2016-12-14T09:50:24Z</time>
      </trkpt>
      <trkpt lat="49.19934" lon="1.77959">
        <ele>89</ele>
        <time>2016-12-14T09:50:31Z</time>
      </trkpt>
      <trkpt lat="49.19932" lon="1.77955">
        <ele>86</ele>
        <time>2016-12-14T09:50:34Z</time>
      </trkpt>
      <trkpt lat="49.19931" lon="1.77949">
        <ele>86</ele>
        <time>2016-12-14T09:50:37Z</time>
      </trkpt>
      <trkpt lat="49.19922" lon="1.77937">
        <ele>85</ele>
        <time>2016-12-14T09:50:47Z</time>
      </trkpt>
      <trkpt lat="49.19923" lon="1.7793">
        <ele>85</ele>
        <time>2016-12-14T09:50:48Z</time>
      </trkpt>
      <trkpt lat="49.1992" lon="1.77924">
        <ele>87</ele>
        <time>2016-12-14T09:50:49Z</time>
      </trkpt>
      <trkpt lat="49.19909" lon="1.7792">
        <ele>86</ele>
        <time>2016-12-14T09:51:07Z</time>
      </trkpt>
      <trkpt lat="49.19896" lon="1.77905">
        <ele>87</ele>
        <time>2016-12-14T09:51:18Z</time>
      </trkpt>
      <trkpt lat="49.19893" lon="1.77893">
        <ele>87</ele>
        <time>2016-12-14T09:51:23Z</time>
      </trkpt>
      <trkpt lat="49.19888" lon="1.77884">
        <ele>90</ele>
        <time>2016-12-14T09:51:28Z</time>
      </trkpt>
      <trkpt lat="49.1986" lon="1.77863">
        <ele>96</ele>
        <time>2016-12-14T09:51:52Z</time>
      </trkpt>
      <trkpt lat="49.19862" lon="1.77858">
        <ele>96</ele>
        <time>2016-12-14T09:51:56Z</time>
      </trkpt>
      <trkpt lat="49.19846" lon="1.77841">
        <ele>91</ele>
        <time>2016-12-14T09:52:11Z</time>
      </trkpt>
      <trkpt lat="49.19833" lon="1.77827">
        <ele>91</ele>
        <time>2016-12-14T09:52:24Z</time>
      </trkpt>
      <trkpt lat="49.19828" lon="1.77825">
        <ele>91</ele>
        <time>2016-12-14T09:52:30Z</time>
      </trkpt>
      <trkpt lat="49.19825" lon="1.77823">
        <ele>89</ele>
        <time>2016-12-14T09:52:34Z</time>
      </trkpt>
      <trkpt lat="49.1982" lon="1.77825">
        <ele>87</ele>
        <time>2016-12-14T09:52:39Z</time>
      </trkpt>
      <trkpt lat="49.19816" lon="1.77825">
        <ele>87</ele>
        <time>2016-12-14T09:52:44Z</time>
      </trkpt>
      <trkpt lat="49.19811" lon="1.77811">
        <ele>84</ele>
        <time>2016-12-14T09:52:46Z</time>
      </trkpt>
      <trkpt lat="49.19803" lon="1.77807">
        <ele>83</ele>
        <time>2016-12-14T09:52:53Z</time>
      </trkpt>
      <trkpt lat="49.198" lon="1.77802">
        <ele>84</ele>
        <time>2016-12-14T09:53:02Z</time>
      </trkpt>
      <trkpt lat="49.19796" lon="1.77807">
        <ele>82</ele>
        <time>2016-12-14T09:53:25Z</time>
      </trkpt>
      <trkpt lat="49.19787" lon="1.77813">
        <ele>78</ele>
        <time>2016-12-14T09:53:34Z</time>
      </trkpt>
      <trkpt lat="49.19783" lon="1.7782">
        <ele>76</ele>
        <time>2016-12-14T09:53:40Z</time>
      </trkpt>
      <trkpt lat="49.19778" lon="1.77822">
        <ele>77</ele>
        <time>2016-12-14T09:53:45Z</time>
      </trkpt>
      <trkpt lat="49.19772" lon="1.7782">
        <ele>80</ele>
        <time>2016-12-14T09:53:50Z</time>
      </trkpt>
      <trkpt lat="49.19765" lon="1.7782">
        <ele>82</ele>
        <time>2016-12-14T09:53:54Z</time>
      </trkpt>
      <trkpt lat="49.19758" lon="1.77811">
        <ele>88</ele>
        <time>2016-12-14T09:53:58Z</time>
      </trkpt>
      <trkpt lat="49.1975" lon="1.77814">
        <ele>88</ele>
        <time>2016-12-14T09:54:06Z</time>
      </trkpt>
      <trkpt lat="49.19744" lon="1.77813">
        <ele>90</ele>
        <time>2016-12-14T09:54:10Z</time>
      </trkpt>
      <trkpt lat="49.19736" lon="1.77816">
        <ele>88</ele>
        <time>2016-12-14T09:54:19Z</time>
      </trkpt>
      <trkpt lat="49.19732" lon="1.77814">
        <ele>87</ele>
        <time>2016-12-14T09:54:22Z</time>
      </trkpt>
      <trkpt lat="49.19726" lon="1.7782">
        <ele>87</ele>
        <time>2016-12-14T09:54:28Z</time>
      </trkpt>
      <trkpt lat="49.19722" lon="1.77823">
        <ele>87</ele>
        <time>2016-12-14T09:54:33Z</time>
      </trkpt>
      <trkpt lat="49.19712" lon="1.77814">
        <ele>86</ele>
        <time>2016-12-14T09:55:03Z</time>
      </trkpt>
      <trkpt lat="49.19699" lon="1.77817">
        <ele>85</ele>
        <time>2016-12-14T09:55:14Z</time>
      </trkpt>
      <trkpt lat="49.19685" lon="1.77812">
        <ele>85</ele>
        <time>2016-12-14T09:55:23Z</time>
      </trkpt>
      <trkpt lat="49.19681" lon="1.77805">
        <ele>86</ele>
        <time>2016-12-14T09:55:25Z</time>
      </trkpt>
      <trkpt lat="49.19672" lon="1.77812">
        <ele>84</ele>
        <time>2016-12-14T09:55:35Z</time>
      </trkpt>
      <trkpt lat="49.19661" lon="1.77811">
        <ele>87</ele>
        <time>2016-12-14T09:55:44Z</time>
      </trkpt>
      <trkpt lat="49.19651" lon="1.77803">
        <ele>90</ele>
        <time>2016-12-14T09:55:51Z</time>
      </trkpt>
      <trkpt lat="49.19646" lon="1.77805">
        <ele>93</ele>
        <time>2016-12-14T09:55:58Z</time>
      </trkpt>
      <trkpt lat="49.19642" lon="1.77804">
        <ele>93</ele>
        <time>2016-12-14T09:56:01Z</time>
      </trkpt>
      <trkpt lat="49.19638" lon="1.77809">
        <ele>94</ele>
        <time>2016-12-14T09:56:08Z</time>
      </trkpt>
      <trkpt lat="49.19628" lon="1.77807">
        <ele>92</ele>
        <time>2016-12-14T09:56:17Z</time>
      </trkpt>
      <trkpt lat="49.19625" lon="1.77813">
        <ele>89</ele>
        <time>2016-12-14T09:56:22Z</time>
      </trkpt>
      <trkpt lat="49.19621" lon="1.77814">
        <ele>86</ele>
        <time>2016-12-14T09:56:25Z</time>
      </trkpt>
      <trkpt lat="49.19617" lon="1.77808">
        <ele>86</ele>
        <time>2016-12-14T09:56:31Z</time>
      </trkpt>
      <trkpt lat="49.19612" lon="1.77812">
        <ele>88</ele>
        <time>2016-12-14T09:56:36Z</time>
      </trkpt>
      <trkpt lat="49.19608" lon="1.77816">
        <ele>88</ele>
        <time>2016-12-14T09:56:40Z</time>
      </trkpt>
      <trkpt lat="49.196" lon="1.77817">
        <ele>88</ele>
        <time>2016-12-14T09:56:48Z</time>
      </trkpt>
      <trkpt lat="49.19586" lon="1.7781">
        <ele>90</ele>
        <time>2016-12-14T09:57:04Z</time>
      </trkpt>
      <trkpt lat="49.19586" lon="1.77792">
        <ele>90</ele>
        <time>2016-12-14T09:57:13Z</time>
      </trkpt>
      <trkpt lat="49.19583" lon="1.77787">
        <ele>89</ele>
        <time>2016-12-14T09:57:18Z</time>
      </trkpt>
      <trkpt lat="49.19574" lon="1.77783">
        <ele>89</ele>
        <time>2016-12-14T09:57:22Z</time>
      </trkpt>
      <trkpt lat="49.19574" lon="1.77777">
        <ele>87</ele>
        <time>2016-12-14T09:57:29Z</time>
      </trkpt>
      <trkpt lat="49.19572" lon="1.77772">
        <ele>86</ele>
        <time>2016-12-14T09:57:34Z</time>
      </trkpt>
      <trkpt lat="49.19574" lon="1.77765">
        <ele>85</ele>
        <time>2016-12-14T09:57:39Z</time>
      </trkpt>
      <trkpt lat="49.1957" lon="1.77739">
        <ele>84</ele>
        <time>2016-12-14T09:57:58Z</time>
      </trkpt>
      <trkpt lat="49.19569" lon="1.77725">
        <ele>85</ele>
        <time>2016-12-14T09:58:08Z</time>
      </trkpt>
      <trkpt lat="49.19568" lon="1.77719">
        <ele>87</ele>
        <time>2016-12-14T09:58:11Z</time>
      </trkpt>
      <trkpt lat="49.19569" lon="1.77714">
        <ele>88</ele>
        <time>2016-12-14T09:58:13Z</time>
      </trkpt>
      <trkpt lat="49.19563" lon="1.77663">
        <ele>90</ele>
        <time>2016-12-14T09:58:43Z</time>
      </trkpt>
      <trkpt lat="49.19564" lon="1.77654">
        <ele>88</ele>
        <time>2016-12-14T09:58:48Z</time>
      </trkpt>
      <trkpt lat="49.19564" lon="1.7765">
        <ele>88</ele>
        <time>2016-12-14T09:58:50Z</time>
      </trkpt>
      <trkpt lat="49.19565" lon="1.77644">
        <ele>88</ele>
        <time>2016-12-14T09:58:55Z</time>
      </trkpt>
      <trkpt lat="49.19566" lon="1.77636">
        <ele>86</ele>
        <time>2016-12-14T09:58:59Z</time>
      </trkpt>
      <trkpt lat="49.19562" lon="1.77623">
        <ele>84</ele>
        <time>2016-12-14T09:59:04Z</time>
      </trkpt>
      <trkpt lat="49.19563" lon="1.77613">
        <ele>85</ele>
        <time>2016-12-14T09:59:09Z</time>
      </trkpt>
      <trkpt lat="49.19563" lon="1.77591">
        <ele>88</ele>
        <time>2016-12-14T09:59:21Z</time>
      </trkpt>
      <trkpt lat="49.1957" lon="1.77585">
        <ele>91</ele>
        <time>2016-12-14T09:59:27Z</time>
      </trkpt>
      <trkpt lat="49.19563" lon="1.77565">
        <ele>93</ele>
        <time>2016-12-14T09:59:38Z</time>
      </trkpt>
      <trkpt lat="49.19564" lon="1.77556">
        <ele>95</ele>
        <time>2016-12-14T09:59:43Z</time>
      </trkpt>
      <trkpt lat="49.19563" lon="1.77548">
        <ele>98</ele>
        <time>2016-12-14T09:59:46Z</time>
      </trkpt>
      <trkpt lat="49.19561" lon="1.77544">
        <ele>98</ele>
        <time>2016-12-14T09:59:48Z</time>
      </trkpt>
      <trkpt lat="49.19561" lon="1.77525">
        <ele>101</ele>
        <time>2016-12-14T10:00:00Z</time>
      </trkpt>
      <trkpt lat="49.19559" lon="1.77521">
        <ele>101</ele>
        <time>2016-12-14T10:00:02Z</time>
      </trkpt>
      <trkpt lat="49.1955" lon="1.77476">
        <ele>100</ele>
        <time>2016-12-14T10:00:32Z</time>
      </trkpt>
      <trkpt lat="49.19544" lon="1.77434">
        <ele>101</ele>
        <time>2016-12-14T10:00:57Z</time>
      </trkpt>
      <trkpt lat="49.19546" lon="1.77414">
        <ele>102</ele>
        <time>2016-12-14T10:01:11Z</time>
      </trkpt>
      <trkpt lat="49.19544" lon="1.7741">
        <ele>102</ele>
        <time>2016-12-14T10:01:13Z</time>
      </trkpt>
      <trkpt lat="49.19544" lon="1.77406">
        <ele>102</ele>
        <time>2016-12-14T10:01:16Z</time>
      </trkpt>
      <trkpt lat="49.19546" lon="1.77401">
        <ele>102</ele>
        <time>2016-12-14T10:01:20Z</time>
      </trkpt>
      <trkpt lat="49.19543" lon="1.77386">
        <ele>101</ele>
        <time>2016-12-14T10:01:30Z</time>
      </trkpt>
      <trkpt lat="49.19542" lon="1.7738">
        <ele>101</ele>
        <time>2016-12-14T10:01:34Z</time>
      </trkpt>
      <trkpt lat="49.19543" lon="1.77375">
        <ele>101</ele>
        <time>2016-12-14T10:01:37Z</time>
      </trkpt>
      <trkpt lat="49.19541" lon="1.77366">
        <ele>102</ele>
        <time>2016-12-14T10:01:43Z</time>
      </trkpt>
      <trkpt lat="49.19538" lon="1.77339">
        <ele>106</ele>
        <time>2016-12-14T10:02:02Z</time>
      </trkpt>
      <trkpt lat="49.19533" lon="1.77331">
        <ele>105</ele>
        <time>2016-12-14T10:02:07Z</time>
      </trkpt>
      <trkpt lat="49.19533" lon="1.77326">
        <ele>104</ele>
        <time>2016-12-14T10:02:11Z</time>
      </trkpt>
      <trkpt lat="49.19532" lon="1.77308">
        <ele>103</ele>
        <time>2016-12-14T10:02:22Z</time>
      </trkpt>
      <trkpt lat="49.19533" lon="1.77299">
        <ele>105</ele>
        <time>2016-12-14T10:02:35Z</time>
      </trkpt>
      <trkpt lat="49.1953" lon="1.77297">
        <ele>105</ele>
        <time>2016-12-14T10:02:37Z</time>
      </trkpt>
      <trkpt lat="49.19529" lon="1.77292">
        <ele>107</ele>
        <time>2016-12-14T10:02:41Z</time>
      </trkpt>
      <trkpt lat="49.19531" lon="1.77285">
        <ele>105</ele>
        <time>2016-12-14T10:02:46Z</time>
      </trkpt>
      <trkpt lat="49.19526" lon="1.77252">
        <ele>105</ele>
        <time>2016-12-14T10:03:02Z</time>
      </trkpt>
      <trkpt lat="49.19523" lon="1.77244">
        <ele>108</ele>
        <time>2016-12-14T10:03:08Z</time>
      </trkpt>
      <trkpt lat="49.19524" lon="1.77234">
        <ele>109</ele>
        <time>2016-12-14T10:03:12Z</time>
      </trkpt>
      <trkpt lat="49.1952" lon="1.77229">
        <ele>107</ele>
        <time>2016-12-14T10:03:16Z</time>
      </trkpt>
      <trkpt lat="49.19523" lon="1.77209">
        <ele>106</ele>
        <time>2016-12-14T10:03:34Z</time>
      </trkpt>
      <trkpt lat="49.1952" lon="1.77203">
        <ele>107</ele>
        <time>2016-12-14T10:03:39Z</time>
      </trkpt>
      <trkpt lat="49.19511" lon="1.77192">
        <ele>109</ele>
        <time>2016-12-14T10:03:44Z</time>
      </trkpt>
      <trkpt lat="49.1951" lon="1.77195">
        <ele>107</ele>
        <time>2016-12-14T10:03:52Z</time>
      </trkpt>
      <trkpt lat="49.19506" lon="1.77187">
        <ele>106</ele>
        <time>2016-12-14T10:03:55Z</time>
      </trkpt>
      <trkpt lat="49.19484" lon="1.77152">
        <ele>106</ele>
        <time>2016-12-14T10:04:19Z</time>
      </trkpt>
      <trkpt lat="49.19482" lon="1.77155">
        <ele>107</ele>
        <time>2016-12-14T10:04:22Z</time>
      </trkpt>
      <trkpt lat="49.19469" lon="1.77141">
        <ele>114</ele>
        <time>2016-12-14T10:04:37Z</time>
      </trkpt>
      <trkpt lat="49.19462" lon="1.77122">
        <ele>116</ele>
        <time>2016-12-14T10:04:52Z</time>
      </trkpt>
      <trkpt lat="49.19459" lon="1.77113">
        <ele>118</ele>
        <time>2016-12-14T10:04:57Z</time>
      </trkpt>
      <trkpt lat="49.19459" lon="1.77109">
        <ele>118</ele>
        <time>2016-12-14T10:04:59Z</time>
      </trkpt>
      <trkpt lat="49.19456" lon="1.77101">
        <ele>117</ele>
        <time>2016-12-14T10:05:02Z</time>
      </trkpt>
      <trkpt lat="49.19457" lon="1.77097">
        <ele>117</ele>
        <time>2016-12-14T10:05:06Z</time>
      </trkpt>
      <trkpt lat="49.19454" lon="1.77093">
        <ele>116</ele>
        <time>2016-12-14T10:05:10Z</time>
      </trkpt>
      <trkpt lat="49.19453" lon="1.77086">
        <ele>115</ele>
        <time>2016-12-14T10:05:14Z</time>
      </trkpt>
      <trkpt lat="49.19438" lon="1.77031">
        <ele>114</ele>
        <time>2016-12-14T10:05:45Z</time>
      </trkpt>
      <trkpt lat="49.19424" lon="1.76979">
        <ele>113</ele>
        <time>2016-12-14T10:06:19Z</time>
      </trkpt>
      <trkpt lat="49.19412" lon="1.76943">
        <ele>114</ele>
        <time>2016-12-14T10:06:35Z</time>
      </trkpt>
      <trkpt lat="49.19409" lon="1.76939">
        <ele>117</ele>
        <time>2016-12-14T10:06:41Z</time>
      </trkpt>
      <trkpt lat="49.19409" lon="1.76934">
        <ele>117</ele>
        <time>2016-12-14T10:06:44Z</time>
      </trkpt>
      <trkpt lat="49.194" lon="1.7691">
        <ele>115</ele>
        <time>2016-12-14T10:07:02Z</time>
      </trkpt>
      <trkpt lat="49.19402" lon="1.76897">
        <ele>113</ele>
        <time>2016-12-14T10:07:12Z</time>
      </trkpt>
      <trkpt lat="49.19391" lon="1.76881">
        <ele>114</ele>
        <time>2016-12-14T10:07:23Z</time>
      </trkpt>
      <trkpt lat="49.1939" lon="1.76875">
        <ele>115</ele>
        <time>2016-12-14T10:07:27Z</time>
      </trkpt>
      <trkpt lat="49.19387" lon="1.76869">
        <ele>114</ele>
        <time>2016-12-14T10:07:35Z</time>
      </trkpt>
      <trkpt lat="49.19385" lon="1.76861">
        <ele>113</ele>
        <time>2016-12-14T10:07:42Z</time>
      </trkpt>
      <trkpt lat="49.19365" lon="1.76812">
        <ele>109</ele>
        <time>2016-12-14T10:08:05Z</time>
      </trkpt>
      <trkpt lat="49.19361" lon="1.76802">
        <ele>110</ele>
        <time>2016-12-14T10:08:11Z</time>
      </trkpt>
      <trkpt lat="49.19357" lon="1.768">
        <ele>109</ele>
        <time>2016-12-14T10:08:16Z</time>
      </trkpt>
      <trkpt lat="49.19351" lon="1.76783">
        <ele>110</ele>
        <time>2016-12-14T10:08:28Z</time>
      </trkpt>
      <trkpt lat="49.19328" lon="1.76738">
        <ele>106</ele>
        <time>2016-12-14T10:08:59Z</time>
      </trkpt>
      <trkpt lat="49.19325" lon="1.76733">
        <ele>106</ele>
        <time>2016-12-14T10:09:03Z</time>
      </trkpt>
      <trkpt lat="49.19324" lon="1.7674">
        <ele>107</ele>
        <time>2016-12-14T10:09:05Z</time>
      </trkpt>
      <trkpt lat="49.19322" lon="1.76735">
        <ele>107</ele>
        <time>2016-12-14T10:09:08Z</time>
      </trkpt>
      <trkpt lat="49.19317" lon="1.76716">
        <ele>107</ele>
        <time>2016-12-14T10:09:18Z</time>
      </trkpt>
      <trkpt lat="49.19313" lon="1.76693">
        <ele>108</ele>
        <time>2016-12-14T10:09:32Z</time>
      </trkpt>
      <trkpt lat="49.19311" lon="1.7669">
        <ele>108</ele>
        <time>2016-12-14T10:09:33Z</time>
      </trkpt>
      <trkpt lat="49.19302" lon="1.76662">
        <ele>110</ele>
        <time>2016-12-14T10:09:46Z</time>
      </trkpt>
      <trkpt lat="49.19298" lon="1.76644">
        <ele>108</ele>
        <time>2016-12-14T10:09:58Z</time>
      </trkpt>
      <trkpt lat="49.19294" lon="1.76629">
        <ele>109</ele>
        <time>2016-12-14T10:10:07Z</time>
      </trkpt>
      <trkpt lat="49.19293" lon="1.76625">
        <ele>109</ele>
        <time>2016-12-14T10:10:11Z</time>
      </trkpt>
      <trkpt lat="49.19292" lon="1.76622">
        <ele>108</ele>
        <time>2016-12-14T10:10:13Z</time>
      </trkpt>
      <trkpt lat="49.19291" lon="1.76613">
        <ele>110</ele>
        <time>2016-12-14T10:10:18Z</time>
      </trkpt>
      <trkpt lat="49.19287" lon="1.76597">
        <ele>110</ele>
        <time>2016-12-14T10:10:26Z</time>
      </trkpt>
      <trkpt lat="49.19284" lon="1.76594">
        <ele>111</ele>
        <time>2016-12-14T10:10:29Z</time>
      </trkpt>
      <trkpt lat="49.19271" lon="1.76549">
        <ele>116</ele>
        <time>2016-12-14T10:11:00Z</time>
      </trkpt>
      <trkpt lat="49.19267" lon="1.76544">
        <ele>119</ele>
        <time>2016-12-14T10:11:04Z</time>
      </trkpt>
      <trkpt lat="49.19262" lon="1.76523">
        <ele>120</ele>
        <time>2016-12-14T10:11:15Z</time>
      </trkpt>
      <trkpt lat="49.19259" lon="1.76512">
        <ele>120</ele>
        <time>2016-12-14T10:11:20Z</time>
      </trkpt>
      <trkpt lat="49.19244" lon="1.7647">
        <ele>114</ele>
        <time>2016-12-14T10:11:51Z</time>
      </trkpt>
      <trkpt lat="49.1923" lon="1.76421">
        <ele>112</ele>
        <time>2016-12-14T10:12:22Z</time>
      </trkpt>
      <trkpt lat="49.19229" lon="1.76417">
        <ele>112</ele>
        <time>2016-12-14T10:12:24Z</time>
      </trkpt>
      <trkpt lat="49.19227" lon="1.76414">
        <ele>113</ele>
        <time>2016-12-14T10:12:26Z</time>
      </trkpt>
      <trkpt lat="49.19226" lon="1.76409">
        <ele>113</ele>
        <time>2016-12-14T10:12:29Z</time>
      </trkpt>
      <trkpt lat="49.19223" lon="1.76404">
        <ele>113</ele>
        <time>2016-12-14T10:12:34Z</time>
      </trkpt>
      <trkpt lat="49.19216" lon="1.76385">
        <ele>114</ele>
        <time>2016-12-14T10:12:50Z</time>
      </trkpt>
      <trkpt lat="49.19216" lon="1.76378">
        <ele>116</ele>
        <time>2016-12-14T10:12:53Z</time>
      </trkpt>
      <trkpt lat="49.19213" lon="1.7637">
        <ele>117</ele>
        <time>2016-12-14T10:12:56Z</time>
      </trkpt>
      <trkpt lat="49.1921" lon="1.76362">
        <ele>117</ele>
        <time>2016-12-14T10:13:04Z</time>
      </trkpt>
      <trkpt lat="49.19207" lon="1.76354">
        <ele>120</ele>
        <time>2016-12-14T10:13:10Z</time>
      </trkpt>
      <trkpt lat="49.192" lon="1.76346">
        <ele>119</ele>
        <time>2016-12-14T10:13:15Z</time>
      </trkpt>
      <trkpt lat="49.19193" lon="1.7632">
        <ele>118</ele>
        <time>2016-12-14T10:13:29Z</time>
      </trkpt>
      <trkpt lat="49.19184" lon="1.76282">
        <ele>116</ele>
        <time>2016-12-14T10:13:51Z</time>
      </trkpt>
      <trkpt lat="49.19183" lon="1.76274">
        <ele>115</ele>
        <time>2016-12-14T10:13:54Z</time>
      </trkpt>
      <trkpt lat="49.1918" lon="1.7627">
        <ele>114</ele>
        <time>2016-12-14T10:13:57Z</time>
      </trkpt>
      <trkpt lat="49.1918" lon="1.76261">
        <ele>116</ele>
        <time>2016-12-14T10:14:01Z</time>
      </trkpt>
      <trkpt lat="49.19177" lon="1.76258">
        <ele>117</ele>
        <time>2016-12-14T10:14:04Z</time>
      </trkpt>
      <trkpt lat="49.19169" lon="1.76241">
        <ele>114</ele>
        <time>2016-12-14T10:14:17Z</time>
      </trkpt>
      <trkpt lat="49.19169" lon="1.76232">
        <ele>115</ele>
        <time>2016-12-14T10:14:24Z</time>
      </trkpt>
      <trkpt lat="49.19165" lon="1.76224">
        <ele>116</ele>
        <time>2016-12-14T10:14:30Z</time>
      </trkpt>
      <trkpt lat="49.19166" lon="1.7622">
        <ele>113</ele>
        <time>2016-12-14T10:14:34Z</time>
      </trkpt>
      <trkpt lat="49.19164" lon="1.76216">
        <ele>113</ele>
        <time>2016-12-14T10:14:38Z</time>
      </trkpt>
      <trkpt lat="49.19161" lon="1.76214">
        <ele>114</ele>
        <time>2016-12-14T10:14:40Z</time>
      </trkpt>
      <trkpt lat="49.1916" lon="1.76203">
        <ele>116</ele>
        <time>2016-12-14T10:14:43Z</time>
      </trkpt>
      <trkpt lat="49.19161" lon="1.76198">
        <ele>117</ele>
        <time>2016-12-14T10:14:45Z</time>
      </trkpt>
      <trkpt lat="49.19154" lon="1.76187">
        <ele>118</ele>
        <time>2016-12-14T10:14:55Z</time>
      </trkpt>
      <trkpt lat="49.19153" lon="1.76177">
        <ele>117</ele>
        <time>2016-12-14T10:15:03Z</time>
      </trkpt>
      <trkpt lat="49.19149" lon="1.76168">
        <ele>118</ele>
        <time>2016-12-14T10:15:08Z</time>
      </trkpt>
      <trkpt lat="49.19147" lon="1.76159">
        <ele>118</ele>
        <time>2016-12-14T10:15:13Z</time>
      </trkpt>
      <trkpt lat="49.1914" lon="1.76144">
        <ele>119</ele>
        <time>2016-12-14T10:15:23Z</time>
      </trkpt>
      <trkpt lat="49.1914" lon="1.76134">
        <ele>118</ele>
        <time>2016-12-14T10:15:31Z</time>
      </trkpt>
      <trkpt lat="49.19141" lon="1.7613">
        <ele>114</ele>
        <time>2016-12-14T10:15:33Z</time>
      </trkpt>
      <trkpt lat="49.19145" lon="1.76131">
        <ele>113</ele>
        <time>2016-12-14T10:15:36Z</time>
      </trkpt>
      <trkpt lat="49.1915" lon="1.76131">
        <ele>112</ele>
        <time>2016-12-14T10:15:43Z</time>
      </trkpt>
      <trkpt lat="49.19155" lon="1.76131">
        <ele>113</ele>
        <time>2016-12-14T10:15:47Z</time>
      </trkpt>
      <trkpt lat="49.19162" lon="1.76133">
        <ele>114</ele>
        <time>2016-12-14T10:15:52Z</time>
      </trkpt>
      <trkpt lat="49.19165" lon="1.76126">
        <ele>115</ele>
        <time>2016-12-14T10:15:56Z</time>
      </trkpt>
      <trkpt lat="49.19168" lon="1.76126">
        <ele>117</ele>
        <time>2016-12-14T10:16:02Z</time>
      </trkpt>
      <trkpt lat="49.19172" lon="1.76129">
        <ele>118</ele>
        <time>2016-12-14T10:16:05Z</time>
      </trkpt>
      <trkpt lat="49.19185" lon="1.76128">
        <ele>115</ele>
        <time>2016-12-14T10:16:18Z</time>
      </trkpt>
      <trkpt lat="49.19191" lon="1.76134">
        <ele>115</ele>
        <time>2016-12-14T10:16:21Z</time>
      </trkpt>
      <trkpt lat="49.19226" lon="1.76139">
        <ele>115</ele>
        <time>2016-12-14T10:16:53Z</time>
      </trkpt>
      <trkpt lat="49.1926" lon="1.76146">
        <ele>109</ele>
        <time>2016-12-14T10:17:26Z</time>
      </trkpt>
      <trkpt lat="49.19298" lon="1.76158">
        <ele>110</ele>
        <time>2016-12-14T10:17:56Z</time>
      </trkpt>
      <trkpt lat="49.19311" lon="1.76157">
        <ele>109</ele>
        <time>2016-12-14T10:18:07Z</time>
      </trkpt>
      <trkpt lat="49.19311" lon="1.76147">
        <ele>108</ele>
        <time>2016-12-14T10:18:14Z</time>
      </trkpt>
      <trkpt lat="49.1931" lon="1.76132">
        <ele>106</ele>
        <time>2016-12-14T10:18:23Z</time>
      </trkpt>
      <trkpt lat="49.19312" lon="1.76126">
        <ele>106</ele>
        <time>2016-12-14T10:18:29Z</time>
      </trkpt>
      <trkpt lat="49.19313" lon="1.76115">
        <ele>106</ele>
        <time>2016-12-14T10:18:34Z</time>
      </trkpt>
      <trkpt lat="49.19312" lon="1.76103">
        <ele>105</ele>
        <time>2016-12-14T10:18:39Z</time>
      </trkpt>
      <trkpt lat="49.19314" lon="1.76097">
        <ele>106</ele>
        <time>2016-12-14T10:18:42Z</time>
      </trkpt>
      <trkpt lat="49.19315" lon="1.76089">
        <ele>109</ele>
        <time>2016-12-14T10:18:47Z</time>
      </trkpt>
      <trkpt lat="49.19318" lon="1.76074">
        <ele>99</ele>
        <time>2016-12-14T10:19:12Z</time>
      </trkpt>
      <trkpt lat="49.1932" lon="1.76067">
        <ele>98</ele>
        <time>2016-12-14T10:19:15Z</time>
      </trkpt>
      <trkpt lat="49.19316" lon="1.76058">
        <ele>98</ele>
        <time>2016-12-14T10:19:23Z</time>
      </trkpt>
      <trkpt lat="49.19314" lon="1.76048">
        <ele>95</ele>
        <time>2016-12-14T10:19:29Z</time>
      </trkpt>
      <trkpt lat="49.19309" lon="1.76029">
        <ele>95</ele>
        <time>2016-12-14T10:19:38Z</time>
      </trkpt>
      <trkpt lat="49.19303" lon="1.76026">
        <ele>93</ele>
        <time>2016-12-14T10:19:47Z</time>
      </trkpt>
      <trkpt lat="49.19289" lon="1.75997">
        <ele>94</ele>
        <time>2016-12-14T10:20:06Z</time>
      </trkpt>
      <trkpt lat="49.19284" lon="1.75977">
        <ele>94</ele>
        <time>2016-12-14T10:20:21Z</time>
      </trkpt>
      <trkpt lat="49.19279" lon="1.7597">
        <ele>93</ele>
        <time>2016-12-14T10:20:27Z</time>
      </trkpt>
      <trkpt lat="49.19278" lon="1.75962">
        <ele>91</ele>
        <time>2016-12-14T10:20:30Z</time>
      </trkpt>
      <trkpt lat="49.19275" lon="1.75956">
        <ele>91</ele>
        <time>2016-12-14T10:20:34Z</time>
      </trkpt>
      <trkpt lat="49.1927" lon="1.75942">
        <ele>89</ele>
        <time>2016-12-14T10:20:44Z</time>
      </trkpt>
      <trkpt lat="49.19261" lon="1.75913">
        <ele>89</ele>
        <time>2016-12-14T10:21:05Z</time>
      </trkpt>
      <trkpt lat="49.19259" lon="1.75903">
        <ele>92</ele>
        <time>2016-12-14T10:21:13Z</time>
      </trkpt>
      <trkpt lat="49.19235" lon="1.75861">
        <ele>89</ele>
        <time>2016-12-14T10:21:42Z</time>
      </trkpt>
      <trkpt lat="49.19234" lon="1.75866">
        <ele>88</ele>
        <time>2016-12-14T10:21:44Z</time>
      </trkpt>
      <trkpt lat="49.19228" lon="1.75857">
        <ele>90</ele>
        <time>2016-12-14T10:21:51Z</time>
      </trkpt>
      <trkpt lat="49.19225" lon="1.75852">
        <ele>91</ele>
        <time>2016-12-14T10:21:53Z</time>
      </trkpt>
      <trkpt lat="49.19221" lon="1.75848">
        <ele>91</ele>
        <time>2016-12-14T10:21:57Z</time>
      </trkpt>
      <trkpt lat="49.19219" lon="1.75845">
        <ele>88</ele>
        <time>2016-12-14T10:22:05Z</time>
      </trkpt>
      <trkpt lat="49.19218" lon="1.75835">
        <ele>89</ele>
        <time>2016-12-14T10:22:10Z</time>
      </trkpt>
      <trkpt lat="49.19219" lon="1.7583">
        <ele>89</ele>
        <time>2016-12-14T10:22:12Z</time>
      </trkpt>
      <trkpt lat="49.19223" lon="1.75823">
        <ele>87</ele>
        <time>2016-12-14T10:22:17Z</time>
      </trkpt>
      <trkpt lat="49.1923" lon="1.75806">
        <ele>84</ele>
        <time>2016-12-14T10:22:28Z</time>
      </trkpt>
      <trkpt lat="49.19233" lon="1.75806">
        <ele>83</ele>
        <time>2016-12-14T10:22:30Z</time>
      </trkpt>
      <trkpt lat="49.19239" lon="1.75794">
        <ele>85</ele>
        <time>2016-12-14T10:22:40Z</time>
      </trkpt>
      <trkpt lat="49.19239" lon="1.75789">
        <ele>85</ele>
        <time>2016-12-14T10:22:43Z</time>
      </trkpt>
      <trkpt lat="49.1924" lon="1.75784">
        <ele>86</ele>
        <time>2016-12-14T10:22:45Z</time>
      </trkpt>
      <trkpt lat="49.19253" lon="1.75741">
        <ele>85</ele>
        <time>2016-12-14T10:23:18Z</time>
      </trkpt>
      <trkpt lat="49.19258" lon="1.7574">
        <ele>88</ele>
        <time>2016-12-14T10:23:25Z</time>
      </trkpt>
      <trkpt lat="49.19265" lon="1.7572">
        <ele>85</ele>
        <time>2016-12-14T10:23:36Z</time>
      </trkpt>
      <trkpt lat="49.19264" lon="1.75712">
        <ele>85</ele>
        <time>2016-12-14T10:23:40Z</time>
      </trkpt>
      <trkpt lat="49.19267" lon="1.75708">
        <ele>86</ele>
        <time>2016-12-14T10:23:42Z</time>
      </trkpt>
      <trkpt lat="49.1927" lon="1.75703">
        <ele>89</ele>
        <time>2016-12-14T10:23:44Z</time>
      </trkpt>
      <trkpt lat="49.19283" lon="1.75675">
        <ele>88</ele>
        <time>2016-12-14T10:24:02Z</time>
      </trkpt>
      <trkpt lat="49.19293" lon="1.75659">
        <ele>88</ele>
        <time>2016-12-14T10:24:15Z</time>
      </trkpt>
      <trkpt lat="49.19292" lon="1.75649">
        <ele>89</ele>
        <time>2016-12-14T10:24:21Z</time>
      </trkpt>
      <trkpt lat="49.19303" lon="1.75633">
        <ele>87</ele>
        <time>2016-12-14T10:24:34Z</time>
      </trkpt>
      <trkpt lat="49.19316" lon="1.75619">
        <ele>90</ele>
        <time>2016-12-14T10:24:44Z</time>
      </trkpt>
      <trkpt lat="49.19322" lon="1.75621">
        <ele>92</ele>
        <time>2016-12-14T10:24:48Z</time>
      </trkpt>
      <trkpt lat="49.19343" lon="1.75599">
        <ele>95</ele>
        <time>2016-12-14T10:25:11Z</time>
      </trkpt>
      <trkpt lat="49.19347" lon="1.75594">
        <ele>94</ele>
        <time>2016-12-14T10:25:15Z</time>
      </trkpt>
      <trkpt lat="49.19351" lon="1.75579">
        <ele>92</ele>
        <time>2016-12-14T10:25:25Z</time>
      </trkpt>
      <trkpt lat="49.19352" lon="1.75563">
        <ele>91</ele>
        <time>2016-12-14T10:25:36Z</time>
      </trkpt>
      <trkpt lat="49.19358" lon="1.75552">
        <ele>91</ele>
        <time>2016-12-14T10:25:42Z</time>
      </trkpt>
      <trkpt lat="49.19365" lon="1.75529">
        <ele>90</ele>
        <time>2016-12-14T10:25:57Z</time>
      </trkpt>
      <trkpt lat="49.19365" lon="1.75519">
        <ele>89</ele>
        <time>2016-12-14T10:26:04Z</time>
      </trkpt>
      <trkpt lat="49.19369" lon="1.75511">
        <ele>90</ele>
        <time>2016-12-14T10:26:08Z</time>
      </trkpt>
      <trkpt lat="49.19369" lon="1.75502">
        <ele>90</ele>
        <time>2016-12-14T10:26:13Z</time>
      </trkpt>
      <trkpt lat="49.19366" lon="1.75497">
        <ele>88</ele>
        <time>2016-12-14T10:26:16Z</time>
      </trkpt>
      <trkpt lat="49.1937" lon="1.75489">
        <ele>89</ele>
        <time>2016-12-14T10:26:20Z</time>
      </trkpt>
      <trkpt lat="49.19375" lon="1.75486">
        <ele>91</ele>
        <time>2016-12-14T10:26:22Z</time>
      </trkpt>
      <trkpt lat="49.19377" lon="1.7548">
        <ele>92</ele>
        <time>2016-12-14T10:26:26Z</time>
      </trkpt>
      <trkpt lat="49.19375" lon="1.75472">
        <ele>92</ele>
        <time>2016-12-14T10:26:30Z</time>
      </trkpt>
      <trkpt lat="49.19395" lon="1.75447">
        <ele>94</ele>
        <time>2016-12-14T10:26:47Z</time>
      </trkpt>
      <trkpt lat="49.19399" lon="1.75441">
        <ele>95</ele>
        <time>2016-12-14T10:26:50Z</time>
      </trkpt>
      <trkpt lat="49.19398" lon="1.75432">
        <ele>94</ele>
        <time>2016-12-14T10:26:55Z</time>
      </trkpt>
      <trkpt lat="49.19399" lon="1.75427">
        <ele>92</ele>
        <time>2016-12-14T10:27:00Z</time>
      </trkpt>
      <trkpt lat="49.19408" lon="1.7542">
        <ele>92</ele>
        <time>2016-12-14T10:27:07Z</time>
      </trkpt>
      <trkpt lat="49.19414" lon="1.7542">
        <ele>93</ele>
        <time>2016-12-14T10:27:10Z</time>
      </trkpt>
      <trkpt lat="49.19431" lon="1.75408">
        <ele>100</ele>
        <time>2016-12-14T10:27:29Z</time>
      </trkpt>
      <trkpt lat="49.19434" lon="1.7541">
        <ele>99</ele>
        <time>2016-12-14T10:27:32Z</time>
      </trkpt>
      <trkpt lat="49.19472" lon="1.75412">
        <ele>101</ele>
        <time>2016-12-14T10:28:02Z</time>
      </trkpt>
      <trkpt lat="49.19476" lon="1.75414">
        <ele>102</ele>
        <time>2016-12-14T10:28:05Z</time>
      </trkpt>
      <trkpt lat="49.19483" lon="1.75419">
        <ele>104</ele>
        <time>2016-12-14T10:28:11Z</time>
      </trkpt>
      <trkpt lat="49.19488" lon="1.75416">
        <ele>105</ele>
        <time>2016-12-14T10:28:16Z</time>
      </trkpt>
      <trkpt lat="49.19492" lon="1.75405">
        <ele>105</ele>
        <time>2016-12-14T10:28:20Z</time>
      </trkpt>
      <trkpt lat="49.19496" lon="1.75407">
        <ele>101</ele>
        <time>2016-12-14T10:28:26Z</time>
      </trkpt>
      <trkpt lat="49.195" lon="1.75407">
        <ele>100</ele>
        <time>2016-12-14T10:28:30Z</time>
      </trkpt>
      <trkpt lat="49.19508" lon="1.75413">
        <ele>101</ele>
        <time>2016-12-14T10:28:41Z</time>
      </trkpt>
      <trkpt lat="49.19505" lon="1.7541">
        <ele>102</ele>
        <time>2016-12-14T10:28:47Z</time>
      </trkpt>
      <trkpt lat="49.19504" lon="1.75405">
        <ele>102</ele>
        <time>2016-12-14T10:28:50Z</time>
      </trkpt>
      <trkpt lat="49.19505" lon="1.75396">
        <ele>101</ele>
        <time>2016-12-14T10:28:55Z</time>
      </trkpt>
      <trkpt lat="49.19506" lon="1.75391">
        <ele>99</ele>
        <time>2016-12-14T10:28:59Z</time>
      </trkpt>
      <trkpt lat="49.19513" lon="1.75374">
        <ele>98</ele>
        <time>2016-12-14T10:29:13Z</time>
      </trkpt>
      <trkpt lat="49.19518" lon="1.75368">
        <ele>96</ele>
        <time>2016-12-14T10:29:18Z</time>
      </trkpt>
      <trkpt lat="49.19519" lon="1.75361">
        <ele>95</ele>
        <time>2016-12-14T10:29:22Z</time>
      </trkpt>
      <trkpt lat="49.19522" lon="1.75352">
        <ele>95</ele>
        <time>2016-12-14T10:29:26Z</time>
      </trkpt>
      <trkpt lat="49.19525" lon="1.75348">
        <ele>96</ele>
        <time>2016-12-14T10:29:30Z</time>
      </trkpt>
      <trkpt lat="49.19526" lon="1.75341">
        <ele>96</ele>
        <time>2016-12-14T10:29:37Z</time>
      </trkpt>
      <trkpt lat="49.1953" lon="1.75339">
        <ele>95</ele>
        <time>2016-12-14T10:29:40Z</time>
      </trkpt>
      <trkpt lat="49.19532" lon="1.75335">
        <ele>94</ele>
        <time>2016-12-14T10:29:44Z</time>
      </trkpt>
      <trkpt lat="49.19531" lon="1.7533">
        <ele>93</ele>
        <time>2016-12-14T10:29:46Z</time>
      </trkpt>
      <trkpt lat="49.19533" lon="1.75323">
        <ele>94</ele>
        <time>2016-12-14T10:29:49Z</time>
      </trkpt>
      <trkpt lat="49.19538" lon="1.7532">
        <ele>99</ele>
        <time>2016-12-14T10:29:52Z</time>
      </trkpt>
      <trkpt lat="49.19537" lon="1.75315">
        <ele>100</ele>
        <time>2016-12-14T10:29:59Z</time>
      </trkpt>
      <trkpt lat="49.19541" lon="1.75307">
        <ele>98</ele>
        <time>2016-12-14T10:30:05Z</time>
      </trkpt>
      <trkpt lat="49.19544" lon="1.753">
        <ele>96</ele>
        <time>2016-12-14T10:30:08Z</time>
      </trkpt>
      <trkpt lat="49.19553" lon="1.75299">
        <ele>97</ele>
        <time>2016-12-14T10:30:13Z</time>
      </trkpt>
      <trkpt lat="49.19557" lon="1.75296">
        <ele>98</ele>
        <time>2016-12-14T10:30:16Z</time>
      </trkpt>
      <trkpt lat="49.19556" lon="1.7529">
        <ele>99</ele>
        <time>2016-12-14T10:30:18Z</time>
      </trkpt>
      <trkpt lat="49.19563" lon="1.75278">
        <ele>100</ele>
        <time>2016-12-14T10:30:28Z</time>
      </trkpt>
      <trkpt lat="49.19564" lon="1.75273">
        <ele>100</ele>
        <time>2016-12-14T10:30:31Z</time>
      </trkpt>
      <trkpt lat="49.19565" lon="1.75268">
        <ele>102</ele>
        <time>2016-12-14T10:30:34Z</time>
      </trkpt>
      <trkpt lat="49.19564" lon="1.75263">
        <ele>102</ele>
        <time>2016-12-14T10:30:36Z</time>
      </trkpt>
      <trkpt lat="49.19573" lon="1.7525">
        <ele>103</ele>
        <time>2016-12-14T10:30:46Z</time>
      </trkpt>
      <trkpt lat="49.19582" lon="1.75233">
        <ele>104</ele>
        <time>2016-12-14T10:31:08Z</time>
      </trkpt>
      <trkpt lat="49.19586" lon="1.7523">
        <ele>104</ele>
        <time>2016-12-14T10:31:10Z</time>
      </trkpt>
      <trkpt lat="49.19587" lon="1.75223">
        <ele>103</ele>
        <time>2016-12-14T10:31:15Z</time>
      </trkpt>
      <trkpt lat="49.19593" lon="1.75219">
        <ele>104</ele>
        <time>2016-12-14T10:31:18Z</time>
      </trkpt>
      <trkpt lat="49.19602" lon="1.75204">
        <ele>104</ele>
        <time>2016-12-14T10:31:29Z</time>
      </trkpt>
      <trkpt lat="49.19615" lon="1.75186">
        <ele>108</ele>
        <time>2016-12-14T10:31:44Z</time>
      </trkpt>
      <trkpt lat="49.19624" lon="1.75178">
        <ele>109</ele>
        <time>2016-12-14T10:31:50Z</time>
      </trkpt>
      <trkpt lat="49.19627" lon="1.75173">
        <ele>106</ele>
        <time>2016-12-14T10:31:55Z</time>
      </trkpt>
      <trkpt lat="49.19628" lon="1.75167">
        <ele>104</ele>
        <time>2016-12-14T10:32:00Z</time>
      </trkpt>
      <trkpt lat="49.19632" lon="1.75164">
        <ele>104</ele>
        <time>2016-12-14T10:32:02Z</time>
      </trkpt>
      <trkpt lat="49.19634" lon="1.75159">
        <ele>105</ele>
        <time>2016-12-14T10:32:07Z</time>
      </trkpt>
      <trkpt lat="49.19664" lon="1.75117">
        <ele>109</ele>
        <time>2016-12-14T10:32:40Z</time>
      </trkpt>
      <trkpt lat="49.19672" lon="1.75105">
        <ele>108</ele>
        <time>2016-12-14T10:32:53Z</time>
      </trkpt>
      <trkpt lat="49.19673" lon="1.75099">
        <ele>109</ele>
        <time>2016-12-14T10:32:56Z</time>
      </trkpt>
      <trkpt lat="49.19675" lon="1.75094">
        <ele>109</ele>
        <time>2016-12-14T10:32:58Z</time>
      </trkpt>
      <trkpt lat="49.19671" lon="1.7509">
        <ele>109</ele>
        <time>2016-12-14T10:33:03Z</time>
      </trkpt>
      <trkpt lat="49.19668" lon="1.75081">
        <ele>109</ele>
        <time>2016-12-14T10:33:06Z</time>
      </trkpt>
      <trkpt lat="49.19666" lon="1.75086">
        <ele>109</ele>
        <time>2016-12-14T10:33:10Z</time>
      </trkpt>
      <trkpt lat="49.19663" lon="1.75087">
        <ele>109</ele>
        <time>2016-12-14T10:33:15Z</time>
      </trkpt>
      <trkpt lat="49.19658" lon="1.75076">
        <ele>109</ele>
        <time>2016-12-14T10:33:19Z</time>
      </trkpt>
      <trkpt lat="49.19653" lon="1.75078">
        <ele>108</ele>
        <time>2016-12-14T10:33:27Z</time>
      </trkpt>
      <trkpt lat="49.19648" lon="1.75071">
        <ele>108</ele>
        <time>2016-12-14T10:33:33Z</time>
      </trkpt>
      <trkpt lat="49.19645" lon="1.75072">
        <ele>109</ele>
        <time>2016-12-14T10:33:35Z</time>
      </trkpt>
      <trkpt lat="49.19643" lon="1.75067">
        <ele>110</ele>
        <time>2016-12-14T10:33:37Z</time>
      </trkpt>
      <trkpt lat="49.19639" lon="1.75068">
        <ele>110</ele>
        <time>2016-12-14T10:33:41Z</time>
      </trkpt>
      <trkpt lat="49.19636" lon="1.75063">
        <ele>109</ele>
        <time>2016-12-14T10:33:48Z</time>
      </trkpt>
      <trkpt lat="49.19618" lon="1.75038">
        <ele>109</ele>
        <time>2016-12-14T10:34:03Z</time>
      </trkpt>
      <trkpt lat="49.19612" lon="1.75028">
        <ele>110</ele>
        <time>2016-12-14T10:34:09Z</time>
      </trkpt>
      <trkpt lat="49.19599" lon="1.75021">
        <ele>109</ele>
        <time>2016-12-14T10:34:25Z</time>
      </trkpt>
      <trkpt lat="49.19596" lon="1.75011">
        <ele>112</ele>
        <time>2016-12-14T10:34:27Z</time>
      </trkpt>
      <trkpt lat="49.19574" lon="1.75">
        <ele>115</ele>
        <time>2016-12-14T10:34:48Z</time>
      </trkpt>
      <trkpt lat="49.19571" lon="1.74995">
        <ele>116</ele>
        <time>2016-12-14T10:34:51Z</time>
      </trkpt>
      <trkpt lat="49.19565" lon="1.74994">
        <ele>117</ele>
        <time>2016-12-14T10:34:58Z</time>
      </trkpt>
      <trkpt lat="49.19557" lon="1.74984">
        <ele>115</ele>
        <time>2016-12-14T10:35:05Z</time>
      </trkpt>
      <trkpt lat="49.19553" lon="1.74974">
        <ele>116</ele>
        <time>2016-12-14T10:35:09Z</time>
      </trkpt>
      <trkpt lat="49.1955" lon="1.74972">
        <ele>116</ele>
        <time>2016-12-14T10:35:12Z</time>
      </trkpt>
      <trkpt lat="49.19548" lon="1.74968">
        <ele>117</ele>
        <time>2016-12-14T10:35:14Z</time>
      </trkpt>
      <trkpt lat="49.19536" lon="1.74959">
        <ele>120</ele>
        <time>2016-12-14T10:35:26Z</time>
      </trkpt>
      <trkpt lat="49.19534" lon="1.74954">
        <ele>120</ele>
        <time>2016-12-14T10:35:30Z</time>
      </trkpt>
      <trkpt lat="49.1953" lon="1.74953">
        <ele>118</ele>
        <time>2016-12-14T10:35:35Z</time>
      </trkpt>
      <trkpt lat="49.19517" lon="1.74938">
        <ele>119</ele>
        <time>2016-12-14T10:35:47Z</time>
      </trkpt>
      <trkpt lat="49.19514" lon="1.74938">
        <ele>118</ele>
        <time>2016-12-14T10:35:52Z</time>
      </trkpt>
      <trkpt lat="49.19513" lon="1.74934">
        <ele>117</ele>
        <time>2016-12-14T10:35:54Z</time>
      </trkpt>
      <trkpt lat="49.19495" lon="1.74916">
        <ele>125</ele>
        <time>2016-12-14T10:36:11Z</time>
      </trkpt>
      <trkpt lat="49.19494" lon="1.74912">
        <ele>126</ele>
        <time>2016-12-14T10:36:13Z</time>
      </trkpt>
      <trkpt lat="49.1948" lon="1.74904">
        <ele>129</ele>
        <time>2016-12-14T10:36:29Z</time>
      </trkpt>
      <trkpt lat="49.19467" lon="1.74888">
        <ele>130</ele>
        <time>2016-12-14T10:36:39Z</time>
      </trkpt>
      <trkpt lat="49.19465" lon="1.74888">
        <ele>130</ele>
        <time>2016-12-14T10:36:42Z</time>
      </trkpt>
      <trkpt lat="49.19459" lon="1.74881">
        <ele>130</ele>
        <time>2016-12-14T10:36:48Z</time>
      </trkpt>
      <trkpt lat="49.19451" lon="1.74879">
        <ele>127</ele>
        <time>2016-12-14T10:36:55Z</time>
      </trkpt>
      <trkpt lat="49.19448" lon="1.74873">
        <ele>128</ele>
        <time>2016-12-14T10:36:57Z</time>
      </trkpt>
      <trkpt lat="49.19442" lon="1.74868">
        <ele>129</ele>
        <time>2016-12-14T10:37:02Z</time>
      </trkpt>
      <trkpt lat="49.19441" lon="1.74863">
        <ele>127</ele>
        <time>2016-12-14T10:37:07Z</time>
      </trkpt>
      <trkpt lat="49.19428" lon="1.74845">
        <ele>124</ele>
        <time>2016-12-14T10:37:23Z</time>
      </trkpt>
      <trkpt lat="49.19424" lon="1.74845">
        <ele>124</ele>
        <time>2016-12-14T10:37:26Z</time>
      </trkpt>
      <trkpt lat="49.19423" lon="1.74839">
        <ele>125</ele>
        <time>2016-12-14T10:37:27Z</time>
      </trkpt>
      <trkpt lat="49.19419" lon="1.74839">
        <ele>126</ele>
        <time>2016-12-14T10:37:35Z</time>
      </trkpt>
      <trkpt lat="49.19416" lon="1.74836">
        <ele>127</ele>
        <time>2016-12-14T10:37:38Z</time>
      </trkpt>
      <trkpt lat="49.19413" lon="1.7483">
        <ele>128</ele>
        <time>2016-12-14T10:37:40Z</time>
      </trkpt>
      <trkpt lat="49.19409" lon="1.74818">
        <ele>130</ele>
        <time>2016-12-14T10:37:45Z</time>
      </trkpt>
      <trkpt lat="49.19406" lon="1.7482">
        <ele>128</ele>
        <time>2016-12-14T10:37:49Z</time>
      </trkpt>
      <trkpt lat="49.19391" lon="1.74803">
        <ele>128</ele>
        <time>2016-12-14T10:38:07Z</time>
      </trkpt>
      <trkpt lat="49.19388" lon="1.74803">
        <ele>128</ele>
        <time>2016-12-14T10:38:10Z</time>
      </trkpt>
      <trkpt lat="49.19385" lon="1.748">
        <ele>128</ele>
        <time>2016-12-14T10:38:13Z</time>
      </trkpt>
      <trkpt lat="49.19379" lon="1.74786">
        <ele>127</ele>
        <time>2016-12-14T10:38:21Z</time>
      </trkpt>
      <trkpt lat="49.19376" lon="1.74784">
        <ele>127</ele>
        <time>2016-12-14T10:38:23Z</time>
      </trkpt>
      <trkpt lat="49.1937" lon="1.74775">
        <ele>128</ele>
        <time>2016-12-14T10:38:31Z</time>
      </trkpt>
      <trkpt lat="49.19366" lon="1.74774">
        <ele>129</ele>
        <time>2016-12-14T10:38:36Z</time>
      </trkpt>
      <trkpt lat="49.19362" lon="1.74767">
        <ele>128</ele>
        <time>2016-12-14T10:38:42Z</time>
      </trkpt>
      <trkpt lat="49.19361" lon="1.74758">
        <ele>128</ele>
        <time>2016-12-14T10:38:48Z</time>
      </trkpt>
      <trkpt lat="49.19355" lon="1.74757">
        <ele>128</ele>
        <time>2016-12-14T10:38:55Z</time>
      </trkpt>
      <trkpt lat="49.19342" lon="1.7474">
        <ele>124</ele>
        <time>2016-12-14T10:39:05Z</time>
      </trkpt>
      <trkpt lat="49.19314" lon="1.74703">
        <ele>130</ele>
        <time>2016-12-14T10:39:35Z</time>
      </trkpt>
      <trkpt lat="49.19311" lon="1.74701">
        <ele>130</ele>
        <time>2016-12-14T10:39:39Z</time>
      </trkpt>
      <trkpt lat="49.19304" lon="1.74685">
        <ele>129</ele>
        <time>2016-12-14T10:39:43Z</time>
      </trkpt>
      <trkpt lat="49.19299" lon="1.74687">
        <ele>130</ele>
        <time>2016-12-14T10:39:49Z</time>
      </trkpt>
      <trkpt lat="49.19297" lon="1.74679">
        <ele>130</ele>
        <time>2016-12-14T10:39:53Z</time>
      </trkpt>
      <trkpt lat="49.19284" lon="1.74668">
        <ele>130</ele>
        <time>2016-12-14T10:40:04Z</time>
      </trkpt>
      <trkpt lat="49.19279" lon="1.74657">
        <ele>133</ele>
        <time>2016-12-14T10:40:12Z</time>
      </trkpt>
      <trkpt lat="49.19275" lon="1.74655">
        <ele>133</ele>
        <time>2016-12-14T10:40:14Z</time>
      </trkpt>
      <trkpt lat="49.19271" lon="1.74646">
        <ele>132</ele>
        <time>2016-12-14T10:40:23Z</time>
      </trkpt>
      <trkpt lat="49.19268" lon="1.74643">
        <ele>133</ele>
        <time>2016-12-14T10:40:26Z</time>
      </trkpt>
      <trkpt lat="49.19254" lon="1.74625">
        <ele>135</ele>
        <time>2016-12-14T10:40:40Z</time>
      </trkpt>
      <trkpt lat="49.19246" lon="1.74613">
        <ele>137</ele>
        <time>2016-12-14T10:40:48Z</time>
      </trkpt>
      <trkpt lat="49.1924" lon="1.74601">
        <ele>136</ele>
        <time>2016-12-14T10:40:57Z</time>
      </trkpt>
      <trkpt lat="49.19237" lon="1.746">
        <ele>136</ele>
        <time>2016-12-14T10:41:00Z</time>
      </trkpt>
      <trkpt lat="49.19224" lon="1.74581">
        <ele>137</ele>
        <time>2016-12-14T10:41:11Z</time>
      </trkpt>
      <trkpt lat="49.19222" lon="1.74574">
        <ele>138</ele>
        <time>2016-12-14T10:41:13Z</time>
      </trkpt>
      <trkpt lat="49.19218" lon="1.74576">
        <ele>138</ele>
        <time>2016-12-14T10:41:17Z</time>
      </trkpt>
      <trkpt lat="49.19214" lon="1.74574">
        <ele>137</ele>
        <time>2016-12-14T10:41:19Z</time>
      </trkpt>
      <trkpt lat="49.19208" lon="1.74567">
        <ele>139</ele>
        <time>2016-12-14T10:41:26Z</time>
      </trkpt>
      <trkpt lat="49.19206" lon="1.74562">
        <ele>139</ele>
        <time>2016-12-14T10:41:28Z</time>
      </trkpt>
      <trkpt lat="49.19188" lon="1.74532">
        <ele>141</ele>
        <time>2016-12-14T10:41:50Z</time>
      </trkpt>
      <trkpt lat="49.19168" lon="1.74508">
        <ele>148</ele>
        <time>2016-12-14T10:42:11Z</time>
      </trkpt>
      <trkpt lat="49.1916" lon="1.74502">
        <ele>142</ele>
        <time>2016-12-14T10:42:19Z</time>
      </trkpt>
      <trkpt lat="49.19146" lon="1.74482">
        <ele>137</ele>
        <time>2016-12-14T10:42:34Z</time>
      </trkpt>
      <trkpt lat="49.19139" lon="1.7446">
        <ele>139</ele>
        <time>2016-12-14T10:42:46Z</time>
      </trkpt>
      <trkpt lat="49.19136" lon="1.74457">
        <ele>137</ele>
        <time>2016-12-14T10:42:52Z</time>
      </trkpt>
      <trkpt lat="49.19134" lon="1.74449">
        <ele>136</ele>
        <time>2016-12-14T10:42:55Z</time>
      </trkpt>
      <trkpt lat="49.19131" lon="1.74445">
        <ele>136</ele>
        <time>2016-12-14T10:42:57Z</time>
      </trkpt>
      <trkpt lat="49.19122" lon="1.74428">
        <ele>140</ele>
        <time>2016-12-14T10:43:12Z</time>
      </trkpt>
      <trkpt lat="49.19118" lon="1.74427">
        <ele>136</ele>
        <time>2016-12-14T10:43:16Z</time>
      </trkpt>
      <trkpt lat="49.19105" lon="1.74401">
        <ele>135</ele>
        <time>2016-12-14T10:43:33Z</time>
      </trkpt>
      <trkpt lat="49.19102" lon="1.74392">
        <ele>139</ele>
        <time>2016-12-14T10:43:38Z</time>
      </trkpt>
      <trkpt lat="49.19093" lon="1.74372">
        <ele>141</ele>
        <time>2016-12-14T10:43:49Z</time>
      </trkpt>
      <trkpt lat="49.19077" lon="1.74343">
        <ele>140</ele>
        <time>2016-12-14T10:44:11Z</time>
      </trkpt>
      <trkpt lat="49.19067" lon="1.74319">
        <ele>138</ele>
        <time>2016-12-14T10:44:23Z</time>
      </trkpt>
      <trkpt lat="49.19063" lon="1.74316">
        <ele>137</ele>
        <time>2016-12-14T10:44:31Z</time>
      </trkpt>
      <trkpt lat="49.19057" lon="1.74306">
        <ele>138</ele>
        <time>2016-12-14T10:44:39Z</time>
      </trkpt>
      <trkpt lat="49.19055" lon="1.74305">
        <ele>138</ele>
        <time>2016-12-14T10:44:42Z</time>
      </trkpt>
      <trkpt lat="49.19026" lon="1.74266">
        <ele>139</ele>
        <time>2016-12-14T10:45:14Z</time>
      </trkpt>
      <trkpt lat="49.1902" lon="1.74258">
        <ele>140</ele>
        <time>2016-12-14T10:45:21Z</time>
      </trkpt>
      <trkpt lat="49.19008" lon="1.74237">
        <ele>139</ele>
        <time>2016-12-14T10:45:36Z</time>
      </trkpt>
      <trkpt lat="49.19003" lon="1.74226">
        <ele>140</ele>
        <time>2016-12-14T10:45:41Z</time>
      </trkpt>
      <trkpt lat="49.19" lon="1.74225">
        <ele>138</ele>
        <time>2016-12-14T10:45:48Z</time>
      </trkpt>
      <trkpt lat="49.18994" lon="1.74217">
        <ele>135</ele>
        <time>2016-12-14T10:45:55Z</time>
      </trkpt>
      <trkpt lat="49.18985" lon="1.74206">
        <ele>136</ele>
        <time>2016-12-14T10:46:04Z</time>
      </trkpt>
      <trkpt lat="49.1897" lon="1.74182">
        <ele>142</ele>
        <time>2016-12-14T10:46:23Z</time>
      </trkpt>
      <trkpt lat="49.18963" lon="1.74174">
        <ele>139</ele>
        <time>2016-12-14T10:46:29Z</time>
      </trkpt>
      <trkpt lat="49.18962" lon="1.74167">
        <ele>137</ele>
        <time>2016-12-14T10:46:33Z</time>
      </trkpt>
      <trkpt lat="49.18951" lon="1.74152">
        <ele>139</ele>
        <time>2016-12-14T10:46:47Z</time>
      </trkpt>
      <trkpt lat="49.18948" lon="1.74149">
        <ele>140</ele>
        <time>2016-12-14T10:46:49Z</time>
      </trkpt>
      <trkpt lat="49.18947" lon="1.74145">
        <ele>140</ele>
        <time>2016-12-14T10:46:50Z</time>
      </trkpt>
      <trkpt lat="49.1894" lon="1.74141">
        <ele>140</ele>
        <time>2016-12-14T10:46:56Z</time>
      </trkpt>
      <trkpt lat="49.18937" lon="1.74133">
        <ele>140</ele>
        <time>2016-12-14T10:47:02Z</time>
      </trkpt>
      <trkpt lat="49.18928" lon="1.74129">
        <ele>142</ele>
        <time>2016-12-14T10:47:11Z</time>
      </trkpt>
      <trkpt lat="49.18914" lon="1.74101">
        <ele>139</ele>
        <time>2016-12-14T10:47:31Z</time>
      </trkpt>
      <trkpt lat="49.1891" lon="1.74091">
        <ele>142</ele>
        <time>2016-12-14T10:47:35Z</time>
      </trkpt>
      <trkpt lat="49.18904" lon="1.74085">
        <ele>144</ele>
        <time>2016-12-14T10:47:41Z</time>
      </trkpt>
      <trkpt lat="49.18903" lon="1.74081">
        <ele>144</ele>
        <time>2016-12-14T10:47:44Z</time>
      </trkpt>
      <trkpt lat="49.18899" lon="1.74077">
        <ele>145</ele>
        <time>2016-12-14T10:47:49Z</time>
      </trkpt>
      <trkpt lat="49.18897" lon="1.74073">
        <ele>145</ele>
        <time>2016-12-14T10:47:52Z</time>
      </trkpt>
      <trkpt lat="49.18891" lon="1.74065">
        <ele>140</ele>
        <time>2016-12-14T10:48:00Z</time>
      </trkpt>
      <trkpt lat="49.18883" lon="1.74052">
        <ele>139</ele>
        <time>2016-12-14T10:48:11Z</time>
      </trkpt>
      <trkpt lat="49.18869" lon="1.74036">
        <ele>141</ele>
        <time>2016-12-14T10:48:24Z</time>
      </trkpt>
      <trkpt lat="49.1886" lon="1.74021">
        <ele>141</ele>
        <time>2016-12-14T10:48:32Z</time>
      </trkpt>
      <trkpt lat="49.18856" lon="1.74018">
        <ele>141</ele>
        <time>2016-12-14T10:48:36Z</time>
      </trkpt>
      <trkpt lat="49.18854" lon="1.74013">
        <ele>140</ele>
        <time>2016-12-14T10:48:42Z</time>
      </trkpt>
      <trkpt lat="49.18842" lon="1.73998">
        <ele>147</ele>
        <time>2016-12-14T10:48:55Z</time>
      </trkpt>
      <trkpt lat="49.18835" lon="1.7399">
        <ele>144</ele>
        <time>2016-12-14T10:49:03Z</time>
      </trkpt>
      <trkpt lat="49.18834" lon="1.73986">
        <ele>143</ele>
        <time>2016-12-14T10:49:05Z</time>
      </trkpt>
      <trkpt lat="49.1883" lon="1.73985">
        <ele>142</ele>
        <time>2016-12-14T10:49:09Z</time>
      </trkpt>
      <trkpt lat="49.18826" lon="1.73973">
        <ele>141</ele>
        <time>2016-12-14T10:49:14Z</time>
      </trkpt>
      <trkpt lat="49.18825" lon="1.73969">
        <ele>141</ele>
        <time>2016-12-14T10:49:17Z</time>
      </trkpt>
      <trkpt lat="49.18818" lon="1.73958">
        <ele>144</ele>
        <time>2016-12-14T10:49:24Z</time>
      </trkpt>
      <trkpt lat="49.18814" lon="1.73956">
        <ele>145</ele>
        <time>2016-12-14T10:49:27Z</time>
      </trkpt>
      <trkpt lat="49.18811" lon="1.73949">
        <ele>143</ele>
        <time>2016-12-14T10:49:31Z</time>
      </trkpt>
      <trkpt lat="49.18807" lon="1.73946">
        <ele>139</ele>
        <time>2016-12-14T10:49:38Z</time>
      </trkpt>
      <trkpt lat="49.18779" lon="1.73899">
        <ele>144</ele>
        <time>2016-12-14T10:50:09Z</time>
      </trkpt>
      <trkpt lat="49.18771" lon="1.73889">
        <ele>144</ele>
        <time>2016-12-14T10:50:19Z</time>
      </trkpt>
      <trkpt lat="49.18768" lon="1.73886">
        <ele>146</ele>
        <time>2016-12-14T10:50:25Z</time>
      </trkpt>
      <trkpt lat="49.18767" lon="1.7388">
        <ele>145</ele>
        <time>2016-12-14T10:50:30Z</time>
      </trkpt>
      <trkpt lat="49.1876" lon="1.73874">
        <ele>145</ele>
        <time>2016-12-14T10:50:46Z</time>
      </trkpt>
      <trkpt lat="49.18756" lon="1.73866">
        <ele>144</ele>
        <time>2016-12-14T10:50:52Z</time>
      </trkpt>
      <trkpt lat="49.18753" lon="1.73863">
        <ele>142</ele>
        <time>2016-12-14T10:50:54Z</time>
      </trkpt>
      <trkpt lat="49.18751" lon="1.73859">
        <ele>141</ele>
        <time>2016-12-14T10:50:56Z</time>
      </trkpt>
      <trkpt lat="49.18747" lon="1.73857">
        <ele>141</ele>
        <time>2016-12-14T10:50:58Z</time>
      </trkpt>
      <trkpt lat="49.18746" lon="1.73853">
        <ele>142</ele>
        <time>2016-12-14T10:51:02Z</time>
      </trkpt>
      <trkpt lat="49.18745" lon="1.73849">
        <ele>142</ele>
        <time>2016-12-14T10:51:05Z</time>
      </trkpt>
      <trkpt lat="49.18742" lon="1.73847">
        <ele>140</ele>
        <time>2016-12-14T10:51:08Z</time>
      </trkpt>
      <trkpt lat="49.1874" lon="1.73841">
        <ele>139</ele>
        <time>2016-12-14T10:51:11Z</time>
      </trkpt>
      <trkpt lat="49.18737" lon="1.73838">
        <ele>138</ele>
        <time>2016-12-14T10:51:14Z</time>
      </trkpt>
      <trkpt lat="49.18737" lon="1.73834">
        <ele>138</ele>
        <time>2016-12-14T10:51:15Z</time>
      </trkpt>
      <trkpt lat="49.18733" lon="1.73821">
        <ele>138</ele>
        <time>2016-12-14T10:51:27Z</time>
      </trkpt>
      <trkpt lat="49.18728" lon="1.73812">
        <ele>139</ele>
        <time>2016-12-14T10:51:33Z</time>
      </trkpt>
      <trkpt lat="49.18724" lon="1.73803">
        <ele>139</ele>
        <time>2016-12-14T10:51:40Z</time>
      </trkpt>
      <trkpt lat="49.18722" lon="1.7379">
        <ele>140</ele>
        <time>2016-12-14T10:51:51Z</time>
      </trkpt>
      <trkpt lat="49.18719" lon="1.73785">
        <ele>140</ele>
        <time>2016-12-14T10:51:56Z</time>
      </trkpt>
      <trkpt lat="49.18713" lon="1.73764">
        <ele>144</ele>
        <time>2016-12-14T10:52:07Z</time>
      </trkpt>
      <trkpt lat="49.18712" lon="1.7375">
        <ele>142</ele>
        <time>2016-12-14T10:52:18Z</time>
      </trkpt>
      <trkpt lat="49.18702" lon="1.73726">
        <ele>146</ele>
        <time>2016-12-14T10:52:33Z</time>
      </trkpt>
      <trkpt lat="49.187" lon="1.73727">
        <ele>145</ele>
        <time>2016-12-14T10:52:39Z</time>
      </trkpt>
      <trkpt lat="49.18697" lon="1.73714">
        <ele>142</ele>
        <time>2016-12-14T10:52:44Z</time>
      </trkpt>
      <trkpt lat="49.18697" lon="1.7371">
        <ele>140</ele>
        <time>2016-12-14T10:52:46Z</time>
      </trkpt>
      <trkpt lat="49.18695" lon="1.73706">
        <ele>139</ele>
        <time>2016-12-14T10:52:48Z</time>
      </trkpt>
      <trkpt lat="49.18688" lon="1.73664">
        <ele>143</ele>
        <time>2016-12-14T10:53:12Z</time>
      </trkpt>
      <trkpt lat="49.18687" lon="1.73661">
        <ele>142</ele>
        <time>2016-12-14T10:53:15Z</time>
      </trkpt>
      <trkpt lat="49.18686" lon="1.73657">
        <ele>142</ele>
        <time>2016-12-14T10:53:19Z</time>
      </trkpt>
      <trkpt lat="49.18686" lon="1.73652">
        <ele>143</ele>
        <time>2016-12-14T10:53:22Z</time>
      </trkpt>
      <trkpt lat="49.18685" lon="1.73647">
        <ele>143</ele>
        <time>2016-12-14T10:53:26Z</time>
      </trkpt>
      <trkpt lat="49.18685" lon="1.73643">
        <ele>143</ele>
        <time>2016-12-14T10:53:29Z</time>
      </trkpt>
      <trkpt lat="49.1868" lon="1.73628">
        <ele>142</ele>
        <time>2016-12-14T10:53:37Z</time>
      </trkpt>
      <trkpt lat="49.18677" lon="1.73619">
        <ele>137</ele>
        <time>2016-12-14T10:53:43Z</time>
      </trkpt>
      <trkpt lat="49.18677" lon="1.73614">
        <ele>139</ele>
        <time>2016-12-14T10:53:45Z</time>
      </trkpt>
      <trkpt lat="49.18673" lon="1.73613">
        <ele>140</ele>
        <time>2016-12-14T10:53:50Z</time>
      </trkpt>
      <trkpt lat="49.18672" lon="1.73606">
        <ele>138</ele>
        <time>2016-12-14T10:53:54Z</time>
      </trkpt>
      <trkpt lat="49.1867" lon="1.73587">
        <ele>141</ele>
        <time>2016-12-14T10:54:00Z</time>
      </trkpt>
      <trkpt lat="49.18668" lon="1.73582">
        <ele>141</ele>
        <time>2016-12-14T10:54:02Z</time>
      </trkpt>
      <trkpt lat="49.18665" lon="1.7358">
        <ele>140</ele>
        <time>2016-12-14T10:54:07Z</time>
      </trkpt>
      <trkpt lat="49.18664" lon="1.73565">
        <ele>140</ele>
        <time>2016-12-14T10:54:17Z</time>
      </trkpt>
      <trkpt lat="49.18661" lon="1.73558">
        <ele>137</ele>
        <time>2016-12-14T10:54:20Z</time>
      </trkpt>
      <trkpt lat="49.18662" lon="1.73554">
        <ele>138</ele>
        <time>2016-12-14T10:54:24Z</time>
      </trkpt>
      <trkpt lat="49.18658" lon="1.7354">
        <ele>141</ele>
        <time>2016-12-14T10:54:31Z</time>
      </trkpt>
      <trkpt lat="49.18656" lon="1.73536">
        <ele>142</ele>
        <time>2016-12-14T10:54:35Z</time>
      </trkpt>
      <trkpt lat="49.1865" lon="1.73509">
        <ele>141</ele>
        <time>2016-12-14T10:54:48Z</time>
      </trkpt>
      <trkpt lat="49.18645" lon="1.73493">
        <ele>141</ele>
        <time>2016-12-14T10:54:57Z</time>
      </trkpt>
      <trkpt lat="49.18645" lon="1.73486">
        <ele>142</ele>
        <time>2016-12-14T10:55:03Z</time>
      </trkpt>
      <trkpt lat="49.18638" lon="1.73478">
        <ele>141</ele>
        <time>2016-12-14T10:55:08Z</time>
      </trkpt>
      <trkpt lat="49.18636" lon="1.73466">
        <ele>142</ele>
        <time>2016-12-14T10:55:15Z</time>
      </trkpt>
      <trkpt lat="49.1863" lon="1.73456">
        <ele>141</ele>
        <time>2016-12-14T10:55:27Z</time>
      </trkpt>
      <trkpt lat="49.18628" lon="1.73452">
        <ele>140</ele>
        <time>2016-12-14T10:55:29Z</time>
      </trkpt>
      <trkpt lat="49.18626" lon="1.7345">
        <ele>139</ele>
        <time>2016-12-14T10:55:31Z</time>
      </trkpt>
      <trkpt lat="49.18624" lon="1.73447">
        <ele>138</ele>
        <time>2016-12-14T10:55:33Z</time>
      </trkpt>
      <trkpt lat="49.18621" lon="1.73446">
        <ele>139</ele>
        <time>2016-12-14T10:55:36Z</time>
      </trkpt>
      <trkpt lat="49.18616" lon="1.73437">
        <ele>139</ele>
        <time>2016-12-14T10:55:42Z</time>
      </trkpt>
      <trkpt lat="49.18615" lon="1.73431">
        <ele>141</ele>
        <time>2016-12-14T10:55:47Z</time>
      </trkpt>
      <trkpt lat="49.18613" lon="1.73425">
        <ele>143</ele>
        <time>2016-12-14T10:55:50Z</time>
      </trkpt>
      <trkpt lat="49.18588" lon="1.73395">
        <ele>145</ele>
        <time>2016-12-14T10:56:16Z</time>
      </trkpt>
      <trkpt lat="49.18586" lon="1.73389">
        <ele>146</ele>
        <time>2016-12-14T10:56:18Z</time>
      </trkpt>
      <trkpt lat="49.18582" lon="1.73385">
        <ele>145</ele>
        <time>2016-12-14T10:56:23Z</time>
      </trkpt>
      <trkpt lat="49.18578" lon="1.73377">
        <ele>145</ele>
        <time>2016-12-14T10:56:25Z</time>
      </trkpt>
      <trkpt lat="49.18575" lon="1.73374">
        <ele>143</ele>
        <time>2016-12-14T10:56:28Z</time>
      </trkpt>
      <trkpt lat="49.18572" lon="1.73376">
        <ele>142</ele>
        <time>2016-12-14T10:56:33Z</time>
      </trkpt>
      <trkpt lat="49.18552" lon="1.73355">
        <ele>138</ele>
        <time>2016-12-14T10:56:54Z</time>
      </trkpt>
      <trkpt lat="49.18547" lon="1.73347">
        <ele>140</ele>
        <time>2016-12-14T10:57:00Z</time>
      </trkpt>
      <trkpt lat="49.18532" lon="1.73339">
        <ele>138</ele>
        <time>2016-12-14T10:57:15Z</time>
      </trkpt>
      <trkpt lat="49.18529" lon="1.73336">
        <ele>137</ele>
        <time>2016-12-14T10:57:18Z</time>
      </trkpt>
      <trkpt lat="49.18524" lon="1.73332">
        <ele>135</ele>
        <time>2016-12-14T10:57:26Z</time>
      </trkpt>
      <trkpt lat="49.18515" lon="1.73324">
        <ele>137</ele>
        <time>2016-12-14T10:57:34Z</time>
      </trkpt>
      <trkpt lat="49.18503" lon="1.73306">
        <ele>138</ele>
        <time>2016-12-14T10:57:46Z</time>
      </trkpt>
      <trkpt lat="49.18502" lon="1.73301">
        <ele>139</ele>
        <time>2016-12-14T10:57:50Z</time>
      </trkpt>
      <trkpt lat="49.18494" lon="1.7329">
        <ele>139</ele>
        <time>2016-12-14T10:57:56Z</time>
      </trkpt>
      <trkpt lat="49.18491" lon="1.73289">
        <ele>135</ele>
        <time>2016-12-14T10:58:03Z</time>
      </trkpt>
      <trkpt lat="49.18478" lon="1.73268">
        <ele>136</ele>
        <time>2016-12-14T10:58:22Z</time>
      </trkpt>
      <trkpt lat="49.18477" lon="1.73265">
        <ele>136</ele>
        <time>2016-12-14T10:58:24Z</time>
      </trkpt>
      <trkpt lat="49.18472" lon="1.73258">
        <ele>133</ele>
        <time>2016-12-14T10:58:29Z</time>
      </trkpt>
      <trkpt lat="49.18469" lon="1.73255">
        <ele>133</ele>
        <time>2016-12-14T10:58:33Z</time>
      </trkpt>
      <trkpt lat="49.18468" lon="1.7325">
        <ele>135</ele>
        <time>2016-12-14T10:58:36Z</time>
      </trkpt>
      <trkpt lat="49.18462" lon="1.7325">
        <ele>136</ele>
        <time>2016-12-14T10:58:41Z</time>
      </trkpt>
      <trkpt lat="49.18458" lon="1.73247">
        <ele>137</ele>
        <time>2016-12-14T10:58:43Z</time>
      </trkpt>
      <trkpt lat="49.18452" lon="1.73247">
        <ele>138</ele>
        <time>2016-12-14T10:58:48Z</time>
      </trkpt>
      <trkpt lat="49.18451" lon="1.73243">
        <ele>138</ele>
        <time>2016-12-14T10:58:51Z</time>
      </trkpt>
      <trkpt lat="49.18444" lon="1.73237">
        <ele>138</ele>
        <time>2016-12-14T10:59:03Z</time>
      </trkpt>
      <trkpt lat="49.18436" lon="1.73223">
        <ele>137</ele>
        <time>2016-12-14T10:59:15Z</time>
      </trkpt>
      <trkpt lat="49.18427" lon="1.73215">
        <ele>133</ele>
        <time>2016-12-14T10:59:22Z</time>
      </trkpt>
      <trkpt lat="49.18422" lon="1.73209">
        <ele>133</ele>
        <time>2016-12-14T10:59:25Z</time>
      </trkpt>
      <trkpt lat="49.18422" lon="1.73204">
        <ele>130</ele>
        <time>2016-12-14T10:59:29Z</time>
      </trkpt>
      <trkpt lat="49.18423" lon="1.73201">
        <ele>129</ele>
        <time>2016-12-14T10:59:33Z</time>
      </trkpt>
      <trkpt lat="49.18425" lon="1.73193">
        <ele>132</ele>
        <time>2016-12-14T10:59:38Z</time>
      </trkpt>
      <trkpt lat="49.18428" lon="1.73188">
        <ele>134</ele>
        <time>2016-12-14T10:59:42Z</time>
      </trkpt>
      <trkpt lat="49.18429" lon="1.73182">
        <ele>134</ele>
        <time>2016-12-14T10:59:44Z</time>
      </trkpt>
      <trkpt lat="49.18431" lon="1.73178">
        <ele>133</ele>
        <time>2016-12-14T10:59:47Z</time>
      </trkpt>
      <trkpt lat="49.18447" lon="1.73154">
        <ele>128</ele>
        <time>2016-12-14T11:00:09Z</time>
      </trkpt>
      <trkpt lat="49.18452" lon="1.73145">
        <ele>128</ele>
        <time>2016-12-14T11:00:13Z</time>
      </trkpt>
      <trkpt lat="49.18464" lon="1.73134">
        <ele>140</ele>
        <time>2016-12-14T11:00:19Z</time>
      </trkpt>
      <trkpt lat="49.18465" lon="1.73129">
        <ele>141</ele>
        <time>2016-12-14T11:00:21Z</time>
      </trkpt>
      <trkpt lat="49.18468" lon="1.73119">
        <ele>143</ele>
        <time>2016-12-14T11:00:25Z</time>
      </trkpt>
      <trkpt lat="49.18474" lon="1.73112">
        <ele>143</ele>
        <time>2016-12-14T11:00:30Z</time>
      </trkpt>
      <trkpt lat="49.18472" lon="1.73108">
        <ele>141</ele>
        <time>2016-12-14T11:00:34Z</time>
      </trkpt>
      <trkpt lat="49.18474" lon="1.73105">
        <ele>141</ele>
        <time>2016-12-14T11:00:36Z</time>
      </trkpt>
      <trkpt lat="49.18475" lon="1.73098">
        <ele>140</ele>
        <time>2016-12-14T11:00:41Z</time>
      </trkpt>
      <trkpt lat="49.18477" lon="1.73095">
        <ele>140</ele>
        <time>2016-12-14T11:00:43Z</time>
      </trkpt>
      <trkpt lat="49.18479" lon="1.7308">
        <ele>139</ele>
        <time>2016-12-14T11:00:49Z</time>
      </trkpt>
      <trkpt lat="49.18483" lon="1.73076">
        <ele>139</ele>
        <time>2016-12-14T11:00:53Z</time>
      </trkpt>
      <trkpt lat="49.18487" lon="1.73068">
        <ele>139</ele>
        <time>2016-12-14T11:00:57Z</time>
      </trkpt>
      <trkpt lat="49.18498" lon="1.73046">
        <ele>132</ele>
        <time>2016-12-14T11:01:13Z</time>
      </trkpt>
      <trkpt lat="49.18498" lon="1.73028">
        <ele>132</ele>
        <time>2016-12-14T11:01:24Z</time>
      </trkpt>
      <trkpt lat="49.18496" lon="1.72996">
        <ele>133</ele>
        <time>2016-12-14T11:01:36Z</time>
      </trkpt>
      <trkpt lat="49.18499" lon="1.72994">
        <ele>131</ele>
        <time>2016-12-14T11:01:41Z</time>
      </trkpt>
      <trkpt lat="49.185" lon="1.72989">
        <ele>128</ele>
        <time>2016-12-14T11:01:47Z</time>
      </trkpt>
      <trkpt lat="49.18498" lon="1.72986">
        <ele>129</ele>
        <time>2016-12-14T11:01:59Z</time>
      </trkpt>
      <trkpt lat="49.18498" lon="1.72981">
        <ele>130</ele>
        <time>2016-12-14T11:02:03Z</time>
      </trkpt>
      <trkpt lat="49.185" lon="1.72977">
        <ele>128</ele>
        <time>2016-12-14T11:02:06Z</time>
      </trkpt>
      <trkpt lat="49.18506" lon="1.72979">
        <ele>128</ele>
        <time>2016-12-14T11:02:11Z</time>
      </trkpt>
      <trkpt lat="49.18505" lon="1.72975">
        <ele>127</ele>
        <time>2016-12-14T11:02:25Z</time>
      </trkpt>
      <trkpt lat="49.18496" lon="1.7298">
        <ele>118</ele>
        <time>2016-12-14T11:02:38Z</time>
      </trkpt>
      <trkpt lat="49.18499" lon="1.7298">
        <ele>117</ele>
        <time>2016-12-14T11:02:50Z</time>
      </trkpt>
      <trkpt lat="49.18499" lon="1.72981">
        <ele>120</ele>
        <time>2016-12-14T11:03:09Z</time>
      </trkpt>
      <trkpt lat="49.18502" lon="1.72978">
        <ele>119</ele>
        <time>2016-12-14T11:03:27Z</time>
      </trkpt>
      <trkpt lat="49.18504" lon="1.7298">
        <ele>119</ele>
        <time>2016-12-14T11:03:41Z</time>
      </trkpt>
      <trkpt lat="49.18507" lon="1.72976">
        <ele>120</ele>
        <time>2016-12-14T11:03:46Z</time>
      </trkpt>
      <trkpt lat="49.18514" lon="1.72969">
        <ele>125</ele>
        <time>2016-12-14T11:03:50Z</time>
      </trkpt>
      <trkpt lat="49.18514" lon="1.72975">
        <ele>124</ele>
        <time>2016-12-14T11:04:02Z</time>
      </trkpt>
      <trkpt lat="49.18508" lon="1.72989">
        <ele>123</ele>
        <time>2016-12-14T11:04:05Z</time>
      </trkpt>
      <trkpt lat="49.18466" lon="1.7308">
        <ele>129</ele>
        <time>2016-12-14T11:04:21Z</time>
      </trkpt>
      <trkpt lat="49.18428" lon="1.73181">
        <ele>129</ele>
        <time>2016-12-14T11:04:32Z</time>
      </trkpt>
      <trkpt lat="49.18418" lon="1.73213">
        <ele>136</ele>
        <time>2016-12-14T11:04:36Z</time>
      </trkpt>
      <trkpt lat="49.18422" lon="1.73211">
        <ele>138</ele>
        <time>2016-12-14T11:04:38Z</time>
      </trkpt>
      <trkpt lat="49.18425" lon="1.73217">
        <ele>139</ele>
        <time>2016-12-14T11:04:42Z</time>
      </trkpt>
      <trkpt lat="49.18436" lon="1.73232">
        <ele>136</ele>
        <time>2016-12-14T11:04:46Z</time>
      </trkpt>
      <trkpt lat="49.18453" lon="1.73246">
        <ele>138</ele>
        <time>2016-12-14T11:04:49Z</time>
      </trkpt>
      <trkpt lat="49.18524" lon="1.73287">
        <ele>141</ele>
        <time>2016-12-14T11:04:57Z</time>
      </trkpt>
      <trkpt lat="49.18584" lon="1.73312">
        <ele>138</ele>
        <time>2016-12-14T11:05:02Z</time>
      </trkpt>
    </trkseg>
  </trk>
</gpx>